<?xml version="1.0" encoding="UTF-8" standalone="no" ?>
<gpx xmlns="http://www.topografix.com/GPX/1/1" xmlns:xsi="http://www.w3.org/2001/XMLSchema-instance" xsi:schemaLocation="http://www.topografix.com/GPX/1/1 http://www.topografix.com/GPX/1/1/gpx.xsd" version="1.1" creator="VisuGPX - https://www.visugpx.com">
  <metadata>
    <name>Avec Delphine, balade vallonée</name>
    <desc><![CDATA[Remise en extérieur pour Ténébra, en compagnie de Dun... (gestation et naissance, de sa pouliche en juin)
Départ avec une moyenne de 4.6, la reprise passe aussi par l\'endurance et la vitesse du pas^^ !
]]></desc>
  </metadata>
  <trk>
    <name><![CDATA[Avec Delphine, balade "sportive"]]></name>
    <trkseg>
      <trkpt lat="48.70755" lon="1.75359">
        <ele>172.60000610352</ele>
        <time>2013-08-15T08:28:02.000Z</time>
      </trkpt>
      <trkpt lat="48.7076" lon="1.75341">
        <ele>173</ele>
        <time>2013-08-15T08:28:11.000Z</time>
      </trkpt>
      <trkpt lat="48.70767" lon="1.75329">
        <ele>173.19999694824</ele>
        <time>2013-08-15T08:28:22.000Z</time>
      </trkpt>
      <trkpt lat="48.7077" lon="1.75323">
        <ele>173.19999694824</ele>
        <time>2013-08-15T08:28:28.000Z</time>
      </trkpt>
      <trkpt lat="48.70772" lon="1.75314">
        <ele>173.19999694824</ele>
        <time>2013-08-15T08:28:35.000Z</time>
      </trkpt>
      <trkpt lat="48.70777" lon="1.75304">
        <ele>173.19999694824</ele>
        <time>2013-08-15T08:28:43.000Z</time>
      </trkpt>
      <trkpt lat="48.70782" lon="1.75295">
        <ele>173.19999694824</ele>
        <time>2013-08-15T08:28:50.000Z</time>
      </trkpt>
      <trkpt lat="48.70784" lon="1.7529">
        <ele>173.39999389648</ele>
        <time>2013-08-15T08:28:53.000Z</time>
      </trkpt>
      <trkpt lat="48.70788" lon="1.75279">
        <ele>173.39999389648</ele>
        <time>2013-08-15T08:29:00.000Z</time>
      </trkpt>
      <trkpt lat="48.70794" lon="1.75265">
        <ele>173.39999389648</ele>
        <time>2013-08-15T08:29:09.000Z</time>
      </trkpt>
      <trkpt lat="48.70801" lon="1.75249">
        <ele>173.60000610352</ele>
        <time>2013-08-15T08:29:19.000Z</time>
      </trkpt>
      <trkpt lat="48.70805" lon="1.75238">
        <ele>173.60000610352</ele>
        <time>2013-08-15T08:29:26.000Z</time>
      </trkpt>
      <trkpt lat="48.7081" lon="1.75228">
        <ele>173.60000610352</ele>
        <time>2013-08-15T08:29:32.000Z</time>
      </trkpt>
      <trkpt lat="48.70816" lon="1.75216">
        <ele>173.60000610352</ele>
        <time>2013-08-15T08:29:42.000Z</time>
      </trkpt>
      <trkpt lat="48.70822" lon="1.75202">
        <ele>173.80000305176</ele>
        <time>2013-08-15T08:29:51.000Z</time>
      </trkpt>
      <trkpt lat="48.70827" lon="1.75191">
        <ele>173.80000305176</ele>
        <time>2013-08-15T08:29:58.000Z</time>
      </trkpt>
      <trkpt lat="48.70827" lon="1.75189">
        <ele>173.80000305176</ele>
        <time>2013-08-15T08:30:01.000Z</time>
      </trkpt>
      <trkpt lat="48.70833" lon="1.75168">
        <ele>173.80000305176</ele>
        <time>2013-08-15T08:30:37.000Z</time>
      </trkpt>
      <trkpt lat="48.70839" lon="1.75154">
        <ele>174</ele>
        <time>2013-08-15T08:30:46.000Z</time>
      </trkpt>
      <trkpt lat="48.70845" lon="1.75142">
        <ele>174</ele>
        <time>2013-08-15T08:30:54.000Z</time>
      </trkpt>
      <trkpt lat="48.70847" lon="1.75136">
        <ele>174</ele>
        <time>2013-08-15T08:31:00.000Z</time>
      </trkpt>
      <trkpt lat="48.70853" lon="1.75127">
        <ele>174</ele>
        <time>2013-08-15T08:31:07.000Z</time>
      </trkpt>
      <trkpt lat="48.70855" lon="1.75121">
        <ele>174</ele>
        <time>2013-08-15T08:31:11.000Z</time>
      </trkpt>
      <trkpt lat="48.70858" lon="1.75116">
        <ele>174</ele>
        <time>2013-08-15T08:31:15.000Z</time>
      </trkpt>
      <trkpt lat="48.7086" lon="1.75106">
        <ele>174</ele>
        <time>2013-08-15T08:31:21.000Z</time>
      </trkpt>
      <trkpt lat="48.7086" lon="1.75105">
        <ele>174</ele>
        <time>2013-08-15T08:31:22.000Z</time>
      </trkpt>
      <trkpt lat="48.70864" lon="1.75098">
        <ele>174</ele>
        <time>2013-08-15T08:31:28.000Z</time>
      </trkpt>
      <trkpt lat="48.7087" lon="1.75086">
        <ele>174</ele>
        <time>2013-08-15T08:31:35.000Z</time>
      </trkpt>
      <trkpt lat="48.70874" lon="1.75077">
        <ele>174</ele>
        <time>2013-08-15T08:31:42.000Z</time>
      </trkpt>
      <trkpt lat="48.70874" lon="1.75077">
        <ele>174</ele>
        <time>2013-08-15T08:31:44.000Z</time>
      </trkpt>
      <trkpt lat="48.70879" lon="1.75066">
        <ele>174.19999694824</ele>
        <time>2013-08-15T08:31:56.000Z</time>
      </trkpt>
      <trkpt lat="48.70884" lon="1.75056">
        <ele>174.19999694824</ele>
        <time>2013-08-15T08:32:02.000Z</time>
      </trkpt>
      <trkpt lat="48.70889" lon="1.75045">
        <ele>174.39999389648</ele>
        <time>2013-08-15T08:32:10.000Z</time>
      </trkpt>
      <trkpt lat="48.70895" lon="1.75033">
        <ele>174.60000610352</ele>
        <time>2013-08-15T08:32:18.000Z</time>
      </trkpt>
      <trkpt lat="48.70902" lon="1.75019">
        <ele>174.60000610352</ele>
        <time>2013-08-15T08:32:28.000Z</time>
      </trkpt>
      <trkpt lat="48.70907" lon="1.7501">
        <ele>174.80000305176</ele>
        <time>2013-08-15T08:32:34.000Z</time>
      </trkpt>
      <trkpt lat="48.70912" lon="1.75">
        <ele>174.80000305176</ele>
        <time>2013-08-15T08:32:41.000Z</time>
      </trkpt>
      <trkpt lat="48.70918" lon="1.74987">
        <ele>175</ele>
        <time>2013-08-15T08:32:50.000Z</time>
      </trkpt>
      <trkpt lat="48.70924" lon="1.74974">
        <ele>175.19999694824</ele>
        <time>2013-08-15T08:32:58.000Z</time>
      </trkpt>
      <trkpt lat="48.7093" lon="1.74962">
        <ele>175.39999389648</ele>
        <time>2013-08-15T08:33:06.000Z</time>
      </trkpt>
      <trkpt lat="48.70938" lon="1.74948">
        <ele>175.80000305176</ele>
        <time>2013-08-15T08:33:16.000Z</time>
      </trkpt>
      <trkpt lat="48.70944" lon="1.74939">
        <ele>176.19999694824</ele>
        <time>2013-08-15T08:33:23.000Z</time>
      </trkpt>
      <trkpt lat="48.70951" lon="1.74928">
        <ele>176.39999389648</ele>
        <time>2013-08-15T08:33:31.000Z</time>
      </trkpt>
      <trkpt lat="48.7096" lon="1.7492">
        <ele>177</ele>
        <time>2013-08-15T08:33:40.000Z</time>
      </trkpt>
      <trkpt lat="48.7096" lon="1.7492">
        <ele>177</ele>
        <time>2013-08-15T08:33:41.000Z</time>
      </trkpt>
      <trkpt lat="48.70962" lon="1.74918">
        <ele>177</ele>
        <time>2013-08-15T08:37:13.000Z</time>
      </trkpt>
      <trkpt lat="48.70965" lon="1.74915">
        <ele>177.19999694824</ele>
        <time>2013-08-15T08:37:15.000Z</time>
      </trkpt>
      <trkpt lat="48.70971" lon="1.74908">
        <ele>177.60000610352</ele>
        <time>2013-08-15T08:37:21.000Z</time>
      </trkpt>
      <trkpt lat="48.70976" lon="1.749">
        <ele>178</ele>
        <time>2013-08-15T08:37:26.000Z</time>
      </trkpt>
      <trkpt lat="48.70981" lon="1.74894">
        <ele>178.19999694824</ele>
        <time>2013-08-15T08:37:31.000Z</time>
      </trkpt>
      <trkpt lat="48.70983" lon="1.7489">
        <ele>178.19999694824</ele>
        <time>2013-08-15T08:37:34.000Z</time>
      </trkpt>
      <trkpt lat="48.70989" lon="1.7488">
        <ele>178.60000610352</ele>
        <time>2013-08-15T08:37:40.000Z</time>
      </trkpt>
      <trkpt lat="48.7099" lon="1.74878">
        <ele>178.60000610352</ele>
        <time>2013-08-15T08:37:41.000Z</time>
      </trkpt>
      <trkpt lat="48.70999" lon="1.74865">
        <ele>178.80000305176</ele>
        <time>2013-08-15T08:37:50.000Z</time>
      </trkpt>
      <trkpt lat="48.71004" lon="1.74859">
        <ele>178.60000610352</ele>
        <time>2013-08-15T08:37:55.000Z</time>
      </trkpt>
      <trkpt lat="48.71007" lon="1.74849">
        <ele>178.60000610352</ele>
        <time>2013-08-15T08:38:01.000Z</time>
      </trkpt>
      <trkpt lat="48.71008" lon="1.7484">
        <ele>178.39999389648</ele>
        <time>2013-08-15T08:38:05.000Z</time>
      </trkpt>
      <trkpt lat="48.71007" lon="1.74833">
        <ele>178.39999389648</ele>
        <time>2013-08-15T08:38:09.000Z</time>
      </trkpt>
      <trkpt lat="48.71001" lon="1.74824">
        <ele>178.80000305176</ele>
        <time>2013-08-15T08:38:16.000Z</time>
      </trkpt>
      <trkpt lat="48.70996" lon="1.74815">
        <ele>178.60000610352</ele>
        <time>2013-08-15T08:38:22.000Z</time>
      </trkpt>
      <trkpt lat="48.70995" lon="1.74814">
        <ele>178.60000610352</ele>
        <time>2013-08-15T08:38:23.000Z</time>
      </trkpt>
      <trkpt lat="48.70988" lon="1.74802">
        <ele>178.39999389648</ele>
        <time>2013-08-15T08:38:32.000Z</time>
      </trkpt>
      <trkpt lat="48.70987" lon="1.74799">
        <ele>178.39999389648</ele>
        <time>2013-08-15T08:38:34.000Z</time>
      </trkpt>
      <trkpt lat="48.70984" lon="1.74793">
        <ele>178.39999389648</ele>
        <time>2013-08-15T08:38:38.000Z</time>
      </trkpt>
      <trkpt lat="48.7098" lon="1.74787">
        <ele>178.19999694824</ele>
        <time>2013-08-15T08:38:43.000Z</time>
      </trkpt>
      <trkpt lat="48.70974" lon="1.7478">
        <ele>178.19999694824</ele>
        <time>2013-08-15T08:38:49.000Z</time>
      </trkpt>
      <trkpt lat="48.70972" lon="1.74778">
        <ele>178.19999694824</ele>
        <time>2013-08-15T08:38:51.000Z</time>
      </trkpt>
      <trkpt lat="48.70964" lon="1.74768">
        <ele>178</ele>
        <time>2013-08-15T08:38:58.000Z</time>
      </trkpt>
      <trkpt lat="48.70961" lon="1.74767">
        <ele>178</ele>
        <time>2013-08-15T08:39:00.000Z</time>
      </trkpt>
      <trkpt lat="48.70953" lon="1.74757">
        <ele>178</ele>
        <time>2013-08-15T08:39:08.000Z</time>
      </trkpt>
      <trkpt lat="48.70946" lon="1.74749">
        <ele>177.80000305176</ele>
        <time>2013-08-15T08:39:14.000Z</time>
      </trkpt>
      <trkpt lat="48.70939" lon="1.7474">
        <ele>177.80000305176</ele>
        <time>2013-08-15T08:39:21.000Z</time>
      </trkpt>
      <trkpt lat="48.70932" lon="1.74731">
        <ele>177.60000610352</ele>
        <time>2013-08-15T08:39:28.000Z</time>
      </trkpt>
      <trkpt lat="48.70923" lon="1.74719">
        <ele>177.19999694824</ele>
        <time>2013-08-15T08:39:36.000Z</time>
      </trkpt>
      <trkpt lat="48.70914" lon="1.74706">
        <ele>176.80000305176</ele>
        <time>2013-08-15T08:39:45.000Z</time>
      </trkpt>
      <trkpt lat="48.70909" lon="1.74699">
        <ele>176.80000305176</ele>
        <time>2013-08-15T08:39:50.000Z</time>
      </trkpt>
      <trkpt lat="48.70904" lon="1.74693">
        <ele>176.60000610352</ele>
        <time>2013-08-15T08:39:55.000Z</time>
      </trkpt>
      <trkpt lat="48.70895" lon="1.74682">
        <ele>176.39999389648</ele>
        <time>2013-08-15T08:40:04.000Z</time>
      </trkpt>
      <trkpt lat="48.70888" lon="1.74673">
        <ele>176.19999694824</ele>
        <time>2013-08-15T08:40:11.000Z</time>
      </trkpt>
      <trkpt lat="48.7088" lon="1.74663">
        <ele>175.80000305176</ele>
        <time>2013-08-15T08:40:19.000Z</time>
      </trkpt>
      <trkpt lat="48.70872" lon="1.74653">
        <ele>175.80000305176</ele>
        <time>2013-08-15T08:40:27.000Z</time>
      </trkpt>
      <trkpt lat="48.7087" lon="1.74651">
        <ele>175.80000305176</ele>
        <time>2013-08-15T08:40:29.000Z</time>
      </trkpt>
      <trkpt lat="48.70863" lon="1.74641">
        <ele>175.80000305176</ele>
        <time>2013-08-15T08:40:37.000Z</time>
      </trkpt>
      <trkpt lat="48.70854" lon="1.74629">
        <ele>175.80000305176</ele>
        <time>2013-08-15T08:40:46.000Z</time>
      </trkpt>
      <trkpt lat="48.70843" lon="1.74614">
        <ele>175.80000305176</ele>
        <time>2013-08-15T08:40:56.000Z</time>
      </trkpt>
      <trkpt lat="48.70835" lon="1.74604">
        <ele>175.80000305176</ele>
        <time>2013-08-15T08:41:04.000Z</time>
      </trkpt>
      <trkpt lat="48.70821" lon="1.74585">
        <ele>176</ele>
        <time>2013-08-15T08:41:17.000Z</time>
      </trkpt>
      <trkpt lat="48.70809" lon="1.74568">
        <ele>176.19999694824</ele>
        <time>2013-08-15T08:41:29.000Z</time>
      </trkpt>
      <trkpt lat="48.70802" lon="1.74558">
        <ele>176.19999694824</ele>
        <time>2013-08-15T08:41:37.000Z</time>
      </trkpt>
      <trkpt lat="48.70797" lon="1.74549">
        <ele>176.39999389648</ele>
        <time>2013-08-15T08:41:43.000Z</time>
      </trkpt>
      <trkpt lat="48.70788" lon="1.7454">
        <ele>176.39999389648</ele>
        <time>2013-08-15T08:41:51.000Z</time>
      </trkpt>
      <trkpt lat="48.70777" lon="1.74529">
        <ele>176.60000610352</ele>
        <time>2013-08-15T08:42:00.000Z</time>
      </trkpt>
      <trkpt lat="48.70766" lon="1.74517">
        <ele>176.80000305176</ele>
        <time>2013-08-15T08:42:11.000Z</time>
      </trkpt>
      <trkpt lat="48.7076" lon="1.7451">
        <ele>176.80000305176</ele>
        <time>2013-08-15T08:42:17.000Z</time>
      </trkpt>
      <trkpt lat="48.7075" lon="1.74498">
        <ele>177</ele>
        <time>2013-08-15T08:42:26.000Z</time>
      </trkpt>
      <trkpt lat="48.70749" lon="1.74494">
        <ele>177</ele>
        <time>2013-08-15T08:42:29.000Z</time>
      </trkpt>
      <trkpt lat="48.7075" lon="1.74492">
        <ele>177</ele>
        <time>2013-08-15T08:42:34.000Z</time>
      </trkpt>
      <trkpt lat="48.70738" lon="1.74483">
        <ele>177.60000610352</ele>
        <time>2013-08-15T08:43:05.000Z</time>
      </trkpt>
      <trkpt lat="48.70733" lon="1.74477">
        <ele>177.80000305176</ele>
        <time>2013-08-15T08:43:09.000Z</time>
      </trkpt>
      <trkpt lat="48.7073" lon="1.74473">
        <ele>178</ele>
        <time>2013-08-15T08:43:12.000Z</time>
      </trkpt>
      <trkpt lat="48.7073" lon="1.74471">
        <ele>178</ele>
        <time>2013-08-15T08:43:16.000Z</time>
      </trkpt>
      <trkpt lat="48.70732" lon="1.74461">
        <ele>178</ele>
        <time>2013-08-15T08:43:26.000Z</time>
      </trkpt>
      <trkpt lat="48.70741" lon="1.7445">
        <ele>177.80000305176</ele>
        <time>2013-08-15T08:43:33.000Z</time>
      </trkpt>
      <trkpt lat="48.70742" lon="1.74449">
        <ele>177.80000305176</ele>
        <time>2013-08-15T08:43:34.000Z</time>
      </trkpt>
      <trkpt lat="48.70751" lon="1.74443">
        <ele>177.60000610352</ele>
        <time>2013-08-15T08:43:41.000Z</time>
      </trkpt>
      <trkpt lat="48.70761" lon="1.74437">
        <ele>177.39999389648</ele>
        <time>2013-08-15T08:43:49.000Z</time>
      </trkpt>
      <trkpt lat="48.70769" lon="1.74432">
        <ele>177.39999389648</ele>
        <time>2013-08-15T08:43:56.000Z</time>
      </trkpt>
      <trkpt lat="48.70776" lon="1.74427">
        <ele>177.19999694824</ele>
        <time>2013-08-15T08:44:02.000Z</time>
      </trkpt>
      <trkpt lat="48.7078" lon="1.74424">
        <ele>177.19999694824</ele>
        <time>2013-08-15T08:44:06.000Z</time>
      </trkpt>
      <trkpt lat="48.70786" lon="1.7442">
        <ele>177</ele>
        <time>2013-08-15T08:44:12.000Z</time>
      </trkpt>
      <trkpt lat="48.70788" lon="1.74418">
        <ele>177</ele>
        <time>2013-08-15T08:44:14.000Z</time>
      </trkpt>
      <trkpt lat="48.70795" lon="1.74413">
        <ele>176.80000305176</ele>
        <time>2013-08-15T08:44:20.000Z</time>
      </trkpt>
      <trkpt lat="48.70804" lon="1.74407">
        <ele>176.80000305176</ele>
        <time>2013-08-15T08:44:27.000Z</time>
      </trkpt>
      <trkpt lat="48.70811" lon="1.74403">
        <ele>176.60000610352</ele>
        <time>2013-08-15T08:44:33.000Z</time>
      </trkpt>
      <trkpt lat="48.70817" lon="1.74398">
        <ele>176.60000610352</ele>
        <time>2013-08-15T08:44:39.000Z</time>
      </trkpt>
      <trkpt lat="48.7082" lon="1.74395">
        <ele>176.60000610352</ele>
        <time>2013-08-15T08:44:42.000Z</time>
      </trkpt>
      <trkpt lat="48.70827" lon="1.74389">
        <ele>176.39999389648</ele>
        <time>2013-08-15T08:44:49.000Z</time>
      </trkpt>
      <trkpt lat="48.70832" lon="1.74384">
        <ele>176.39999389648</ele>
        <time>2013-08-15T08:44:54.000Z</time>
      </trkpt>
      <trkpt lat="48.70837" lon="1.74378">
        <ele>176.39999389648</ele>
        <time>2013-08-15T08:45:00.000Z</time>
      </trkpt>
      <trkpt lat="48.70837" lon="1.74377">
        <ele>176.39999389648</ele>
        <time>2013-08-15T08:45:01.000Z</time>
      </trkpt>
      <trkpt lat="48.70842" lon="1.74371">
        <ele>176.39999389648</ele>
        <time>2013-08-15T08:45:08.000Z</time>
      </trkpt>
      <trkpt lat="48.70842" lon="1.74372">
        <ele>176.39999389648</ele>
        <time>2013-08-15T08:45:09.000Z</time>
      </trkpt>
      <trkpt lat="48.70866" lon="1.74335">
        <ele>176.39999389648</ele>
        <time>2013-08-15T08:50:59.000Z</time>
      </trkpt>
      <trkpt lat="48.70869" lon="1.74329">
        <ele>176.60000610352</ele>
        <time>2013-08-15T08:51:03.000Z</time>
      </trkpt>
      <trkpt lat="48.70874" lon="1.7432">
        <ele>177</ele>
        <time>2013-08-15T08:51:09.000Z</time>
      </trkpt>
      <trkpt lat="48.70877" lon="1.74312">
        <ele>177.39999389648</ele>
        <time>2013-08-15T08:51:15.000Z</time>
      </trkpt>
      <trkpt lat="48.70878" lon="1.74309">
        <ele>177.60000610352</ele>
        <time>2013-08-15T08:51:18.000Z</time>
      </trkpt>
      <trkpt lat="48.70883" lon="1.74298">
        <ele>178</ele>
        <time>2013-08-15T08:51:26.000Z</time>
      </trkpt>
      <trkpt lat="48.70885" lon="1.74295">
        <ele>178.19999694824</ele>
        <time>2013-08-15T08:51:29.000Z</time>
      </trkpt>
      <trkpt lat="48.70889" lon="1.74291">
        <ele>178.39999389648</ele>
        <time>2013-08-15T08:51:33.000Z</time>
      </trkpt>
      <trkpt lat="48.70893" lon="1.74282">
        <ele>178.80000305176</ele>
        <time>2013-08-15T08:51:39.000Z</time>
      </trkpt>
      <trkpt lat="48.70896" lon="1.74276">
        <ele>179.19999694824</ele>
        <time>2013-08-15T08:51:43.000Z</time>
      </trkpt>
      <trkpt lat="48.70902" lon="1.74267">
        <ele>179.80000305176</ele>
        <time>2013-08-15T08:51:50.000Z</time>
      </trkpt>
      <trkpt lat="48.70906" lon="1.7426">
        <ele>180.19999694824</ele>
        <time>2013-08-15T08:51:56.000Z</time>
      </trkpt>
      <trkpt lat="48.70907" lon="1.74256">
        <ele>180.39999389648</ele>
        <time>2013-08-15T08:51:59.000Z</time>
      </trkpt>
      <trkpt lat="48.70908" lon="1.74251">
        <ele>180.80000305176</ele>
        <time>2013-08-15T08:52:02.000Z</time>
      </trkpt>
      <trkpt lat="48.70908" lon="1.74248">
        <ele>180.80000305176</ele>
        <time>2013-08-15T08:52:05.000Z</time>
      </trkpt>
      <trkpt lat="48.70908" lon="1.74242">
        <ele>181</ele>
        <time>2013-08-15T08:52:10.000Z</time>
      </trkpt>
      <trkpt lat="48.70908" lon="1.74242">
        <ele>181</ele>
        <time>2013-08-15T08:52:11.000Z</time>
      </trkpt>
      <trkpt lat="48.70926" lon="1.74192">
        <ele>182</ele>
        <time>2013-08-15T08:54:08.000Z</time>
      </trkpt>
      <trkpt lat="48.70928" lon="1.74179">
        <ele>182.19999694824</ele>
        <time>2013-08-15T08:54:15.000Z</time>
      </trkpt>
      <trkpt lat="48.70927" lon="1.74169">
        <ele>182.39999389648</ele>
        <time>2013-08-15T08:54:21.000Z</time>
      </trkpt>
      <trkpt lat="48.70928" lon="1.74166">
        <ele>182.39999389648</ele>
        <time>2013-08-15T08:54:23.000Z</time>
      </trkpt>
      <trkpt lat="48.7093" lon="1.74158">
        <ele>182.39999389648</ele>
        <time>2013-08-15T08:54:29.000Z</time>
      </trkpt>
      <trkpt lat="48.70933" lon="1.74146">
        <ele>182.39999389648</ele>
        <time>2013-08-15T08:54:36.000Z</time>
      </trkpt>
      <trkpt lat="48.70934" lon="1.74139">
        <ele>182.39999389648</ele>
        <time>2013-08-15T08:54:39.000Z</time>
      </trkpt>
      <trkpt lat="48.70936" lon="1.74132">
        <ele>182.39999389648</ele>
        <time>2013-08-15T08:54:43.000Z</time>
      </trkpt>
      <trkpt lat="48.70939" lon="1.74121">
        <ele>182.39999389648</ele>
        <time>2013-08-15T08:54:49.000Z</time>
      </trkpt>
      <trkpt lat="48.70942" lon="1.74113">
        <ele>182.39999389648</ele>
        <time>2013-08-15T08:54:53.000Z</time>
      </trkpt>
      <trkpt lat="48.70944" lon="1.74105">
        <ele>182.39999389648</ele>
        <time>2013-08-15T08:54:57.000Z</time>
      </trkpt>
      <trkpt lat="48.70946" lon="1.74089">
        <ele>182.60000610352</ele>
        <time>2013-08-15T08:55:05.000Z</time>
      </trkpt>
      <trkpt lat="48.70948" lon="1.74076">
        <ele>182.60000610352</ele>
        <time>2013-08-15T08:55:12.000Z</time>
      </trkpt>
      <trkpt lat="48.70949" lon="1.74072">
        <ele>182.60000610352</ele>
        <time>2013-08-15T08:55:15.000Z</time>
      </trkpt>
      <trkpt lat="48.70951" lon="1.74066">
        <ele>182.39999389648</ele>
        <time>2013-08-15T08:55:19.000Z</time>
      </trkpt>
      <trkpt lat="48.70955" lon="1.7405">
        <ele>182.39999389648</ele>
        <time>2013-08-15T08:55:28.000Z</time>
      </trkpt>
      <trkpt lat="48.70957" lon="1.74039">
        <ele>182.39999389648</ele>
        <time>2013-08-15T08:55:35.000Z</time>
      </trkpt>
      <trkpt lat="48.70959" lon="1.74036">
        <ele>182.39999389648</ele>
        <time>2013-08-15T08:55:37.000Z</time>
      </trkpt>
      <trkpt lat="48.70962" lon="1.74024">
        <ele>182.39999389648</ele>
        <time>2013-08-15T08:55:45.000Z</time>
      </trkpt>
      <trkpt lat="48.70965" lon="1.74014">
        <ele>182.39999389648</ele>
        <time>2013-08-15T08:55:51.000Z</time>
      </trkpt>
      <trkpt lat="48.70968" lon="1.74">
        <ele>182.19999694824</ele>
        <time>2013-08-15T08:55:58.000Z</time>
      </trkpt>
      <trkpt lat="48.70971" lon="1.7399">
        <ele>182.39999389648</ele>
        <time>2013-08-15T08:56:04.000Z</time>
      </trkpt>
      <trkpt lat="48.70972" lon="1.73977">
        <ele>182.80000305176</ele>
        <time>2013-08-15T08:56:11.000Z</time>
      </trkpt>
      <trkpt lat="48.70974" lon="1.73969">
        <ele>183</ele>
        <time>2013-08-15T08:56:15.000Z</time>
      </trkpt>
      <trkpt lat="48.70977" lon="1.73958">
        <ele>183.19999694824</ele>
        <time>2013-08-15T08:56:22.000Z</time>
      </trkpt>
      <trkpt lat="48.7098" lon="1.73943">
        <ele>183.80000305176</ele>
        <time>2013-08-15T08:56:30.000Z</time>
      </trkpt>
      <trkpt lat="48.70983" lon="1.73931">
        <ele>184</ele>
        <time>2013-08-15T08:56:36.000Z</time>
      </trkpt>
      <trkpt lat="48.70986" lon="1.73914">
        <ele>184.39999389648</ele>
        <time>2013-08-15T08:56:46.000Z</time>
      </trkpt>
      <trkpt lat="48.70989" lon="1.73904">
        <ele>184.39999389648</ele>
        <time>2013-08-15T08:56:53.000Z</time>
      </trkpt>
      <trkpt lat="48.70991" lon="1.73892">
        <ele>184</ele>
        <time>2013-08-15T08:57:00.000Z</time>
      </trkpt>
      <trkpt lat="48.70994" lon="1.7388">
        <ele>183.80000305176</ele>
        <time>2013-08-15T08:57:08.000Z</time>
      </trkpt>
      <trkpt lat="48.70997" lon="1.73868">
        <ele>183.60000610352</ele>
        <time>2013-08-15T08:57:15.000Z</time>
      </trkpt>
      <trkpt lat="48.70998" lon="1.73866">
        <ele>183.60000610352</ele>
        <time>2013-08-15T08:57:16.000Z</time>
      </trkpt>
      <trkpt lat="48.71001" lon="1.73856">
        <ele>183.39999389648</ele>
        <time>2013-08-15T08:57:22.000Z</time>
      </trkpt>
      <trkpt lat="48.71002" lon="1.73846">
        <ele>183.19999694824</ele>
        <time>2013-08-15T08:57:28.000Z</time>
      </trkpt>
      <trkpt lat="48.71006" lon="1.73831">
        <ele>182.80000305176</ele>
        <time>2013-08-15T08:57:36.000Z</time>
      </trkpt>
      <trkpt lat="48.7101" lon="1.7382">
        <ele>182.60000610352</ele>
        <time>2013-08-15T08:57:42.000Z</time>
      </trkpt>
      <trkpt lat="48.71014" lon="1.73808">
        <ele>182.19999694824</ele>
        <time>2013-08-15T08:57:49.000Z</time>
      </trkpt>
      <trkpt lat="48.71019" lon="1.73801">
        <ele>182.19999694824</ele>
        <time>2013-08-15T08:57:55.000Z</time>
      </trkpt>
      <trkpt lat="48.71024" lon="1.73792">
        <ele>182</ele>
        <time>2013-08-15T08:58:03.000Z</time>
      </trkpt>
      <trkpt lat="48.71028" lon="1.73787">
        <ele>182</ele>
        <time>2013-08-15T08:58:09.000Z</time>
      </trkpt>
      <trkpt lat="48.71029" lon="1.73786">
        <ele>182</ele>
        <time>2013-08-15T08:58:10.000Z</time>
      </trkpt>
      <trkpt lat="48.71037" lon="1.73779">
        <ele>182</ele>
        <time>2013-08-15T08:58:17.000Z</time>
      </trkpt>
      <trkpt lat="48.71037" lon="1.73774">
        <ele>182</ele>
        <time>2013-08-15T08:58:24.000Z</time>
      </trkpt>
      <trkpt lat="48.71042" lon="1.73769">
        <ele>182</ele>
        <time>2013-08-15T08:58:32.000Z</time>
      </trkpt>
      <trkpt lat="48.71044" lon="1.73768">
        <ele>182</ele>
        <time>2013-08-15T08:58:33.000Z</time>
      </trkpt>
      <trkpt lat="48.71047" lon="1.73762">
        <ele>182</ele>
        <time>2013-08-15T08:58:39.000Z</time>
      </trkpt>
      <trkpt lat="48.71051" lon="1.73758">
        <ele>182.19999694824</ele>
        <time>2013-08-15T08:58:45.000Z</time>
      </trkpt>
      <trkpt lat="48.71055" lon="1.73752">
        <ele>182.19999694824</ele>
        <time>2013-08-15T08:58:52.000Z</time>
      </trkpt>
      <trkpt lat="48.71058" lon="1.73748">
        <ele>182.19999694824</ele>
        <time>2013-08-15T08:58:55.000Z</time>
      </trkpt>
      <trkpt lat="48.7107" lon="1.73739">
        <ele>182</ele>
        <time>2013-08-15T08:59:04.000Z</time>
      </trkpt>
      <trkpt lat="48.71074" lon="1.73733">
        <ele>182</ele>
        <time>2013-08-15T08:59:10.000Z</time>
      </trkpt>
      <trkpt lat="48.71078" lon="1.73727">
        <ele>181.60000610352</ele>
        <time>2013-08-15T08:59:15.000Z</time>
      </trkpt>
      <trkpt lat="48.71087" lon="1.73721">
        <ele>181.60000610352</ele>
        <time>2013-08-15T08:59:22.000Z</time>
      </trkpt>
      <trkpt lat="48.71091" lon="1.73718">
        <ele>181.60000610352</ele>
        <time>2013-08-15T08:59:26.000Z</time>
      </trkpt>
      <trkpt lat="48.71096" lon="1.73713">
        <ele>181.39999389648</ele>
        <time>2013-08-15T08:59:30.000Z</time>
      </trkpt>
      <trkpt lat="48.71102" lon="1.73705">
        <ele>181.39999389648</ele>
        <time>2013-08-15T08:59:37.000Z</time>
      </trkpt>
      <trkpt lat="48.71105" lon="1.73701">
        <ele>181.19999694824</ele>
        <time>2013-08-15T08:59:41.000Z</time>
      </trkpt>
      <trkpt lat="48.71108" lon="1.73699">
        <ele>181.19999694824</ele>
        <time>2013-08-15T08:59:44.000Z</time>
      </trkpt>
      <trkpt lat="48.71116" lon="1.73694">
        <ele>181.39999389648</ele>
        <time>2013-08-15T08:59:50.000Z</time>
      </trkpt>
      <trkpt lat="48.71123" lon="1.73689">
        <ele>181.39999389648</ele>
        <time>2013-08-15T08:59:55.000Z</time>
      </trkpt>
      <trkpt lat="48.7113" lon="1.73682">
        <ele>181.60000610352</ele>
        <time>2013-08-15T09:00:03.000Z</time>
      </trkpt>
      <trkpt lat="48.71138" lon="1.73673">
        <ele>181.60000610352</ele>
        <time>2013-08-15T09:00:10.000Z</time>
      </trkpt>
      <trkpt lat="48.71146" lon="1.73667">
        <ele>182</ele>
        <time>2013-08-15T09:00:17.000Z</time>
      </trkpt>
      <trkpt lat="48.71146" lon="1.73666">
        <ele>181.80000305176</ele>
        <time>2013-08-15T09:00:18.000Z</time>
      </trkpt>
      <trkpt lat="48.71152" lon="1.73658">
        <ele>182</ele>
        <time>2013-08-15T09:00:25.000Z</time>
      </trkpt>
      <trkpt lat="48.71155" lon="1.73655">
        <ele>182</ele>
        <time>2013-08-15T09:00:28.000Z</time>
      </trkpt>
      <trkpt lat="48.71162" lon="1.73646">
        <ele>182</ele>
        <time>2013-08-15T09:00:35.000Z</time>
      </trkpt>
      <trkpt lat="48.71169" lon="1.73641">
        <ele>182</ele>
        <time>2013-08-15T09:00:41.000Z</time>
      </trkpt>
      <trkpt lat="48.71173" lon="1.73638">
        <ele>182</ele>
        <time>2013-08-15T09:00:46.000Z</time>
      </trkpt>
      <trkpt lat="48.71177" lon="1.73634">
        <ele>182</ele>
        <time>2013-08-15T09:00:50.000Z</time>
      </trkpt>
      <trkpt lat="48.71187" lon="1.73627">
        <ele>182</ele>
        <time>2013-08-15T09:00:58.000Z</time>
      </trkpt>
      <trkpt lat="48.71191" lon="1.73624">
        <ele>182.19999694824</ele>
        <time>2013-08-15T09:01:01.000Z</time>
      </trkpt>
      <trkpt lat="48.71195" lon="1.73617">
        <ele>182.19999694824</ele>
        <time>2013-08-15T09:01:07.000Z</time>
      </trkpt>
      <trkpt lat="48.712" lon="1.73608">
        <ele>182.19999694824</ele>
        <time>2013-08-15T09:01:14.000Z</time>
      </trkpt>
      <trkpt lat="48.71207" lon="1.7361">
        <ele>182.39999389648</ele>
        <time>2013-08-15T09:01:20.000Z</time>
      </trkpt>
      <trkpt lat="48.71214" lon="1.73614">
        <ele>182.80000305176</ele>
        <time>2013-08-15T09:01:28.000Z</time>
      </trkpt>
      <trkpt lat="48.71215" lon="1.73615">
        <ele>182.80000305176</ele>
        <time>2013-08-15T09:01:29.000Z</time>
      </trkpt>
      <trkpt lat="48.71217" lon="1.73614">
        <ele>183</ele>
        <time>2013-08-15T09:01:31.000Z</time>
      </trkpt>
      <trkpt lat="48.71224" lon="1.73614">
        <ele>183.19999694824</ele>
        <time>2013-08-15T09:01:36.000Z</time>
      </trkpt>
      <trkpt lat="48.71236" lon="1.73614">
        <ele>183.60000610352</ele>
        <time>2013-08-15T09:01:44.000Z</time>
      </trkpt>
      <trkpt lat="48.71245" lon="1.73613">
        <ele>184</ele>
        <time>2013-08-15T09:01:52.000Z</time>
      </trkpt>
      <trkpt lat="48.71251" lon="1.73612">
        <ele>184</ele>
        <time>2013-08-15T09:02:00.000Z</time>
      </trkpt>
      <trkpt lat="48.71257" lon="1.73615">
        <ele>183</ele>
        <time>2013-08-15T09:02:05.000Z</time>
      </trkpt>
      <trkpt lat="48.71265" lon="1.7361">
        <ele>181.60000610352</ele>
        <time>2013-08-15T09:02:12.000Z</time>
      </trkpt>
      <trkpt lat="48.71275" lon="1.736">
        <ele>180.19999694824</ele>
        <time>2013-08-15T09:02:20.000Z</time>
      </trkpt>
      <trkpt lat="48.7128" lon="1.73598">
        <ele>179.60000610352</ele>
        <time>2013-08-15T09:02:25.000Z</time>
      </trkpt>
      <trkpt lat="48.7128" lon="1.73597">
        <ele>179.39999389648</ele>
        <time>2013-08-15T09:02:26.000Z</time>
      </trkpt>
      <trkpt lat="48.71285" lon="1.73591">
        <ele>178.80000305176</ele>
        <time>2013-08-15T09:02:32.000Z</time>
      </trkpt>
      <trkpt lat="48.71289" lon="1.73581">
        <ele>178.39999389648</ele>
        <time>2013-08-15T09:02:38.000Z</time>
      </trkpt>
      <trkpt lat="48.71294" lon="1.73574">
        <ele>177.80000305176</ele>
        <time>2013-08-15T09:02:44.000Z</time>
      </trkpt>
      <trkpt lat="48.71297" lon="1.73568">
        <ele>177.39999389648</ele>
        <time>2013-08-15T09:02:49.000Z</time>
      </trkpt>
      <trkpt lat="48.71299" lon="1.7356">
        <ele>177.19999694824</ele>
        <time>2013-08-15T09:02:54.000Z</time>
      </trkpt>
      <trkpt lat="48.71303" lon="1.73548">
        <ele>177.19999694824</ele>
        <time>2013-08-15T09:03:02.000Z</time>
      </trkpt>
      <trkpt lat="48.71308" lon="1.7354">
        <ele>176.80000305176</ele>
        <time>2013-08-15T09:03:09.000Z</time>
      </trkpt>
      <trkpt lat="48.71313" lon="1.73539">
        <ele>176.39999389648</ele>
        <time>2013-08-15T09:03:14.000Z</time>
      </trkpt>
      <trkpt lat="48.71318" lon="1.73535">
        <ele>176</ele>
        <time>2013-08-15T09:03:21.000Z</time>
      </trkpt>
      <trkpt lat="48.71323" lon="1.7353">
        <ele>175.80000305176</ele>
        <time>2013-08-15T09:03:26.000Z</time>
      </trkpt>
      <trkpt lat="48.71328" lon="1.73525">
        <ele>175.60000610352</ele>
        <time>2013-08-15T09:03:33.000Z</time>
      </trkpt>
      <trkpt lat="48.71335" lon="1.73523">
        <ele>175</ele>
        <time>2013-08-15T09:03:39.000Z</time>
      </trkpt>
      <trkpt lat="48.71341" lon="1.7353">
        <ele>173.80000305176</ele>
        <time>2013-08-15T09:03:46.000Z</time>
      </trkpt>
      <trkpt lat="48.71346" lon="1.73535">
        <ele>172.80000305176</ele>
        <time>2013-08-15T09:03:52.000Z</time>
      </trkpt>
      <trkpt lat="48.71352" lon="1.7354">
        <ele>171.80000305176</ele>
        <time>2013-08-15T09:03:57.000Z</time>
      </trkpt>
      <trkpt lat="48.71353" lon="1.73541">
        <ele>171.60000610352</ele>
        <time>2013-08-15T09:03:58.000Z</time>
      </trkpt>
      <trkpt lat="48.71358" lon="1.73545">
        <ele>170.80000305176</ele>
        <time>2013-08-15T09:04:03.000Z</time>
      </trkpt>
      <trkpt lat="48.71364" lon="1.73553">
        <ele>169.60000610352</ele>
        <time>2013-08-15T09:04:09.000Z</time>
      </trkpt>
      <trkpt lat="48.71374" lon="1.73562">
        <ele>167.80000305176</ele>
        <time>2013-08-15T09:04:18.000Z</time>
      </trkpt>
      <trkpt lat="48.71376" lon="1.73565">
        <ele>167.39999389648</ele>
        <time>2013-08-15T09:04:21.000Z</time>
      </trkpt>
      <trkpt lat="48.7138" lon="1.7357">
        <ele>166.60000610352</ele>
        <time>2013-08-15T09:04:25.000Z</time>
      </trkpt>
      <trkpt lat="48.71387" lon="1.73574">
        <ele>165.60000610352</ele>
        <time>2013-08-15T09:04:31.000Z</time>
      </trkpt>
      <trkpt lat="48.71387" lon="1.73575">
        <ele>165.60000610352</ele>
        <time>2013-08-15T09:04:32.000Z</time>
      </trkpt>
      <trkpt lat="48.71394" lon="1.73577">
        <ele>164.60000610352</ele>
        <time>2013-08-15T09:04:38.000Z</time>
      </trkpt>
      <trkpt lat="48.71397" lon="1.73575">
        <ele>164.39999389648</ele>
        <time>2013-08-15T09:04:42.000Z</time>
      </trkpt>
      <trkpt lat="48.71405" lon="1.73566">
        <ele>164</ele>
        <time>2013-08-15T09:04:49.000Z</time>
      </trkpt>
      <trkpt lat="48.71409" lon="1.73565">
        <ele>163.80000305176</ele>
        <time>2013-08-15T09:04:53.000Z</time>
      </trkpt>
      <trkpt lat="48.71415" lon="1.73564">
        <ele>163</ele>
        <time>2013-08-15T09:05:00.000Z</time>
      </trkpt>
      <trkpt lat="48.71421" lon="1.7356">
        <ele>162.60000610352</ele>
        <time>2013-08-15T09:05:05.000Z</time>
      </trkpt>
      <trkpt lat="48.71428" lon="1.73558">
        <ele>161.80000305176</ele>
        <time>2013-08-15T09:05:11.000Z</time>
      </trkpt>
      <trkpt lat="48.71434" lon="1.73555">
        <ele>161.19999694824</ele>
        <time>2013-08-15T09:05:17.000Z</time>
      </trkpt>
      <trkpt lat="48.71436" lon="1.73555">
        <ele>161.19999694824</ele>
        <time>2013-08-15T09:05:18.000Z</time>
      </trkpt>
      <trkpt lat="48.71438" lon="1.73553">
        <ele>161</ele>
        <time>2013-08-15T09:05:20.000Z</time>
      </trkpt>
      <trkpt lat="48.71446" lon="1.73551">
        <ele>160</ele>
        <time>2013-08-15T09:05:28.000Z</time>
      </trkpt>
      <trkpt lat="48.71453" lon="1.73552">
        <ele>159.19999694824</ele>
        <time>2013-08-15T09:05:36.000Z</time>
      </trkpt>
      <trkpt lat="48.71455" lon="1.73551">
        <ele>159</ele>
        <time>2013-08-15T09:05:38.000Z</time>
      </trkpt>
      <trkpt lat="48.71458" lon="1.73552">
        <ele>158.60000610352</ele>
        <time>2013-08-15T09:05:40.000Z</time>
      </trkpt>
      <trkpt lat="48.7146" lon="1.73555">
        <ele>158.39999389648</ele>
        <time>2013-08-15T09:05:43.000Z</time>
      </trkpt>
      <trkpt lat="48.71463" lon="1.73556">
        <ele>158</ele>
        <time>2013-08-15T09:05:46.000Z</time>
      </trkpt>
      <trkpt lat="48.71472" lon="1.73554">
        <ele>157</ele>
        <time>2013-08-15T09:05:53.000Z</time>
      </trkpt>
      <trkpt lat="48.71476" lon="1.73553">
        <ele>156.60000610352</ele>
        <time>2013-08-15T09:05:56.000Z</time>
      </trkpt>
      <trkpt lat="48.71484" lon="1.73552">
        <ele>155.60000610352</ele>
        <time>2013-08-15T09:06:02.000Z</time>
      </trkpt>
      <trkpt lat="48.7149" lon="1.73549">
        <ele>154.80000305176</ele>
        <time>2013-08-15T09:06:08.000Z</time>
      </trkpt>
      <trkpt lat="48.71495" lon="1.73548">
        <ele>154.19999694824</ele>
        <time>2013-08-15T09:06:11.000Z</time>
      </trkpt>
      <trkpt lat="48.71503" lon="1.73548">
        <ele>153.19999694824</ele>
        <time>2013-08-15T09:06:17.000Z</time>
      </trkpt>
      <trkpt lat="48.71512" lon="1.73545">
        <ele>152.19999694824</ele>
        <time>2013-08-15T09:06:24.000Z</time>
      </trkpt>
      <trkpt lat="48.71515" lon="1.73544">
        <ele>151.80000305176</ele>
        <time>2013-08-15T09:06:27.000Z</time>
      </trkpt>
      <trkpt lat="48.71524" lon="1.73544">
        <ele>150.80000305176</ele>
        <time>2013-08-15T09:06:33.000Z</time>
      </trkpt>
      <trkpt lat="48.71531" lon="1.73545">
        <ele>150.19999694824</ele>
        <time>2013-08-15T09:06:39.000Z</time>
      </trkpt>
      <trkpt lat="48.71536" lon="1.73544">
        <ele>149.60000610352</ele>
        <time>2013-08-15T09:06:44.000Z</time>
      </trkpt>
      <trkpt lat="48.71544" lon="1.73542">
        <ele>148.60000610352</ele>
        <time>2013-08-15T09:06:50.000Z</time>
      </trkpt>
      <trkpt lat="48.71549" lon="1.73541">
        <ele>148</ele>
        <time>2013-08-15T09:06:55.000Z</time>
      </trkpt>
      <trkpt lat="48.71554" lon="1.73538">
        <ele>147.39999389648</ele>
        <time>2013-08-15T09:07:00.000Z</time>
      </trkpt>
      <trkpt lat="48.71555" lon="1.73538">
        <ele>147.39999389648</ele>
        <time>2013-08-15T09:07:01.000Z</time>
      </trkpt>
      <trkpt lat="48.7156" lon="1.73538">
        <ele>146.80000305176</ele>
        <time>2013-08-15T09:07:05.000Z</time>
      </trkpt>
      <trkpt lat="48.71566" lon="1.73537">
        <ele>146.19999694824</ele>
        <time>2013-08-15T09:07:11.000Z</time>
      </trkpt>
      <trkpt lat="48.71571" lon="1.73537">
        <ele>145.60000610352</ele>
        <time>2013-08-15T09:07:15.000Z</time>
      </trkpt>
      <trkpt lat="48.71582" lon="1.73533">
        <ele>144.39999389648</ele>
        <time>2013-08-15T09:07:24.000Z</time>
      </trkpt>
      <trkpt lat="48.71591" lon="1.73532">
        <ele>143.80000305176</ele>
        <time>2013-08-15T09:07:31.000Z</time>
      </trkpt>
      <trkpt lat="48.71602" lon="1.73532">
        <ele>143.39999389648</ele>
        <time>2013-08-15T09:07:38.000Z</time>
      </trkpt>
      <trkpt lat="48.71613" lon="1.73529">
        <ele>142.60000610352</ele>
        <time>2013-08-15T09:07:46.000Z</time>
      </trkpt>
      <trkpt lat="48.71622" lon="1.73524">
        <ele>142.19999694824</ele>
        <time>2013-08-15T09:07:54.000Z</time>
      </trkpt>
      <trkpt lat="48.71624" lon="1.73522">
        <ele>142</ele>
        <time>2013-08-15T09:07:56.000Z</time>
      </trkpt>
      <trkpt lat="48.71635" lon="1.73519">
        <ele>141.60000610352</ele>
        <time>2013-08-15T09:08:04.000Z</time>
      </trkpt>
      <trkpt lat="48.7164" lon="1.73517">
        <ele>141.19999694824</ele>
        <time>2013-08-15T09:08:10.000Z</time>
      </trkpt>
      <trkpt lat="48.71643" lon="1.73517">
        <ele>141</ele>
        <time>2013-08-15T09:08:14.000Z</time>
      </trkpt>
      <trkpt lat="48.71649" lon="1.73516">
        <ele>140.80000305176</ele>
        <time>2013-08-15T09:08:19.000Z</time>
      </trkpt>
      <trkpt lat="48.71656" lon="1.73515">
        <ele>140.39999389648</ele>
        <time>2013-08-15T09:08:24.000Z</time>
      </trkpt>
      <trkpt lat="48.71665" lon="1.73513">
        <ele>140</ele>
        <time>2013-08-15T09:08:30.000Z</time>
      </trkpt>
      <trkpt lat="48.71672" lon="1.73512">
        <ele>139.80000305176</ele>
        <time>2013-08-15T09:08:36.000Z</time>
      </trkpt>
      <trkpt lat="48.71682" lon="1.73509">
        <ele>139.39999389648</ele>
        <time>2013-08-15T09:08:43.000Z</time>
      </trkpt>
      <trkpt lat="48.71687" lon="1.73508">
        <ele>139.19999694824</ele>
        <time>2013-08-15T09:08:49.000Z</time>
      </trkpt>
      <trkpt lat="48.71695" lon="1.73506">
        <ele>139</ele>
        <time>2013-08-15T09:08:56.000Z</time>
      </trkpt>
      <trkpt lat="48.71704" lon="1.73507">
        <ele>138.60000610352</ele>
        <time>2013-08-15T09:09:04.000Z</time>
      </trkpt>
      <trkpt lat="48.71706" lon="1.73507">
        <ele>138.60000610352</ele>
        <time>2013-08-15T09:09:06.000Z</time>
      </trkpt>
      <trkpt lat="48.71717" lon="1.73503">
        <ele>138.19999694824</ele>
        <time>2013-08-15T09:09:13.000Z</time>
      </trkpt>
      <trkpt lat="48.7172" lon="1.73501">
        <ele>138</ele>
        <time>2013-08-15T09:09:16.000Z</time>
      </trkpt>
      <trkpt lat="48.71727" lon="1.73501">
        <ele>137.80000305176</ele>
        <time>2013-08-15T09:09:22.000Z</time>
      </trkpt>
      <trkpt lat="48.71734" lon="1.73499">
        <ele>137.39999389648</ele>
        <time>2013-08-15T09:09:29.000Z</time>
      </trkpt>
      <trkpt lat="48.71745" lon="1.73492">
        <ele>137</ele>
        <time>2013-08-15T09:09:37.000Z</time>
      </trkpt>
      <trkpt lat="48.71751" lon="1.73488">
        <ele>136.80000305176</ele>
        <time>2013-08-15T09:09:43.000Z</time>
      </trkpt>
      <trkpt lat="48.71753" lon="1.7348">
        <ele>136.80000305176</ele>
        <time>2013-08-15T09:09:48.000Z</time>
      </trkpt>
      <trkpt lat="48.71752" lon="1.73475">
        <ele>136.80000305176</ele>
        <time>2013-08-15T09:09:51.000Z</time>
      </trkpt>
      <trkpt lat="48.7175" lon="1.73463">
        <ele>137</ele>
        <time>2013-08-15T09:09:58.000Z</time>
      </trkpt>
      <trkpt lat="48.7175" lon="1.73458">
        <ele>137</ele>
        <time>2013-08-15T09:10:01.000Z</time>
      </trkpt>
      <trkpt lat="48.71747" lon="1.73445">
        <ele>137</ele>
        <time>2013-08-15T09:10:09.000Z</time>
      </trkpt>
      <trkpt lat="48.71745" lon="1.73432">
        <ele>137</ele>
        <time>2013-08-15T09:10:16.000Z</time>
      </trkpt>
      <trkpt lat="48.71745" lon="1.73424">
        <ele>137</ele>
        <time>2013-08-15T09:10:20.000Z</time>
      </trkpt>
      <trkpt lat="48.71742" lon="1.73409">
        <ele>137</ele>
        <time>2013-08-15T09:10:28.000Z</time>
      </trkpt>
      <trkpt lat="48.71741" lon="1.73399">
        <ele>136.80000305176</ele>
        <time>2013-08-15T09:10:33.000Z</time>
      </trkpt>
      <trkpt lat="48.7174" lon="1.7339">
        <ele>136.60000610352</ele>
        <time>2013-08-15T09:10:39.000Z</time>
      </trkpt>
      <trkpt lat="48.71738" lon="1.73383">
        <ele>136.60000610352</ele>
        <time>2013-08-15T09:10:43.000Z</time>
      </trkpt>
      <trkpt lat="48.71737" lon="1.73378">
        <ele>136.39999389648</ele>
        <time>2013-08-15T09:10:46.000Z</time>
      </trkpt>
      <trkpt lat="48.71733" lon="1.73367">
        <ele>136.19999694824</ele>
        <time>2013-08-15T09:10:52.000Z</time>
      </trkpt>
      <trkpt lat="48.71732" lon="1.73362">
        <ele>136.19999694824</ele>
        <time>2013-08-15T09:10:54.000Z</time>
      </trkpt>
      <trkpt lat="48.7173" lon="1.73358">
        <ele>136.19999694824</ele>
        <time>2013-08-15T09:10:57.000Z</time>
      </trkpt>
      <trkpt lat="48.71727" lon="1.73346">
        <ele>136</ele>
        <time>2013-08-15T09:11:03.000Z</time>
      </trkpt>
      <trkpt lat="48.71721" lon="1.73332">
        <ele>136</ele>
        <time>2013-08-15T09:11:11.000Z</time>
      </trkpt>
      <trkpt lat="48.71718" lon="1.73319">
        <ele>136</ele>
        <time>2013-08-15T09:11:18.000Z</time>
      </trkpt>
      <trkpt lat="48.71716" lon="1.73306">
        <ele>136</ele>
        <time>2013-08-15T09:11:25.000Z</time>
      </trkpt>
      <trkpt lat="48.71714" lon="1.73295">
        <ele>136</ele>
        <time>2013-08-15T09:11:31.000Z</time>
      </trkpt>
      <trkpt lat="48.71712" lon="1.73282">
        <ele>136</ele>
        <time>2013-08-15T09:11:38.000Z</time>
      </trkpt>
      <trkpt lat="48.7171" lon="1.73272">
        <ele>136</ele>
        <time>2013-08-15T09:11:44.000Z</time>
      </trkpt>
      <trkpt lat="48.71709" lon="1.73266">
        <ele>136</ele>
        <time>2013-08-15T09:11:47.000Z</time>
      </trkpt>
      <trkpt lat="48.71704" lon="1.73255">
        <ele>136.19999694824</ele>
        <time>2013-08-15T09:11:54.000Z</time>
      </trkpt>
      <trkpt lat="48.71703" lon="1.73245">
        <ele>136.19999694824</ele>
        <time>2013-08-15T09:11:59.000Z</time>
      </trkpt>
      <trkpt lat="48.71703" lon="1.73229">
        <ele>136</ele>
        <time>2013-08-15T09:12:08.000Z</time>
      </trkpt>
      <trkpt lat="48.71699" lon="1.73211">
        <ele>136</ele>
        <time>2013-08-15T09:12:17.000Z</time>
      </trkpt>
      <trkpt lat="48.71697" lon="1.73194">
        <ele>136</ele>
        <time>2013-08-15T09:12:25.000Z</time>
      </trkpt>
      <trkpt lat="48.71694" lon="1.73178">
        <ele>136</ele>
        <time>2013-08-15T09:12:34.000Z</time>
      </trkpt>
      <trkpt lat="48.71693" lon="1.73166">
        <ele>136</ele>
        <time>2013-08-15T09:12:41.000Z</time>
      </trkpt>
      <trkpt lat="48.71693" lon="1.73164">
        <ele>136</ele>
        <time>2013-08-15T09:12:42.000Z</time>
      </trkpt>
      <trkpt lat="48.71689" lon="1.7315">
        <ele>136.39999389648</ele>
        <time>2013-08-15T09:12:49.000Z</time>
      </trkpt>
      <trkpt lat="48.71689" lon="1.73148">
        <ele>136.60000610352</ele>
        <time>2013-08-15T09:12:50.000Z</time>
      </trkpt>
      <trkpt lat="48.7169" lon="1.73131">
        <ele>136.80000305176</ele>
        <time>2013-08-15T09:12:58.000Z</time>
      </trkpt>
      <trkpt lat="48.71687" lon="1.73114">
        <ele>137.19999694824</ele>
        <time>2013-08-15T09:13:07.000Z</time>
      </trkpt>
      <trkpt lat="48.71684" lon="1.73097">
        <ele>137.80000305176</ele>
        <time>2013-08-15T09:13:16.000Z</time>
      </trkpt>
      <trkpt lat="48.71684" lon="1.73096">
        <ele>137.80000305176</ele>
        <time>2013-08-15T09:13:17.000Z</time>
      </trkpt>
      <trkpt lat="48.71684" lon="1.7308">
        <ele>138</ele>
        <time>2013-08-15T09:13:25.000Z</time>
      </trkpt>
      <trkpt lat="48.71681" lon="1.73064">
        <ele>138</ele>
        <time>2013-08-15T09:13:33.000Z</time>
      </trkpt>
      <trkpt lat="48.7168" lon="1.73054">
        <ele>137.80000305176</ele>
        <time>2013-08-15T09:13:38.000Z</time>
      </trkpt>
      <trkpt lat="48.71678" lon="1.73045">
        <ele>137.80000305176</ele>
        <time>2013-08-15T09:13:43.000Z</time>
      </trkpt>
      <trkpt lat="48.7168" lon="1.73032">
        <ele>137.60000610352</ele>
        <time>2013-08-15T09:13:50.000Z</time>
      </trkpt>
      <trkpt lat="48.7168" lon="1.73028">
        <ele>137.39999389648</ele>
        <time>2013-08-15T09:13:52.000Z</time>
      </trkpt>
      <trkpt lat="48.71679" lon="1.73021">
        <ele>137.39999389648</ele>
        <time>2013-08-15T09:13:55.000Z</time>
      </trkpt>
      <trkpt lat="48.71676" lon="1.7301">
        <ele>137.39999389648</ele>
        <time>2013-08-15T09:14:01.000Z</time>
      </trkpt>
      <trkpt lat="48.71673" lon="1.72999">
        <ele>137.60000610352</ele>
        <time>2013-08-15T09:14:07.000Z</time>
      </trkpt>
      <trkpt lat="48.71669" lon="1.7299">
        <ele>137.60000610352</ele>
        <time>2013-08-15T09:14:12.000Z</time>
      </trkpt>
      <trkpt lat="48.71663" lon="1.72986">
        <ele>138</ele>
        <time>2013-08-15T09:14:17.000Z</time>
      </trkpt>
      <trkpt lat="48.71654" lon="1.72986">
        <ele>138.39999389648</ele>
        <time>2013-08-15T09:14:22.000Z</time>
      </trkpt>
      <trkpt lat="48.71652" lon="1.72983">
        <ele>138.39999389648</ele>
        <time>2013-08-15T09:14:25.000Z</time>
      </trkpt>
      <trkpt lat="48.71652" lon="1.72987">
        <ele>138.39999389648</ele>
        <time>2013-08-15T09:14:30.000Z</time>
      </trkpt>
      <trkpt lat="48.71645" lon="1.73004">
        <ele>139</ele>
        <time>2013-08-15T09:14:35.000Z</time>
      </trkpt>
      <trkpt lat="48.71635" lon="1.73021">
        <ele>139.39999389648</ele>
        <time>2013-08-15T09:14:41.000Z</time>
      </trkpt>
      <trkpt lat="48.71632" lon="1.73029">
        <ele>139.60000610352</ele>
        <time>2013-08-15T09:14:46.000Z</time>
      </trkpt>
      <trkpt lat="48.71626" lon="1.73043">
        <ele>139.80000305176</ele>
        <time>2013-08-15T09:14:54.000Z</time>
      </trkpt>
      <trkpt lat="48.71624" lon="1.73049">
        <ele>140</ele>
        <time>2013-08-15T09:14:58.000Z</time>
      </trkpt>
      <trkpt lat="48.71619" lon="1.73063">
        <ele>140</ele>
        <time>2013-08-15T09:15:06.000Z</time>
      </trkpt>
      <trkpt lat="48.71613" lon="1.73075">
        <ele>140.19999694824</ele>
        <time>2013-08-15T09:15:13.000Z</time>
      </trkpt>
      <trkpt lat="48.71606" lon="1.73088">
        <ele>140.19999694824</ele>
        <time>2013-08-15T09:15:20.000Z</time>
      </trkpt>
      <trkpt lat="48.71603" lon="1.73095">
        <ele>140.19999694824</ele>
        <time>2013-08-15T09:15:25.000Z</time>
      </trkpt>
      <trkpt lat="48.71602" lon="1.73096">
        <ele>140.19999694824</ele>
        <time>2013-08-15T09:15:26.000Z</time>
      </trkpt>
      <trkpt lat="48.71597" lon="1.73106">
        <ele>140</ele>
        <time>2013-08-15T09:15:32.000Z</time>
      </trkpt>
      <trkpt lat="48.71594" lon="1.73113">
        <ele>140</ele>
        <time>2013-08-15T09:15:37.000Z</time>
      </trkpt>
      <trkpt lat="48.71592" lon="1.73119">
        <ele>139.80000305176</ele>
        <time>2013-08-15T09:15:40.000Z</time>
      </trkpt>
      <trkpt lat="48.71585" lon="1.73135">
        <ele>139.60000610352</ele>
        <time>2013-08-15T09:15:48.000Z</time>
      </trkpt>
      <trkpt lat="48.71579" lon="1.73147">
        <ele>139.60000610352</ele>
        <time>2013-08-15T09:15:54.000Z</time>
      </trkpt>
      <trkpt lat="48.71575" lon="1.73154">
        <ele>139.60000610352</ele>
        <time>2013-08-15T09:15:59.000Z</time>
      </trkpt>
      <trkpt lat="48.7157" lon="1.73164">
        <ele>139.60000610352</ele>
        <time>2013-08-15T09:16:05.000Z</time>
      </trkpt>
      <trkpt lat="48.71563" lon="1.73179">
        <ele>140</ele>
        <time>2013-08-15T09:16:13.000Z</time>
      </trkpt>
      <trkpt lat="48.71556" lon="1.73191">
        <ele>140.39999389648</ele>
        <time>2013-08-15T09:16:20.000Z</time>
      </trkpt>
      <trkpt lat="48.71545" lon="1.73207">
        <ele>141</ele>
        <time>2013-08-15T09:16:30.000Z</time>
      </trkpt>
      <trkpt lat="48.71544" lon="1.73209">
        <ele>141</ele>
        <time>2013-08-15T09:16:31.000Z</time>
      </trkpt>
      <trkpt lat="48.71541" lon="1.7322">
        <ele>141.19999694824</ele>
        <time>2013-08-15T09:16:37.000Z</time>
      </trkpt>
      <trkpt lat="48.71535" lon="1.73238">
        <ele>141.60000610352</ele>
        <time>2013-08-15T09:16:46.000Z</time>
      </trkpt>
      <trkpt lat="48.71528" lon="1.73249">
        <ele>141.80000305176</ele>
        <time>2013-08-15T09:16:53.000Z</time>
      </trkpt>
      <trkpt lat="48.71526" lon="1.73252">
        <ele>142</ele>
        <time>2013-08-15T09:16:55.000Z</time>
      </trkpt>
      <trkpt lat="48.71521" lon="1.73265">
        <ele>142.80000305176</ele>
        <time>2013-08-15T09:17:02.000Z</time>
      </trkpt>
      <trkpt lat="48.71521" lon="1.73267">
        <ele>142.80000305176</ele>
        <time>2013-08-15T09:17:03.000Z</time>
      </trkpt>
      <trkpt lat="48.71518" lon="1.7328">
        <ele>143.39999389648</ele>
        <time>2013-08-15T09:17:09.000Z</time>
      </trkpt>
      <trkpt lat="48.71516" lon="1.73282">
        <ele>143.60000610352</ele>
        <time>2013-08-15T09:17:14.000Z</time>
      </trkpt>
      <trkpt lat="48.71507" lon="1.733">
        <ele>144.39999389648</ele>
        <time>2013-08-15T09:18:28.000Z</time>
      </trkpt>
      <trkpt lat="48.71504" lon="1.73304">
        <ele>144.80000305176</ele>
        <time>2013-08-15T09:18:30.000Z</time>
      </trkpt>
      <trkpt lat="48.71501" lon="1.7331">
        <ele>145</ele>
        <time>2013-08-15T09:18:34.000Z</time>
      </trkpt>
      <trkpt lat="48.71498" lon="1.73314">
        <ele>145.39999389648</ele>
        <time>2013-08-15T09:18:37.000Z</time>
      </trkpt>
      <trkpt lat="48.71494" lon="1.73321">
        <ele>145.80000305176</ele>
        <time>2013-08-15T09:18:41.000Z</time>
      </trkpt>
      <trkpt lat="48.71488" lon="1.73332">
        <ele>146.60000610352</ele>
        <time>2013-08-15T09:18:46.000Z</time>
      </trkpt>
      <trkpt lat="48.71484" lon="1.73341">
        <ele>147.19999694824</ele>
        <time>2013-08-15T09:18:52.000Z</time>
      </trkpt>
      <trkpt lat="48.71481" lon="1.73353">
        <ele>147.80000305176</ele>
        <time>2013-08-15T09:18:58.000Z</time>
      </trkpt>
      <trkpt lat="48.71474" lon="1.73363">
        <ele>148.80000305176</ele>
        <time>2013-08-15T09:19:05.000Z</time>
      </trkpt>
      <trkpt lat="48.71472" lon="1.73364">
        <ele>149</ele>
        <time>2013-08-15T09:19:06.000Z</time>
      </trkpt>
      <trkpt lat="48.71462" lon="1.73368">
        <ele>150</ele>
        <time>2013-08-15T09:19:13.000Z</time>
      </trkpt>
      <trkpt lat="48.71456" lon="1.73372">
        <ele>150.80000305176</ele>
        <time>2013-08-15T09:19:18.000Z</time>
      </trkpt>
      <trkpt lat="48.71446" lon="1.73373">
        <ele>151.60000610352</ele>
        <time>2013-08-15T09:19:24.000Z</time>
      </trkpt>
      <trkpt lat="48.71442" lon="1.73376">
        <ele>152.19999694824</ele>
        <time>2013-08-15T09:19:27.000Z</time>
      </trkpt>
      <trkpt lat="48.71434" lon="1.73385">
        <ele>153.39999389648</ele>
        <time>2013-08-15T09:19:32.000Z</time>
      </trkpt>
      <trkpt lat="48.71429" lon="1.73393">
        <ele>154.60000610352</ele>
        <time>2013-08-15T09:19:35.000Z</time>
      </trkpt>
      <trkpt lat="48.71426" lon="1.73398">
        <ele>155.39999389648</ele>
        <time>2013-08-15T09:19:39.000Z</time>
      </trkpt>
      <trkpt lat="48.71424" lon="1.73404">
        <ele>156</ele>
        <time>2013-08-15T09:19:42.000Z</time>
      </trkpt>
      <trkpt lat="48.71417" lon="1.73403">
        <ele>156.60000610352</ele>
        <time>2013-08-15T09:19:47.000Z</time>
      </trkpt>
      <trkpt lat="48.71411" lon="1.73399">
        <ele>157.39999389648</ele>
        <time>2013-08-15T09:19:54.000Z</time>
      </trkpt>
      <trkpt lat="48.71411" lon="1.73399">
        <ele>157.60000610352</ele>
        <time>2013-08-15T09:19:55.000Z</time>
      </trkpt>
      <trkpt lat="48.71406" lon="1.734">
        <ele>158.60000610352</ele>
        <time>2013-08-15T09:19:59.000Z</time>
      </trkpt>
      <trkpt lat="48.71396" lon="1.73394">
        <ele>159.80000305176</ele>
        <time>2013-08-15T09:20:06.000Z</time>
      </trkpt>
      <trkpt lat="48.71393" lon="1.73389">
        <ele>160</ele>
        <time>2013-08-15T09:20:09.000Z</time>
      </trkpt>
      <trkpt lat="48.71388" lon="1.73384">
        <ele>160.60000610352</ele>
        <time>2013-08-15T09:20:13.000Z</time>
      </trkpt>
      <trkpt lat="48.7138" lon="1.73373">
        <ele>161</ele>
        <time>2013-08-15T09:20:20.000Z</time>
      </trkpt>
      <trkpt lat="48.71375" lon="1.7337">
        <ele>161.80000305176</ele>
        <time>2013-08-15T09:20:24.000Z</time>
      </trkpt>
      <trkpt lat="48.71369" lon="1.73355">
        <ele>161.39999389648</ele>
        <time>2013-08-15T09:20:33.000Z</time>
      </trkpt>
      <trkpt lat="48.71362" lon="1.73345">
        <ele>161.80000305176</ele>
        <time>2013-08-15T09:20:40.000Z</time>
      </trkpt>
      <trkpt lat="48.71355" lon="1.73336">
        <ele>162.19999694824</ele>
        <time>2013-08-15T09:20:47.000Z</time>
      </trkpt>
      <trkpt lat="48.71355" lon="1.73331">
        <ele>162</ele>
        <time>2013-08-15T09:20:50.000Z</time>
      </trkpt>
      <trkpt lat="48.71346" lon="1.73316">
        <ele>163.39999389648</ele>
        <time>2013-08-15T09:20:57.000Z</time>
      </trkpt>
      <trkpt lat="48.71345" lon="1.73315">
        <ele>163.60000610352</ele>
        <time>2013-08-15T09:20:58.000Z</time>
      </trkpt>
      <trkpt lat="48.7134" lon="1.73305">
        <ele>164.39999389648</ele>
        <time>2013-08-15T09:21:05.000Z</time>
      </trkpt>
      <trkpt lat="48.71335" lon="1.73297">
        <ele>165.19999694824</ele>
        <time>2013-08-15T09:21:11.000Z</time>
      </trkpt>
      <trkpt lat="48.71329" lon="1.73287">
        <ele>166.19999694824</ele>
        <time>2013-08-15T09:21:16.000Z</time>
      </trkpt>
      <trkpt lat="48.7133" lon="1.7328">
        <ele>166</ele>
        <time>2013-08-15T09:21:20.000Z</time>
      </trkpt>
      <trkpt lat="48.71331" lon="1.73272">
        <ele>165.60000610352</ele>
        <time>2013-08-15T09:21:24.000Z</time>
      </trkpt>
      <trkpt lat="48.7133" lon="1.7326">
        <ele>165.60000610352</ele>
        <time>2013-08-15T09:21:30.000Z</time>
      </trkpt>
      <trkpt lat="48.71328" lon="1.73248">
        <ele>166</ele>
        <time>2013-08-15T09:21:36.000Z</time>
      </trkpt>
      <trkpt lat="48.71327" lon="1.73243">
        <ele>166.39999389648</ele>
        <time>2013-08-15T09:21:40.000Z</time>
      </trkpt>
      <trkpt lat="48.71321" lon="1.73228">
        <ele>168</ele>
        <time>2013-08-15T09:21:47.000Z</time>
      </trkpt>
      <trkpt lat="48.71317" lon="1.7322">
        <ele>169</ele>
        <time>2013-08-15T09:21:52.000Z</time>
      </trkpt>
      <trkpt lat="48.71315" lon="1.73215">
        <ele>169.60000610352</ele>
        <time>2013-08-15T09:21:55.000Z</time>
      </trkpt>
      <trkpt lat="48.7131" lon="1.73202">
        <ele>171</ele>
        <time>2013-08-15T09:22:01.000Z</time>
      </trkpt>
      <trkpt lat="48.71309" lon="1.73198">
        <ele>171.19999694824</ele>
        <time>2013-08-15T09:22:03.000Z</time>
      </trkpt>
      <trkpt lat="48.71308" lon="1.73195">
        <ele>171.39999389648</ele>
        <time>2013-08-15T09:22:05.000Z</time>
      </trkpt>
      <trkpt lat="48.71305" lon="1.7319">
        <ele>172.19999694824</ele>
        <time>2013-08-15T09:22:09.000Z</time>
      </trkpt>
      <trkpt lat="48.71304" lon="1.73187">
        <ele>172.39999389648</ele>
        <time>2013-08-15T09:22:11.000Z</time>
      </trkpt>
      <trkpt lat="48.71304" lon="1.73176">
        <ele>172.60000610352</ele>
        <time>2013-08-15T09:22:16.000Z</time>
      </trkpt>
      <trkpt lat="48.71305" lon="1.73167">
        <ele>172.60000610352</ele>
        <time>2013-08-15T09:22:20.000Z</time>
      </trkpt>
      <trkpt lat="48.71306" lon="1.73151">
        <ele>173.60000610352</ele>
        <time>2013-08-15T09:22:26.000Z</time>
      </trkpt>
      <trkpt lat="48.71305" lon="1.73139">
        <ele>174.39999389648</ele>
        <time>2013-08-15T09:22:31.000Z</time>
      </trkpt>
      <trkpt lat="48.71307" lon="1.73127">
        <ele>175</ele>
        <time>2013-08-15T09:22:37.000Z</time>
      </trkpt>
      <trkpt lat="48.71312" lon="1.73113">
        <ele>175.39999389648</ele>
        <time>2013-08-15T09:22:44.000Z</time>
      </trkpt>
      <trkpt lat="48.71314" lon="1.73107">
        <ele>175.60000610352</ele>
        <time>2013-08-15T09:22:47.000Z</time>
      </trkpt>
      <trkpt lat="48.71319" lon="1.73101">
        <ele>175.80000305176</ele>
        <time>2013-08-15T09:22:51.000Z</time>
      </trkpt>
      <trkpt lat="48.71322" lon="1.7309">
        <ele>176.19999694824</ele>
        <time>2013-08-15T09:22:58.000Z</time>
      </trkpt>
      <trkpt lat="48.71325" lon="1.73084">
        <ele>176.60000610352</ele>
        <time>2013-08-15T09:23:02.000Z</time>
      </trkpt>
      <trkpt lat="48.71327" lon="1.73074">
        <ele>176.80000305176</ele>
        <time>2013-08-15T09:23:09.000Z</time>
      </trkpt>
      <trkpt lat="48.71329" lon="1.73068">
        <ele>177</ele>
        <time>2013-08-15T09:23:13.000Z</time>
      </trkpt>
      <trkpt lat="48.71332" lon="1.73052">
        <ele>177.39999389648</ele>
        <time>2013-08-15T09:23:21.000Z</time>
      </trkpt>
      <trkpt lat="48.71333" lon="1.73046">
        <ele>177.60000610352</ele>
        <time>2013-08-15T09:23:27.000Z</time>
      </trkpt>
      <trkpt lat="48.71336" lon="1.73038">
        <ele>177.60000610352</ele>
        <time>2013-08-15T09:23:32.000Z</time>
      </trkpt>
      <trkpt lat="48.71337" lon="1.73034">
        <ele>177.39999389648</ele>
        <time>2013-08-15T09:23:35.000Z</time>
      </trkpt>
      <trkpt lat="48.71338" lon="1.73022">
        <ele>177.80000305176</ele>
        <time>2013-08-15T09:23:42.000Z</time>
      </trkpt>
      <trkpt lat="48.7134" lon="1.73005">
        <ele>178</ele>
        <time>2013-08-15T09:23:50.000Z</time>
      </trkpt>
      <trkpt lat="48.7134" lon="1.73004">
        <ele>178</ele>
        <time>2013-08-15T09:23:51.000Z</time>
      </trkpt>
      <trkpt lat="48.71342" lon="1.72997">
        <ele>177.60000610352</ele>
        <time>2013-08-15T09:23:57.000Z</time>
      </trkpt>
      <trkpt lat="48.71342" lon="1.72995">
        <ele>177.39999389648</ele>
        <time>2013-08-15T09:23:58.000Z</time>
      </trkpt>
      <trkpt lat="48.71343" lon="1.72981">
        <ele>176.80000305176</ele>
        <time>2013-08-15T09:24:06.000Z</time>
      </trkpt>
      <trkpt lat="48.71344" lon="1.72966">
        <ele>176.39999389648</ele>
        <time>2013-08-15T09:24:12.000Z</time>
      </trkpt>
      <trkpt lat="48.71343" lon="1.72964">
        <ele>176.39999389648</ele>
        <time>2013-08-15T09:24:13.000Z</time>
      </trkpt>
      <trkpt lat="48.71341" lon="1.7295">
        <ele>176.80000305176</ele>
        <time>2013-08-15T09:24:20.000Z</time>
      </trkpt>
      <trkpt lat="48.7134" lon="1.72944">
        <ele>177</ele>
        <time>2013-08-15T09:24:23.000Z</time>
      </trkpt>
      <trkpt lat="48.71335" lon="1.72938">
        <ele>178</ele>
        <time>2013-08-15T09:24:28.000Z</time>
      </trkpt>
      <trkpt lat="48.71333" lon="1.72936">
        <ele>178.39999389648</ele>
        <time>2013-08-15T09:24:30.000Z</time>
      </trkpt>
      <trkpt lat="48.71328" lon="1.72929">
        <ele>178.60000610352</ele>
        <time>2013-08-15T09:24:37.000Z</time>
      </trkpt>
      <trkpt lat="48.7132" lon="1.72919">
        <ele>178.80000305176</ele>
        <time>2013-08-15T09:24:46.000Z</time>
      </trkpt>
      <trkpt lat="48.71314" lon="1.72913">
        <ele>178.80000305176</ele>
        <time>2013-08-15T09:24:52.000Z</time>
      </trkpt>
      <trkpt lat="48.71309" lon="1.72902">
        <ele>178.80000305176</ele>
        <time>2013-08-15T09:24:59.000Z</time>
      </trkpt>
      <trkpt lat="48.71307" lon="1.72889">
        <ele>178.39999389648</ele>
        <time>2013-08-15T09:25:07.000Z</time>
      </trkpt>
      <trkpt lat="48.71305" lon="1.72877">
        <ele>178</ele>
        <time>2013-08-15T09:25:14.000Z</time>
      </trkpt>
      <trkpt lat="48.71301" lon="1.72868">
        <ele>178</ele>
        <time>2013-08-15T09:25:19.000Z</time>
      </trkpt>
      <trkpt lat="48.71295" lon="1.72855">
        <ele>178</ele>
        <time>2013-08-15T09:25:27.000Z</time>
      </trkpt>
      <trkpt lat="48.71291" lon="1.72843">
        <ele>177.80000305176</ele>
        <time>2013-08-15T09:25:34.000Z</time>
      </trkpt>
      <trkpt lat="48.71287" lon="1.72826">
        <ele>177.60000610352</ele>
        <time>2013-08-15T09:25:43.000Z</time>
      </trkpt>
      <trkpt lat="48.71285" lon="1.72812">
        <ele>177.19999694824</ele>
        <time>2013-08-15T09:25:51.000Z</time>
      </trkpt>
      <trkpt lat="48.71286" lon="1.72803">
        <ele>177</ele>
        <time>2013-08-15T09:25:56.000Z</time>
      </trkpt>
      <trkpt lat="48.71286" lon="1.72792">
        <ele>176.60000610352</ele>
        <time>2013-08-15T09:26:03.000Z</time>
      </trkpt>
      <trkpt lat="48.71286" lon="1.7279">
        <ele>176.39999389648</ele>
        <time>2013-08-15T09:26:04.000Z</time>
      </trkpt>
      <trkpt lat="48.71284" lon="1.72777">
        <ele>176.39999389648</ele>
        <time>2013-08-15T09:26:11.000Z</time>
      </trkpt>
      <trkpt lat="48.71282" lon="1.72773">
        <ele>176.39999389648</ele>
        <time>2013-08-15T09:26:14.000Z</time>
      </trkpt>
      <trkpt lat="48.7128" lon="1.72765">
        <ele>176.60000610352</ele>
        <time>2013-08-15T09:26:22.000Z</time>
      </trkpt>
      <trkpt lat="48.7128" lon="1.72764">
        <ele>176.60000610352</ele>
        <time>2013-08-15T09:26:24.000Z</time>
      </trkpt>
      <trkpt lat="48.71276" lon="1.72747">
        <ele>177</ele>
        <time>2013-08-15T09:26:37.000Z</time>
      </trkpt>
      <trkpt lat="48.71274" lon="1.72738">
        <ele>177.19999694824</ele>
        <time>2013-08-15T09:26:41.000Z</time>
      </trkpt>
      <trkpt lat="48.71272" lon="1.7273">
        <ele>177.60000610352</ele>
        <time>2013-08-15T09:26:45.000Z</time>
      </trkpt>
      <trkpt lat="48.71276" lon="1.72715">
        <ele>177</ele>
        <time>2013-08-15T09:26:52.000Z</time>
      </trkpt>
      <trkpt lat="48.71277" lon="1.72707">
        <ele>176.80000305176</ele>
        <time>2013-08-15T09:26:56.000Z</time>
      </trkpt>
      <trkpt lat="48.7128" lon="1.72694">
        <ele>176.19999694824</ele>
        <time>2013-08-15T09:27:04.000Z</time>
      </trkpt>
      <trkpt lat="48.7128" lon="1.72693">
        <ele>176.19999694824</ele>
        <time>2013-08-15T09:27:05.000Z</time>
      </trkpt>
      <trkpt lat="48.7128" lon="1.72689">
        <ele>176</ele>
        <time>2013-08-15T09:27:07.000Z</time>
      </trkpt>
      <trkpt lat="48.7128" lon="1.72681">
        <ele>176</ele>
        <time>2013-08-15T09:27:11.000Z</time>
      </trkpt>
      <trkpt lat="48.7128" lon="1.72664">
        <ele>176.19999694824</ele>
        <time>2013-08-15T09:27:20.000Z</time>
      </trkpt>
      <trkpt lat="48.7128" lon="1.72662">
        <ele>176.19999694824</ele>
        <time>2013-08-15T09:27:21.000Z</time>
      </trkpt>
      <trkpt lat="48.7128" lon="1.72653">
        <ele>176.39999389648</ele>
        <time>2013-08-15T09:27:26.000Z</time>
      </trkpt>
      <trkpt lat="48.71278" lon="1.72645">
        <ele>176.60000610352</ele>
        <time>2013-08-15T09:27:30.000Z</time>
      </trkpt>
      <trkpt lat="48.71278" lon="1.7264">
        <ele>176.80000305176</ele>
        <time>2013-08-15T09:27:33.000Z</time>
      </trkpt>
      <trkpt lat="48.71279" lon="1.7263">
        <ele>176.80000305176</ele>
        <time>2013-08-15T09:27:39.000Z</time>
      </trkpt>
      <trkpt lat="48.7128" lon="1.72614">
        <ele>176.80000305176</ele>
        <time>2013-08-15T09:27:47.000Z</time>
      </trkpt>
      <trkpt lat="48.7128" lon="1.72611">
        <ele>176.80000305176</ele>
        <time>2013-08-15T09:27:48.000Z</time>
      </trkpt>
      <trkpt lat="48.71281" lon="1.72595">
        <ele>176.80000305176</ele>
        <time>2013-08-15T09:27:56.000Z</time>
      </trkpt>
      <trkpt lat="48.71279" lon="1.72586">
        <ele>177.19999694824</ele>
        <time>2013-08-15T09:28:02.000Z</time>
      </trkpt>
      <trkpt lat="48.71278" lon="1.72571">
        <ele>177</ele>
        <time>2013-08-15T09:28:10.000Z</time>
      </trkpt>
      <trkpt lat="48.71277" lon="1.7256">
        <ele>177</ele>
        <time>2013-08-15T09:28:16.000Z</time>
      </trkpt>
      <trkpt lat="48.71274" lon="1.72546">
        <ele>177.19999694824</ele>
        <time>2013-08-15T09:28:23.000Z</time>
      </trkpt>
      <trkpt lat="48.71274" lon="1.72539">
        <ele>177</ele>
        <time>2013-08-15T09:28:26.000Z</time>
      </trkpt>
      <trkpt lat="48.71273" lon="1.72523">
        <ele>176.80000305176</ele>
        <time>2013-08-15T09:28:34.000Z</time>
      </trkpt>
      <trkpt lat="48.71272" lon="1.7251">
        <ele>176.39999389648</ele>
        <time>2013-08-15T09:28:40.000Z</time>
      </trkpt>
      <trkpt lat="48.7127" lon="1.72502">
        <ele>176.60000610352</ele>
        <time>2013-08-15T09:28:45.000Z</time>
      </trkpt>
      <trkpt lat="48.71267" lon="1.72489">
        <ele>176.60000610352</ele>
        <time>2013-08-15T09:28:51.000Z</time>
      </trkpt>
      <trkpt lat="48.71265" lon="1.72479">
        <ele>176.39999389648</ele>
        <time>2013-08-15T09:28:56.000Z</time>
      </trkpt>
      <trkpt lat="48.71263" lon="1.72474">
        <ele>176.60000610352</ele>
        <time>2013-08-15T09:28:58.000Z</time>
      </trkpt>
      <trkpt lat="48.71254" lon="1.7246">
        <ele>177.60000610352</ele>
        <time>2013-08-15T09:29:07.000Z</time>
      </trkpt>
      <trkpt lat="48.71249" lon="1.72453">
        <ele>178</ele>
        <time>2013-08-15T09:29:14.000Z</time>
      </trkpt>
      <trkpt lat="48.71248" lon="1.72449">
        <ele>177.80000305176</ele>
        <time>2013-08-15T09:29:21.000Z</time>
      </trkpt>
      <trkpt lat="48.71248" lon="1.72442">
        <ele>177.39999389648</ele>
        <time>2013-08-15T09:29:26.000Z</time>
      </trkpt>
      <trkpt lat="48.71247" lon="1.72433">
        <ele>176.80000305176</ele>
        <time>2013-08-15T09:29:31.000Z</time>
      </trkpt>
      <trkpt lat="48.71247" lon="1.72415">
        <ele>175.80000305176</ele>
        <time>2013-08-15T09:29:39.000Z</time>
      </trkpt>
      <trkpt lat="48.71246" lon="1.72407">
        <ele>176</ele>
        <time>2013-08-15T09:29:43.000Z</time>
      </trkpt>
      <trkpt lat="48.71245" lon="1.72395">
        <ele>176.19999694824</ele>
        <time>2013-08-15T09:29:49.000Z</time>
      </trkpt>
      <trkpt lat="48.71245" lon="1.72385">
        <ele>176.19999694824</ele>
        <time>2013-08-15T09:29:54.000Z</time>
      </trkpt>
      <trkpt lat="48.71249" lon="1.72365">
        <ele>176.60000610352</ele>
        <time>2013-08-15T09:30:04.000Z</time>
      </trkpt>
      <trkpt lat="48.7125" lon="1.72359">
        <ele>176.60000610352</ele>
        <time>2013-08-15T09:30:08.000Z</time>
      </trkpt>
      <trkpt lat="48.71252" lon="1.7235">
        <ele>176.19999694824</ele>
        <time>2013-08-15T09:30:13.000Z</time>
      </trkpt>
      <trkpt lat="48.71255" lon="1.72346">
        <ele>175.80000305176</ele>
        <time>2013-08-15T09:30:16.000Z</time>
      </trkpt>
      <trkpt lat="48.71257" lon="1.72338">
        <ele>175.39999389648</ele>
        <time>2013-08-15T09:30:21.000Z</time>
      </trkpt>
      <trkpt lat="48.71265" lon="1.72324">
        <ele>174</ele>
        <time>2013-08-15T09:30:29.000Z</time>
      </trkpt>
      <trkpt lat="48.71266" lon="1.72314">
        <ele>174.19999694824</ele>
        <time>2013-08-15T09:30:35.000Z</time>
      </trkpt>
      <trkpt lat="48.71265" lon="1.72307">
        <ele>174.60000610352</ele>
        <time>2013-08-15T09:30:39.000Z</time>
      </trkpt>
      <trkpt lat="48.71264" lon="1.72301">
        <ele>175</ele>
        <time>2013-08-15T09:30:42.000Z</time>
      </trkpt>
      <trkpt lat="48.71263" lon="1.72298">
        <ele>175.19999694824</ele>
        <time>2013-08-15T09:30:47.000Z</time>
      </trkpt>
      <trkpt lat="48.71258" lon="1.72282">
        <ele>177</ele>
        <time>2013-08-15T09:31:14.000Z</time>
      </trkpt>
      <trkpt lat="48.71248" lon="1.72268">
        <ele>179.19999694824</ele>
        <time>2013-08-15T09:31:22.000Z</time>
      </trkpt>
      <trkpt lat="48.71248" lon="1.72266">
        <ele>179.19999694824</ele>
        <time>2013-08-15T09:31:25.000Z</time>
      </trkpt>
      <trkpt lat="48.71239" lon="1.72252">
        <ele>179.39999389648</ele>
        <time>2013-08-15T09:31:47.000Z</time>
      </trkpt>
      <trkpt lat="48.71231" lon="1.72243">
        <ele>178.39999389648</ele>
        <time>2013-08-15T09:31:53.000Z</time>
      </trkpt>
      <trkpt lat="48.71223" lon="1.72237">
        <ele>177.60000610352</ele>
        <time>2013-08-15T09:31:59.000Z</time>
      </trkpt>
      <trkpt lat="48.71217" lon="1.72229">
        <ele>176.80000305176</ele>
        <time>2013-08-15T09:32:05.000Z</time>
      </trkpt>
      <trkpt lat="48.71215" lon="1.72226">
        <ele>176.60000610352</ele>
        <time>2013-08-15T09:32:07.000Z</time>
      </trkpt>
      <trkpt lat="48.71212" lon="1.72218">
        <ele>176</ele>
        <time>2013-08-15T09:32:12.000Z</time>
      </trkpt>
      <trkpt lat="48.71209" lon="1.72213">
        <ele>175.60000610352</ele>
        <time>2013-08-15T09:32:15.000Z</time>
      </trkpt>
      <trkpt lat="48.71205" lon="1.72206">
        <ele>175</ele>
        <time>2013-08-15T09:32:21.000Z</time>
      </trkpt>
      <trkpt lat="48.71204" lon="1.72206">
        <ele>174.80000305176</ele>
        <time>2013-08-15T09:32:24.000Z</time>
      </trkpt>
      <trkpt lat="48.71202" lon="1.72193">
        <ele>174</ele>
        <time>2013-08-15T09:32:48.000Z</time>
      </trkpt>
      <trkpt lat="48.71202" lon="1.7219">
        <ele>173.80000305176</ele>
        <time>2013-08-15T09:32:49.000Z</time>
      </trkpt>
      <trkpt lat="48.71201" lon="1.7218">
        <ele>173.19999694824</ele>
        <time>2013-08-15T09:32:55.000Z</time>
      </trkpt>
      <trkpt lat="48.71196" lon="1.72173">
        <ele>172.60000610352</ele>
        <time>2013-08-15T09:33:07.000Z</time>
      </trkpt>
      <trkpt lat="48.71191" lon="1.72171">
        <ele>172.39999389648</ele>
        <time>2013-08-15T09:33:12.000Z</time>
      </trkpt>
      <trkpt lat="48.71188" lon="1.72167">
        <ele>172.19999694824</ele>
        <time>2013-08-15T09:33:17.000Z</time>
      </trkpt>
      <trkpt lat="48.71181" lon="1.72161">
        <ele>171.60000610352</ele>
        <time>2013-08-15T09:33:24.000Z</time>
      </trkpt>
      <trkpt lat="48.71178" lon="1.72153">
        <ele>170.60000610352</ele>
        <time>2013-08-15T09:33:31.000Z</time>
      </trkpt>
      <trkpt lat="48.71176" lon="1.72147">
        <ele>170</ele>
        <time>2013-08-15T09:33:35.000Z</time>
      </trkpt>
      <trkpt lat="48.71174" lon="1.72134">
        <ele>168.80000305176</ele>
        <time>2013-08-15T09:33:42.000Z</time>
      </trkpt>
      <trkpt lat="48.71169" lon="1.72132">
        <ele>168.60000610352</ele>
        <time>2013-08-15T09:33:50.000Z</time>
      </trkpt>
      <trkpt lat="48.71169" lon="1.72133">
        <ele>168.80000305176</ele>
        <time>2013-08-15T09:33:55.000Z</time>
      </trkpt>
      <trkpt lat="48.71174" lon="1.72139">
        <ele>169.19999694824</ele>
        <time>2013-08-15T09:34:17.000Z</time>
      </trkpt>
      <trkpt lat="48.71176" lon="1.72138">
        <ele>169.19999694824</ele>
        <time>2013-08-15T09:34:19.000Z</time>
      </trkpt>
      <trkpt lat="48.71175" lon="1.72139">
        <ele>169.39999389648</ele>
        <time>2013-08-15T09:34:25.000Z</time>
      </trkpt>
      <trkpt lat="48.71178" lon="1.72122">
        <ele>167.60000610352</ele>
        <time>2013-08-15T09:34:57.000Z</time>
      </trkpt>
      <trkpt lat="48.7118" lon="1.72112">
        <ele>166.60000610352</ele>
        <time>2013-08-15T09:35:01.000Z</time>
      </trkpt>
      <trkpt lat="48.71186" lon="1.72105">
        <ele>165.80000305176</ele>
        <time>2013-08-15T09:35:06.000Z</time>
      </trkpt>
      <trkpt lat="48.71187" lon="1.72097">
        <ele>165</ele>
        <time>2013-08-15T09:35:10.000Z</time>
      </trkpt>
      <trkpt lat="48.7119" lon="1.72092">
        <ele>164.60000610352</ele>
        <time>2013-08-15T09:35:13.000Z</time>
      </trkpt>
      <trkpt lat="48.71192" lon="1.72082">
        <ele>163.60000610352</ele>
        <time>2013-08-15T09:35:18.000Z</time>
      </trkpt>
      <trkpt lat="48.71196" lon="1.72072">
        <ele>163.19999694824</ele>
        <time>2013-08-15T09:35:23.000Z</time>
      </trkpt>
      <trkpt lat="48.71198" lon="1.72067">
        <ele>163.19999694824</ele>
        <time>2013-08-15T09:35:26.000Z</time>
      </trkpt>
      <trkpt lat="48.712" lon="1.7206">
        <ele>162.80000305176</ele>
        <time>2013-08-15T09:35:30.000Z</time>
      </trkpt>
      <trkpt lat="48.71208" lon="1.72055">
        <ele>162.39999389648</ele>
        <time>2013-08-15T09:35:36.000Z</time>
      </trkpt>
      <trkpt lat="48.7121" lon="1.72053">
        <ele>162.19999694824</ele>
        <time>2013-08-15T09:35:37.000Z</time>
      </trkpt>
      <trkpt lat="48.71214" lon="1.7205">
        <ele>162</ele>
        <time>2013-08-15T09:35:40.000Z</time>
      </trkpt>
      <trkpt lat="48.7122" lon="1.72045">
        <ele>161.39999389648</ele>
        <time>2013-08-15T09:35:45.000Z</time>
      </trkpt>
      <trkpt lat="48.71222" lon="1.72044">
        <ele>161.19999694824</ele>
        <time>2013-08-15T09:35:46.000Z</time>
      </trkpt>
      <trkpt lat="48.71229" lon="1.72037">
        <ele>160.39999389648</ele>
        <time>2013-08-15T09:35:52.000Z</time>
      </trkpt>
      <trkpt lat="48.7123" lon="1.72033">
        <ele>160</ele>
        <time>2013-08-15T09:35:55.000Z</time>
      </trkpt>
      <trkpt lat="48.71238" lon="1.72033">
        <ele>159.60000610352</ele>
        <time>2013-08-15T09:35:59.000Z</time>
      </trkpt>
      <trkpt lat="48.71248" lon="1.72033">
        <ele>158.80000305176</ele>
        <time>2013-08-15T09:36:05.000Z</time>
      </trkpt>
      <trkpt lat="48.71254" lon="1.72034">
        <ele>158.39999389648</ele>
        <time>2013-08-15T09:36:09.000Z</time>
      </trkpt>
      <trkpt lat="48.71258" lon="1.72024">
        <ele>157</ele>
        <time>2013-08-15T09:36:15.000Z</time>
      </trkpt>
      <trkpt lat="48.71267" lon="1.72024">
        <ele>156.19999694824</ele>
        <time>2013-08-15T09:36:19.000Z</time>
      </trkpt>
      <trkpt lat="48.71272" lon="1.72024">
        <ele>155.60000610352</ele>
        <time>2013-08-15T09:36:21.000Z</time>
      </trkpt>
      <trkpt lat="48.71275" lon="1.72025">
        <ele>155.39999389648</ele>
        <time>2013-08-15T09:36:23.000Z</time>
      </trkpt>
      <trkpt lat="48.71284" lon="1.72036">
        <ele>155.39999389648</ele>
        <time>2013-08-15T09:36:29.000Z</time>
      </trkpt>
      <trkpt lat="48.71287" lon="1.72038">
        <ele>155.19999694824</ele>
        <time>2013-08-15T09:36:32.000Z</time>
      </trkpt>
      <trkpt lat="48.71292" lon="1.72035">
        <ele>154.39999389648</ele>
        <time>2013-08-15T09:36:38.000Z</time>
      </trkpt>
      <trkpt lat="48.71298" lon="1.72029">
        <ele>153.19999694824</ele>
        <time>2013-08-15T09:36:43.000Z</time>
      </trkpt>
      <trkpt lat="48.71306" lon="1.7203">
        <ele>152.60000610352</ele>
        <time>2013-08-15T09:36:49.000Z</time>
      </trkpt>
      <trkpt lat="48.71312" lon="1.72031">
        <ele>152.19999694824</ele>
        <time>2013-08-15T09:36:54.000Z</time>
      </trkpt>
      <trkpt lat="48.71319" lon="1.72032">
        <ele>151.39999389648</ele>
        <time>2013-08-15T09:36:59.000Z</time>
      </trkpt>
      <trkpt lat="48.71329" lon="1.72035">
        <ele>150.60000610352</ele>
        <time>2013-08-15T09:37:06.000Z</time>
      </trkpt>
      <trkpt lat="48.71331" lon="1.72036">
        <ele>150.60000610352</ele>
        <time>2013-08-15T09:37:08.000Z</time>
      </trkpt>
      <trkpt lat="48.71343" lon="1.72039">
        <ele>149.80000305176</ele>
        <time>2013-08-15T09:37:14.000Z</time>
      </trkpt>
      <trkpt lat="48.7135" lon="1.72043">
        <ele>149.39999389648</ele>
        <time>2013-08-15T09:37:17.000Z</time>
      </trkpt>
      <trkpt lat="48.71363" lon="1.72054">
        <ele>148.80000305176</ele>
        <time>2013-08-15T09:37:26.000Z</time>
      </trkpt>
      <trkpt lat="48.71365" lon="1.72056">
        <ele>148.80000305176</ele>
        <time>2013-08-15T09:37:28.000Z</time>
      </trkpt>
      <trkpt lat="48.71373" lon="1.72059">
        <ele>148.19999694824</ele>
        <time>2013-08-15T09:37:34.000Z</time>
      </trkpt>
      <trkpt lat="48.71374" lon="1.7206">
        <ele>148</ele>
        <time>2013-08-15T09:37:35.000Z</time>
      </trkpt>
      <trkpt lat="48.7138" lon="1.72063">
        <ele>147.60000610352</ele>
        <time>2013-08-15T09:37:39.000Z</time>
      </trkpt>
      <trkpt lat="48.71389" lon="1.72069">
        <ele>146.60000610352</ele>
        <time>2013-08-15T09:37:45.000Z</time>
      </trkpt>
      <trkpt lat="48.71394" lon="1.72076">
        <ele>146</ele>
        <time>2013-08-15T09:37:50.000Z</time>
      </trkpt>
      <trkpt lat="48.71395" lon="1.72078">
        <ele>146</ele>
        <time>2013-08-15T09:37:51.000Z</time>
      </trkpt>
      <trkpt lat="48.714" lon="1.72084">
        <ele>145.19999694824</ele>
        <time>2013-08-15T09:37:55.000Z</time>
      </trkpt>
      <trkpt lat="48.71406" lon="1.72093">
        <ele>144.80000305176</ele>
        <time>2013-08-15T09:38:01.000Z</time>
      </trkpt>
      <trkpt lat="48.71408" lon="1.72093">
        <ele>144.80000305176</ele>
        <time>2013-08-15T09:38:03.000Z</time>
      </trkpt>
      <trkpt lat="48.71411" lon="1.72088">
        <ele>144</ele>
        <time>2013-08-15T09:38:10.000Z</time>
      </trkpt>
      <trkpt lat="48.71413" lon="1.72085">
        <ele>143.39999389648</ele>
        <time>2013-08-15T09:38:14.000Z</time>
      </trkpt>
      <trkpt lat="48.71413" lon="1.72081">
        <ele>143.60000610352</ele>
        <time>2013-08-15T09:38:19.000Z</time>
      </trkpt>
      <trkpt lat="48.7141" lon="1.72071">
        <ele>144</ele>
        <time>2013-08-15T09:38:24.000Z</time>
      </trkpt>
      <trkpt lat="48.71406" lon="1.72063">
        <ele>144.39999389648</ele>
        <time>2013-08-15T09:38:27.000Z</time>
      </trkpt>
      <trkpt lat="48.71393" lon="1.72039">
        <ele>145.39999389648</ele>
        <time>2013-08-15T09:38:34.000Z</time>
      </trkpt>
      <trkpt lat="48.71381" lon="1.72024">
        <ele>146</ele>
        <time>2013-08-15T09:38:39.000Z</time>
      </trkpt>
      <trkpt lat="48.71361" lon="1.72008">
        <ele>146.39999389648</ele>
        <time>2013-08-15T09:38:46.000Z</time>
      </trkpt>
      <trkpt lat="48.71342" lon="1.71994">
        <ele>146.80000305176</ele>
        <time>2013-08-15T09:38:52.000Z</time>
      </trkpt>
      <trkpt lat="48.71332" lon="1.71979">
        <ele>147.60000610352</ele>
        <time>2013-08-15T09:38:57.000Z</time>
      </trkpt>
      <trkpt lat="48.7132" lon="1.71967">
        <ele>149</ele>
        <time>2013-08-15T09:39:02.000Z</time>
      </trkpt>
      <trkpt lat="48.71313" lon="1.71959">
        <ele>150</ele>
        <time>2013-08-15T09:39:06.000Z</time>
      </trkpt>
      <trkpt lat="48.7131" lon="1.71939">
        <ele>150.80000305176</ele>
        <time>2013-08-15T09:39:11.000Z</time>
      </trkpt>
      <trkpt lat="48.71312" lon="1.71917">
        <ele>151.19999694824</ele>
        <time>2013-08-15T09:39:16.000Z</time>
      </trkpt>
      <trkpt lat="48.71315" lon="1.71895">
        <ele>151.19999694824</ele>
        <time>2013-08-15T09:39:22.000Z</time>
      </trkpt>
      <trkpt lat="48.71317" lon="1.71884">
        <ele>151.19999694824</ele>
        <time>2013-08-15T09:39:26.000Z</time>
      </trkpt>
      <trkpt lat="48.7132" lon="1.71866">
        <ele>151</ele>
        <time>2013-08-15T09:39:31.000Z</time>
      </trkpt>
      <trkpt lat="48.71325" lon="1.71849">
        <ele>150.80000305176</ele>
        <time>2013-08-15T09:39:36.000Z</time>
      </trkpt>
      <trkpt lat="48.71329" lon="1.71827">
        <ele>150.19999694824</ele>
        <time>2013-08-15T09:39:41.000Z</time>
      </trkpt>
      <trkpt lat="48.71323" lon="1.7179">
        <ele>149.39999389648</ele>
        <time>2013-08-15T09:39:48.000Z</time>
      </trkpt>
      <trkpt lat="48.7132" lon="1.71762">
        <ele>148.39999389648</ele>
        <time>2013-08-15T09:39:53.000Z</time>
      </trkpt>
      <trkpt lat="48.7132" lon="1.71728">
        <ele>147.60000610352</ele>
        <time>2013-08-15T09:39:58.000Z</time>
      </trkpt>
      <trkpt lat="48.71319" lon="1.71694">
        <ele>147</ele>
        <time>2013-08-15T09:40:03.000Z</time>
      </trkpt>
      <trkpt lat="48.7132" lon="1.71673">
        <ele>146.60000610352</ele>
        <time>2013-08-15T09:40:06.000Z</time>
      </trkpt>
      <trkpt lat="48.71319" lon="1.71657">
        <ele>146.19999694824</ele>
        <time>2013-08-15T09:40:08.000Z</time>
      </trkpt>
      <trkpt lat="48.71319" lon="1.71627">
        <ele>145.19999694824</ele>
        <time>2013-08-15T09:40:13.000Z</time>
      </trkpt>
      <trkpt lat="48.7132" lon="1.71623">
        <ele>145</ele>
        <time>2013-08-15T09:40:14.000Z</time>
      </trkpt>
      <trkpt lat="48.71318" lon="1.71586">
        <ele>144</ele>
        <time>2013-08-15T09:40:19.000Z</time>
      </trkpt>
      <trkpt lat="48.71311" lon="1.71537">
        <ele>143.60000610352</ele>
        <time>2013-08-15T09:40:25.000Z</time>
      </trkpt>
      <trkpt lat="48.71311" lon="1.71486">
        <ele>142.80000305176</ele>
        <time>2013-08-15T09:40:31.000Z</time>
      </trkpt>
      <trkpt lat="48.71311" lon="1.71478">
        <ele>142.80000305176</ele>
        <time>2013-08-15T09:40:32.000Z</time>
      </trkpt>
      <trkpt lat="48.71303" lon="1.71441">
        <ele>143</ele>
        <time>2013-08-15T09:40:37.000Z</time>
      </trkpt>
      <trkpt lat="48.71301" lon="1.71433">
        <ele>143</ele>
        <time>2013-08-15T09:40:38.000Z</time>
      </trkpt>
      <trkpt lat="48.71297" lon="1.71384">
        <ele>142.60000610352</ele>
        <time>2013-08-15T09:40:44.000Z</time>
      </trkpt>
      <trkpt lat="48.7129" lon="1.71344">
        <ele>142.19999694824</ele>
        <time>2013-08-15T09:40:49.000Z</time>
      </trkpt>
      <trkpt lat="48.71279" lon="1.71286">
        <ele>141.80000305176</ele>
        <time>2013-08-15T09:40:56.000Z</time>
      </trkpt>
      <trkpt lat="48.71276" lon="1.7127">
        <ele>141.60000610352</ele>
        <time>2013-08-15T09:40:58.000Z</time>
      </trkpt>
      <trkpt lat="48.71275" lon="1.71211">
        <ele>141.19999694824</ele>
        <time>2013-08-15T09:41:05.000Z</time>
      </trkpt>
      <trkpt lat="48.71275" lon="1.71185">
        <ele>141</ele>
        <time>2013-08-15T09:41:08.000Z</time>
      </trkpt>
      <trkpt lat="48.71267" lon="1.71144">
        <ele>141.39999389648</ele>
        <time>2013-08-15T09:41:13.000Z</time>
      </trkpt>
      <trkpt lat="48.71258" lon="1.7111">
        <ele>141.60000610352</ele>
        <time>2013-08-15T09:41:18.000Z</time>
      </trkpt>
      <trkpt lat="48.71248" lon="1.71091">
        <ele>142.19999694824</ele>
        <time>2013-08-15T09:41:22.000Z</time>
      </trkpt>
      <trkpt lat="48.71231" lon="1.71056">
        <ele>143.80000305176</ele>
        <time>2013-08-15T09:41:30.000Z</time>
      </trkpt>
      <trkpt lat="48.71219" lon="1.71028">
        <ele>144.80000305176</ele>
        <time>2013-08-15T09:41:36.000Z</time>
      </trkpt>
      <trkpt lat="48.71212" lon="1.70995">
        <ele>145.19999694824</ele>
        <time>2013-08-15T09:41:42.000Z</time>
      </trkpt>
      <trkpt lat="48.71209" lon="1.70968">
        <ele>146</ele>
        <time>2013-08-15T09:41:47.000Z</time>
      </trkpt>
      <trkpt lat="48.71206" lon="1.70934">
        <ele>146.80000305176</ele>
        <time>2013-08-15T09:41:53.000Z</time>
      </trkpt>
      <trkpt lat="48.71204" lon="1.70896">
        <ele>148.19999694824</ele>
        <time>2013-08-15T09:41:59.000Z</time>
      </trkpt>
      <trkpt lat="48.71205" lon="1.70885">
        <ele>148.80000305176</ele>
        <time>2013-08-15T09:42:01.000Z</time>
      </trkpt>
      <trkpt lat="48.71193" lon="1.70862">
        <ele>151</ele>
        <time>2013-08-15T09:42:05.000Z</time>
      </trkpt>
      <trkpt lat="48.71186" lon="1.70851">
        <ele>152.19999694824</ele>
        <time>2013-08-15T09:42:07.000Z</time>
      </trkpt>
      <trkpt lat="48.71173" lon="1.70831">
        <ele>154.19999694824</ele>
        <time>2013-08-15T09:42:12.000Z</time>
      </trkpt>
      <trkpt lat="48.71172" lon="1.70827">
        <ele>154.19999694824</ele>
        <time>2013-08-15T09:42:13.000Z</time>
      </trkpt>
      <trkpt lat="48.71161" lon="1.70809">
        <ele>154.39999389648</ele>
        <time>2013-08-15T09:42:18.000Z</time>
      </trkpt>
      <trkpt lat="48.71148" lon="1.70787">
        <ele>154.39999389648</ele>
        <time>2013-08-15T09:42:24.000Z</time>
      </trkpt>
      <trkpt lat="48.71137" lon="1.70767">
        <ele>154.60000610352</ele>
        <time>2013-08-15T09:42:31.000Z</time>
      </trkpt>
      <trkpt lat="48.71131" lon="1.70758">
        <ele>154.80000305176</ele>
        <time>2013-08-15T09:42:37.000Z</time>
      </trkpt>
      <trkpt lat="48.71124" lon="1.70748">
        <ele>155</ele>
        <time>2013-08-15T09:42:45.000Z</time>
      </trkpt>
      <trkpt lat="48.71122" lon="1.70744">
        <ele>155</ele>
        <time>2013-08-15T09:42:48.000Z</time>
      </trkpt>
      <trkpt lat="48.71117" lon="1.70737">
        <ele>155.19999694824</ele>
        <time>2013-08-15T09:42:54.000Z</time>
      </trkpt>
      <trkpt lat="48.71115" lon="1.70735">
        <ele>155.39999389648</ele>
        <time>2013-08-15T09:42:56.000Z</time>
      </trkpt>
      <trkpt lat="48.71113" lon="1.70732">
        <ele>155.39999389648</ele>
        <time>2013-08-15T09:42:58.000Z</time>
      </trkpt>
      <trkpt lat="48.71108" lon="1.70725">
        <ele>155.80000305176</ele>
        <time>2013-08-15T09:43:03.000Z</time>
      </trkpt>
      <trkpt lat="48.71103" lon="1.70718">
        <ele>156</ele>
        <time>2013-08-15T09:43:09.000Z</time>
      </trkpt>
      <trkpt lat="48.71093" lon="1.70705">
        <ele>156.39999389648</ele>
        <time>2013-08-15T09:43:18.000Z</time>
      </trkpt>
      <trkpt lat="48.71086" lon="1.70695">
        <ele>156.80000305176</ele>
        <time>2013-08-15T09:43:25.000Z</time>
      </trkpt>
      <trkpt lat="48.71076" lon="1.7068">
        <ele>157.60000610352</ele>
        <time>2013-08-15T09:43:35.000Z</time>
      </trkpt>
      <trkpt lat="48.71068" lon="1.70668">
        <ele>158.19999694824</ele>
        <time>2013-08-15T09:43:43.000Z</time>
      </trkpt>
      <trkpt lat="48.71058" lon="1.70655">
        <ele>158.80000305176</ele>
        <time>2013-08-15T09:43:53.000Z</time>
      </trkpt>
      <trkpt lat="48.71056" lon="1.70652">
        <ele>158.80000305176</ele>
        <time>2013-08-15T09:43:55.000Z</time>
      </trkpt>
      <trkpt lat="48.71052" lon="1.70644">
        <ele>159</ele>
        <time>2013-08-15T09:44:01.000Z</time>
      </trkpt>
      <trkpt lat="48.71046" lon="1.70635">
        <ele>159.19999694824</ele>
        <time>2013-08-15T09:44:07.000Z</time>
      </trkpt>
      <trkpt lat="48.71041" lon="1.70629">
        <ele>159.19999694824</ele>
        <time>2013-08-15T09:44:12.000Z</time>
      </trkpt>
      <trkpt lat="48.7104" lon="1.70628">
        <ele>159.39999389648</ele>
        <time>2013-08-15T09:44:13.000Z</time>
      </trkpt>
      <trkpt lat="48.71028" lon="1.7062">
        <ele>159.80000305176</ele>
        <time>2013-08-15T09:44:22.000Z</time>
      </trkpt>
      <trkpt lat="48.71018" lon="1.70625">
        <ele>160.60000610352</ele>
        <time>2013-08-15T09:44:29.000Z</time>
      </trkpt>
      <trkpt lat="48.71015" lon="1.70626">
        <ele>161</ele>
        <time>2013-08-15T09:44:31.000Z</time>
      </trkpt>
      <trkpt lat="48.71009" lon="1.70627">
        <ele>161.39999389648</ele>
        <time>2013-08-15T09:44:36.000Z</time>
      </trkpt>
      <trkpt lat="48.71003" lon="1.70635">
        <ele>162.19999694824</ele>
        <time>2013-08-15T09:44:42.000Z</time>
      </trkpt>
      <trkpt lat="48.70997" lon="1.70638">
        <ele>162.60000610352</ele>
        <time>2013-08-15T09:44:46.000Z</time>
      </trkpt>
      <trkpt lat="48.70996" lon="1.70638">
        <ele>162.80000305176</ele>
        <time>2013-08-15T09:44:47.000Z</time>
      </trkpt>
      <trkpt lat="48.70991" lon="1.70641">
        <ele>163</ele>
        <time>2013-08-15T09:44:51.000Z</time>
      </trkpt>
      <trkpt lat="48.70983" lon="1.70642">
        <ele>163.39999389648</ele>
        <time>2013-08-15T09:44:58.000Z</time>
      </trkpt>
      <trkpt lat="48.70976" lon="1.70646">
        <ele>164</ele>
        <time>2013-08-15T09:45:04.000Z</time>
      </trkpt>
      <trkpt lat="48.7097" lon="1.70652">
        <ele>164.60000610352</ele>
        <time>2013-08-15T09:45:10.000Z</time>
      </trkpt>
      <trkpt lat="48.70965" lon="1.70657">
        <ele>165.39999389648</ele>
        <time>2013-08-15T09:45:15.000Z</time>
      </trkpt>
      <trkpt lat="48.70955" lon="1.7067">
        <ele>166.80000305176</ele>
        <time>2013-08-15T09:45:24.000Z</time>
      </trkpt>
      <trkpt lat="48.70947" lon="1.70678">
        <ele>167.80000305176</ele>
        <time>2013-08-15T09:45:31.000Z</time>
      </trkpt>
      <trkpt lat="48.7094" lon="1.70688">
        <ele>169</ele>
        <time>2013-08-15T09:45:38.000Z</time>
      </trkpt>
      <trkpt lat="48.70931" lon="1.70699">
        <ele>170.39999389648</ele>
        <time>2013-08-15T09:45:46.000Z</time>
      </trkpt>
      <trkpt lat="48.70923" lon="1.70711">
        <ele>172</ele>
        <time>2013-08-15T09:45:53.000Z</time>
      </trkpt>
      <trkpt lat="48.70917" lon="1.70721">
        <ele>173.39999389648</ele>
        <time>2013-08-15T09:45:59.000Z</time>
      </trkpt>
      <trkpt lat="48.7091" lon="1.70733">
        <ele>175</ele>
        <time>2013-08-15T09:46:06.000Z</time>
      </trkpt>
      <trkpt lat="48.70909" lon="1.70735">
        <ele>175.19999694824</ele>
        <time>2013-08-15T09:46:07.000Z</time>
      </trkpt>
      <trkpt lat="48.70902" lon="1.70745">
        <ele>176.80000305176</ele>
        <time>2013-08-15T09:46:13.000Z</time>
      </trkpt>
      <trkpt lat="48.70893" lon="1.70751">
        <ele>178</ele>
        <time>2013-08-15T09:46:19.000Z</time>
      </trkpt>
      <trkpt lat="48.70885" lon="1.70755">
        <ele>178.80000305176</ele>
        <time>2013-08-15T09:46:24.000Z</time>
      </trkpt>
      <trkpt lat="48.70875" lon="1.70761">
        <ele>179.80000305176</ele>
        <time>2013-08-15T09:46:31.000Z</time>
      </trkpt>
      <trkpt lat="48.70868" lon="1.70764">
        <ele>180.60000610352</ele>
        <time>2013-08-15T09:46:38.000Z</time>
      </trkpt>
      <trkpt lat="48.70866" lon="1.70766">
        <ele>180.80000305176</ele>
        <time>2013-08-15T09:46:40.000Z</time>
      </trkpt>
      <trkpt lat="48.70856" lon="1.70771">
        <ele>181.80000305176</ele>
        <time>2013-08-15T09:46:46.000Z</time>
      </trkpt>
      <trkpt lat="48.70844" lon="1.70774">
        <ele>183</ele>
        <time>2013-08-15T09:46:53.000Z</time>
      </trkpt>
      <trkpt lat="48.70841" lon="1.70776">
        <ele>183.19999694824</ele>
        <time>2013-08-15T09:46:57.000Z</time>
      </trkpt>
      <trkpt lat="48.70833" lon="1.70784">
        <ele>184.19999694824</ele>
        <time>2013-08-15T09:47:05.000Z</time>
      </trkpt>
      <trkpt lat="48.70831" lon="1.70789">
        <ele>184.39999389648</ele>
        <time>2013-08-15T09:47:07.000Z</time>
      </trkpt>
      <trkpt lat="48.70823" lon="1.708">
        <ele>184.80000305176</ele>
        <time>2013-08-15T09:47:13.000Z</time>
      </trkpt>
      <trkpt lat="48.70816" lon="1.7081">
        <ele>185.19999694824</ele>
        <time>2013-08-15T09:47:19.000Z</time>
      </trkpt>
      <trkpt lat="48.70813" lon="1.70815">
        <ele>185.39999389648</ele>
        <time>2013-08-15T09:47:23.000Z</time>
      </trkpt>
      <trkpt lat="48.70806" lon="1.70826">
        <ele>185.80000305176</ele>
        <time>2013-08-15T09:47:30.000Z</time>
      </trkpt>
      <trkpt lat="48.708" lon="1.70839">
        <ele>185.80000305176</ele>
        <time>2013-08-15T09:47:37.000Z</time>
      </trkpt>
      <trkpt lat="48.70799" lon="1.70841">
        <ele>185.80000305176</ele>
        <time>2013-08-15T09:47:39.000Z</time>
      </trkpt>
      <trkpt lat="48.70795" lon="1.70851">
        <ele>185.80000305176</ele>
        <time>2013-08-15T09:47:44.000Z</time>
      </trkpt>
      <trkpt lat="48.70792" lon="1.70856">
        <ele>185.80000305176</ele>
        <time>2013-08-15T09:47:47.000Z</time>
      </trkpt>
      <trkpt lat="48.70789" lon="1.70863">
        <ele>185.80000305176</ele>
        <time>2013-08-15T09:47:52.000Z</time>
      </trkpt>
      <trkpt lat="48.70781" lon="1.70872">
        <ele>185.60000610352</ele>
        <time>2013-08-15T09:48:00.000Z</time>
      </trkpt>
      <trkpt lat="48.70772" lon="1.70886">
        <ele>185.39999389648</ele>
        <time>2013-08-15T09:48:08.000Z</time>
      </trkpt>
      <trkpt lat="48.70765" lon="1.70898">
        <ele>185.19999694824</ele>
        <time>2013-08-15T09:48:15.000Z</time>
      </trkpt>
      <trkpt lat="48.70761" lon="1.70903">
        <ele>185.19999694824</ele>
        <time>2013-08-15T09:48:19.000Z</time>
      </trkpt>
      <trkpt lat="48.70754" lon="1.70909">
        <ele>185</ele>
        <time>2013-08-15T09:48:24.000Z</time>
      </trkpt>
      <trkpt lat="48.70747" lon="1.70916">
        <ele>184.80000305176</ele>
        <time>2013-08-15T09:48:30.000Z</time>
      </trkpt>
      <trkpt lat="48.70739" lon="1.70926">
        <ele>184.39999389648</ele>
        <time>2013-08-15T09:48:36.000Z</time>
      </trkpt>
      <trkpt lat="48.7073" lon="1.70933">
        <ele>184.19999694824</ele>
        <time>2013-08-15T09:48:42.000Z</time>
      </trkpt>
      <trkpt lat="48.70718" lon="1.70945">
        <ele>183.80000305176</ele>
        <time>2013-08-15T09:48:51.000Z</time>
      </trkpt>
      <trkpt lat="48.70712" lon="1.7095">
        <ele>183.60000610352</ele>
        <time>2013-08-15T09:48:56.000Z</time>
      </trkpt>
      <trkpt lat="48.70703" lon="1.70957">
        <ele>183.39999389648</ele>
        <time>2013-08-15T09:49:03.000Z</time>
      </trkpt>
      <trkpt lat="48.70694" lon="1.70967">
        <ele>183.19999694824</ele>
        <time>2013-08-15T09:49:10.000Z</time>
      </trkpt>
      <trkpt lat="48.70687" lon="1.70976">
        <ele>183</ele>
        <time>2013-08-15T09:49:17.000Z</time>
      </trkpt>
      <trkpt lat="48.7068" lon="1.70987">
        <ele>183</ele>
        <time>2013-08-15T09:49:23.000Z</time>
      </trkpt>
      <trkpt lat="48.70673" lon="1.70994">
        <ele>183</ele>
        <time>2013-08-15T09:49:29.000Z</time>
      </trkpt>
      <trkpt lat="48.70663" lon="1.71004">
        <ele>182.80000305176</ele>
        <time>2013-08-15T09:49:35.000Z</time>
      </trkpt>
      <trkpt lat="48.7066" lon="1.71008">
        <ele>182.80000305176</ele>
        <time>2013-08-15T09:49:38.000Z</time>
      </trkpt>
      <trkpt lat="48.70656" lon="1.71014">
        <ele>182.80000305176</ele>
        <time>2013-08-15T09:49:42.000Z</time>
      </trkpt>
      <trkpt lat="48.70653" lon="1.71016">
        <ele>182.80000305176</ele>
        <time>2013-08-15T09:49:44.000Z</time>
      </trkpt>
      <trkpt lat="48.70644" lon="1.71023">
        <ele>182.60000610352</ele>
        <time>2013-08-15T09:49:51.000Z</time>
      </trkpt>
      <trkpt lat="48.70634" lon="1.71031">
        <ele>182.60000610352</ele>
        <time>2013-08-15T09:49:58.000Z</time>
      </trkpt>
      <trkpt lat="48.70629" lon="1.71036">
        <ele>182.60000610352</ele>
        <time>2013-08-15T09:50:02.000Z</time>
      </trkpt>
      <trkpt lat="48.70619" lon="1.71044">
        <ele>182.60000610352</ele>
        <time>2013-08-15T09:50:08.000Z</time>
      </trkpt>
      <trkpt lat="48.70609" lon="1.71053">
        <ele>182.60000610352</ele>
        <time>2013-08-15T09:50:15.000Z</time>
      </trkpt>
      <trkpt lat="48.706" lon="1.71063">
        <ele>182.80000305176</ele>
        <time>2013-08-15T09:50:22.000Z</time>
      </trkpt>
      <trkpt lat="48.70592" lon="1.71071">
        <ele>182.80000305176</ele>
        <time>2013-08-15T09:50:29.000Z</time>
      </trkpt>
      <trkpt lat="48.70583" lon="1.71077">
        <ele>182.80000305176</ele>
        <time>2013-08-15T09:50:37.000Z</time>
      </trkpt>
      <trkpt lat="48.70578" lon="1.71081">
        <ele>183</ele>
        <time>2013-08-15T09:50:43.000Z</time>
      </trkpt>
      <trkpt lat="48.70567" lon="1.7109">
        <ele>183.19999694824</ele>
        <time>2013-08-15T09:50:50.000Z</time>
      </trkpt>
      <trkpt lat="48.70558" lon="1.71101">
        <ele>183.60000610352</ele>
        <time>2013-08-15T09:50:56.000Z</time>
      </trkpt>
      <trkpt lat="48.70549" lon="1.71111">
        <ele>183.80000305176</ele>
        <time>2013-08-15T09:51:02.000Z</time>
      </trkpt>
      <trkpt lat="48.70545" lon="1.71115">
        <ele>183.80000305176</ele>
        <time>2013-08-15T09:51:05.000Z</time>
      </trkpt>
      <trkpt lat="48.70535" lon="1.71123">
        <ele>184</ele>
        <time>2013-08-15T09:51:12.000Z</time>
      </trkpt>
      <trkpt lat="48.70526" lon="1.71134">
        <ele>184.19999694824</ele>
        <time>2013-08-15T09:51:19.000Z</time>
      </trkpt>
      <trkpt lat="48.70519" lon="1.71143">
        <ele>184.39999389648</ele>
        <time>2013-08-15T09:51:25.000Z</time>
      </trkpt>
      <trkpt lat="48.70514" lon="1.71151">
        <ele>184.60000610352</ele>
        <time>2013-08-15T09:51:31.000Z</time>
      </trkpt>
      <trkpt lat="48.70508" lon="1.71163">
        <ele>184.60000610352</ele>
        <time>2013-08-15T09:51:39.000Z</time>
      </trkpt>
      <trkpt lat="48.70503" lon="1.71178">
        <ele>185</ele>
        <time>2013-08-15T09:51:48.000Z</time>
      </trkpt>
      <trkpt lat="48.705" lon="1.71183">
        <ele>185</ele>
        <time>2013-08-15T09:51:51.000Z</time>
      </trkpt>
      <trkpt lat="48.70496" lon="1.71188">
        <ele>185.19999694824</ele>
        <time>2013-08-15T09:51:56.000Z</time>
      </trkpt>
      <trkpt lat="48.70493" lon="1.71198">
        <ele>185.39999389648</ele>
        <time>2013-08-15T09:52:02.000Z</time>
      </trkpt>
      <trkpt lat="48.70486" lon="1.7121">
        <ele>185.60000610352</ele>
        <time>2013-08-15T09:52:10.000Z</time>
      </trkpt>
      <trkpt lat="48.70483" lon="1.7122">
        <ele>185.80000305176</ele>
        <time>2013-08-15T09:52:16.000Z</time>
      </trkpt>
      <trkpt lat="48.70479" lon="1.71232">
        <ele>186</ele>
        <time>2013-08-15T09:52:22.000Z</time>
      </trkpt>
      <trkpt lat="48.70477" lon="1.71242">
        <ele>186</ele>
        <time>2013-08-15T09:52:27.000Z</time>
      </trkpt>
      <trkpt lat="48.70474" lon="1.71253">
        <ele>186.19999694824</ele>
        <time>2013-08-15T09:52:33.000Z</time>
      </trkpt>
      <trkpt lat="48.7047" lon="1.71269">
        <ele>186.39999389648</ele>
        <time>2013-08-15T09:52:40.000Z</time>
      </trkpt>
      <trkpt lat="48.70469" lon="1.71283">
        <ele>186.60000610352</ele>
        <time>2013-08-15T09:52:47.000Z</time>
      </trkpt>
      <trkpt lat="48.7047" lon="1.71293">
        <ele>186.80000305176</ele>
        <time>2013-08-15T09:52:52.000Z</time>
      </trkpt>
      <trkpt lat="48.70465" lon="1.71309">
        <ele>186.80000305176</ele>
        <time>2013-08-15T09:53:00.000Z</time>
      </trkpt>
      <trkpt lat="48.70463" lon="1.71312">
        <ele>186.80000305176</ele>
        <time>2013-08-15T09:53:02.000Z</time>
      </trkpt>
      <trkpt lat="48.70461" lon="1.71328">
        <ele>187</ele>
        <time>2013-08-15T09:53:10.000Z</time>
      </trkpt>
      <trkpt lat="48.70459" lon="1.71342">
        <ele>187</ele>
        <time>2013-08-15T09:53:17.000Z</time>
      </trkpt>
      <trkpt lat="48.70455" lon="1.71355">
        <ele>186.80000305176</ele>
        <time>2013-08-15T09:53:22.000Z</time>
      </trkpt>
      <trkpt lat="48.70455" lon="1.71368">
        <ele>186.80000305176</ele>
        <time>2013-08-15T09:53:28.000Z</time>
      </trkpt>
      <trkpt lat="48.70449" lon="1.71385">
        <ele>186.60000610352</ele>
        <time>2013-08-15T09:53:34.000Z</time>
      </trkpt>
      <trkpt lat="48.70445" lon="1.71403">
        <ele>186.39999389648</ele>
        <time>2013-08-15T09:53:41.000Z</time>
      </trkpt>
      <trkpt lat="48.70444" lon="1.71412">
        <ele>186.19999694824</ele>
        <time>2013-08-15T09:53:46.000Z</time>
      </trkpt>
      <trkpt lat="48.7044" lon="1.71425">
        <ele>186</ele>
        <time>2013-08-15T09:53:52.000Z</time>
      </trkpt>
      <trkpt lat="48.70435" lon="1.7144">
        <ele>185.80000305176</ele>
        <time>2013-08-15T09:53:58.000Z</time>
      </trkpt>
      <trkpt lat="48.70433" lon="1.71451">
        <ele>185.80000305176</ele>
        <time>2013-08-15T09:54:04.000Z</time>
      </trkpt>
      <trkpt lat="48.70433" lon="1.71455">
        <ele>185.80000305176</ele>
        <time>2013-08-15T09:54:06.000Z</time>
      </trkpt>
      <trkpt lat="48.70433" lon="1.71461">
        <ele>186</ele>
        <time>2013-08-15T09:54:09.000Z</time>
      </trkpt>
      <trkpt lat="48.70433" lon="1.71464">
        <ele>186</ele>
        <time>2013-08-15T09:54:11.000Z</time>
      </trkpt>
      <trkpt lat="48.70432" lon="1.71472">
        <ele>186</ele>
        <time>2013-08-15T09:54:15.000Z</time>
      </trkpt>
      <trkpt lat="48.70431" lon="1.71482">
        <ele>186</ele>
        <time>2013-08-15T09:54:21.000Z</time>
      </trkpt>
      <trkpt lat="48.70426" lon="1.71499">
        <ele>186</ele>
        <time>2013-08-15T09:54:29.000Z</time>
      </trkpt>
      <trkpt lat="48.70426" lon="1.71511">
        <ele>185.80000305176</ele>
        <time>2013-08-15T09:54:35.000Z</time>
      </trkpt>
      <trkpt lat="48.70423" lon="1.71522">
        <ele>185.80000305176</ele>
        <time>2013-08-15T09:54:39.000Z</time>
      </trkpt>
      <trkpt lat="48.7042" lon="1.71534">
        <ele>185.60000610352</ele>
        <time>2013-08-15T09:54:43.000Z</time>
      </trkpt>
      <trkpt lat="48.70415" lon="1.71556">
        <ele>185.19999694824</ele>
        <time>2013-08-15T09:54:52.000Z</time>
      </trkpt>
      <trkpt lat="48.70411" lon="1.71568">
        <ele>185</ele>
        <time>2013-08-15T09:54:59.000Z</time>
      </trkpt>
      <trkpt lat="48.70409" lon="1.7158">
        <ele>184.80000305176</ele>
        <time>2013-08-15T09:55:04.000Z</time>
      </trkpt>
      <trkpt lat="48.70407" lon="1.71595">
        <ele>184.80000305176</ele>
        <time>2013-08-15T09:55:12.000Z</time>
      </trkpt>
      <trkpt lat="48.70402" lon="1.71611">
        <ele>184.80000305176</ele>
        <time>2013-08-15T09:55:20.000Z</time>
      </trkpt>
      <trkpt lat="48.70399" lon="1.71624">
        <ele>185</ele>
        <time>2013-08-15T09:55:27.000Z</time>
      </trkpt>
      <trkpt lat="48.70398" lon="1.71631">
        <ele>185</ele>
        <time>2013-08-15T09:55:31.000Z</time>
      </trkpt>
      <trkpt lat="48.70393" lon="1.7165">
        <ele>185.19999694824</ele>
        <time>2013-08-15T09:55:39.000Z</time>
      </trkpt>
      <trkpt lat="48.70391" lon="1.71664">
        <ele>185.19999694824</ele>
        <time>2013-08-15T09:55:46.000Z</time>
      </trkpt>
      <trkpt lat="48.7039" lon="1.71676">
        <ele>185.39999389648</ele>
        <time>2013-08-15T09:55:53.000Z</time>
      </trkpt>
      <trkpt lat="48.70386" lon="1.7169">
        <ele>185.60000610352</ele>
        <time>2013-08-15T09:56:00.000Z</time>
      </trkpt>
      <trkpt lat="48.70382" lon="1.71702">
        <ele>185.60000610352</ele>
        <time>2013-08-15T09:56:05.000Z</time>
      </trkpt>
      <trkpt lat="48.70383" lon="1.71708">
        <ele>185.80000305176</ele>
        <time>2013-08-15T09:56:09.000Z</time>
      </trkpt>
      <trkpt lat="48.70383" lon="1.71717">
        <ele>186</ele>
        <time>2013-08-15T09:56:14.000Z</time>
      </trkpt>
      <trkpt lat="48.70379" lon="1.71725">
        <ele>186</ele>
        <time>2013-08-15T09:56:18.000Z</time>
      </trkpt>
      <trkpt lat="48.70376" lon="1.71742">
        <ele>186.19999694824</ele>
        <time>2013-08-15T09:56:26.000Z</time>
      </trkpt>
      <trkpt lat="48.70376" lon="1.71755">
        <ele>186.39999389648</ele>
        <time>2013-08-15T09:56:31.000Z</time>
      </trkpt>
      <trkpt lat="48.7037" lon="1.71775">
        <ele>185.80000305176</ele>
        <time>2013-08-15T09:56:39.000Z</time>
      </trkpt>
      <trkpt lat="48.70367" lon="1.71786">
        <ele>185.60000610352</ele>
        <time>2013-08-15T09:56:45.000Z</time>
      </trkpt>
      <trkpt lat="48.70366" lon="1.71795">
        <ele>185.39999389648</ele>
        <time>2013-08-15T09:56:50.000Z</time>
      </trkpt>
      <trkpt lat="48.70364" lon="1.71803">
        <ele>185.19999694824</ele>
        <time>2013-08-15T09:56:54.000Z</time>
      </trkpt>
      <trkpt lat="48.70363" lon="1.71821">
        <ele>184.80000305176</ele>
        <time>2013-08-15T09:57:02.000Z</time>
      </trkpt>
      <trkpt lat="48.70357" lon="1.71836">
        <ele>184.39999389648</ele>
        <time>2013-08-15T09:57:08.000Z</time>
      </trkpt>
      <trkpt lat="48.70356" lon="1.71847">
        <ele>184.19999694824</ele>
        <time>2013-08-15T09:57:13.000Z</time>
      </trkpt>
      <trkpt lat="48.70355" lon="1.71856">
        <ele>184.19999694824</ele>
        <time>2013-08-15T09:57:17.000Z</time>
      </trkpt>
      <trkpt lat="48.70351" lon="1.71876">
        <ele>183.80000305176</ele>
        <time>2013-08-15T09:57:26.000Z</time>
      </trkpt>
      <trkpt lat="48.70349" lon="1.71886">
        <ele>183.60000610352</ele>
        <time>2013-08-15T09:57:32.000Z</time>
      </trkpt>
      <trkpt lat="48.70348" lon="1.7189">
        <ele>183.60000610352</ele>
        <time>2013-08-15T09:57:35.000Z</time>
      </trkpt>
      <trkpt lat="48.70347" lon="1.71901">
        <ele>183.39999389648</ele>
        <time>2013-08-15T09:57:41.000Z</time>
      </trkpt>
      <trkpt lat="48.70347" lon="1.71903">
        <ele>183.39999389648</ele>
        <time>2013-08-15T09:57:42.000Z</time>
      </trkpt>
      <trkpt lat="48.70342" lon="1.71914">
        <ele>183.19999694824</ele>
        <time>2013-08-15T09:57:48.000Z</time>
      </trkpt>
      <trkpt lat="48.70339" lon="1.71927">
        <ele>183</ele>
        <time>2013-08-15T09:57:54.000Z</time>
      </trkpt>
      <trkpt lat="48.70335" lon="1.71938">
        <ele>183</ele>
        <time>2013-08-15T09:57:57.000Z</time>
      </trkpt>
      <trkpt lat="48.70336" lon="1.71942">
        <ele>183</ele>
        <time>2013-08-15T09:57:59.000Z</time>
      </trkpt>
      <trkpt lat="48.70333" lon="1.71956">
        <ele>182.80000305176</ele>
        <time>2013-08-15T09:58:06.000Z</time>
      </trkpt>
      <trkpt lat="48.70333" lon="1.71966">
        <ele>182.80000305176</ele>
        <time>2013-08-15T09:58:10.000Z</time>
      </trkpt>
      <trkpt lat="48.70333" lon="1.71974">
        <ele>183</ele>
        <time>2013-08-15T09:58:14.000Z</time>
      </trkpt>
      <trkpt lat="48.70332" lon="1.71985">
        <ele>182.80000305176</ele>
        <time>2013-08-15T09:58:19.000Z</time>
      </trkpt>
      <trkpt lat="48.70326" lon="1.72002">
        <ele>182.39999389648</ele>
        <time>2013-08-15T09:58:24.000Z</time>
      </trkpt>
      <trkpt lat="48.70324" lon="1.72009">
        <ele>182.60000610352</ele>
        <time>2013-08-15T09:58:27.000Z</time>
      </trkpt>
      <trkpt lat="48.70319" lon="1.72024">
        <ele>182.60000610352</ele>
        <time>2013-08-15T09:58:34.000Z</time>
      </trkpt>
      <trkpt lat="48.70315" lon="1.7204">
        <ele>182.80000305176</ele>
        <time>2013-08-15T09:58:41.000Z</time>
      </trkpt>
      <trkpt lat="48.70311" lon="1.72052">
        <ele>183</ele>
        <time>2013-08-15T09:58:48.000Z</time>
      </trkpt>
      <trkpt lat="48.70305" lon="1.72065">
        <ele>183</ele>
        <time>2013-08-15T09:58:54.000Z</time>
      </trkpt>
      <trkpt lat="48.70305" lon="1.72067">
        <ele>183</ele>
        <time>2013-08-15T09:58:55.000Z</time>
      </trkpt>
      <trkpt lat="48.70305" lon="1.72069">
        <ele>183.19999694824</ele>
        <time>2013-08-15T09:58:57.000Z</time>
      </trkpt>
      <trkpt lat="48.703" lon="1.72083">
        <ele>183.19999694824</ele>
        <time>2013-08-15T09:59:03.000Z</time>
      </trkpt>
      <trkpt lat="48.703" lon="1.72091">
        <ele>183.39999389648</ele>
        <time>2013-08-15T09:59:07.000Z</time>
      </trkpt>
      <trkpt lat="48.70297" lon="1.72101">
        <ele>183.60000610352</ele>
        <time>2013-08-15T09:59:12.000Z</time>
      </trkpt>
      <trkpt lat="48.70292" lon="1.72111">
        <ele>183.60000610352</ele>
        <time>2013-08-15T09:59:19.000Z</time>
      </trkpt>
      <trkpt lat="48.70289" lon="1.72126">
        <ele>183.80000305176</ele>
        <time>2013-08-15T09:59:26.000Z</time>
      </trkpt>
      <trkpt lat="48.70286" lon="1.72134">
        <ele>184</ele>
        <time>2013-08-15T09:59:29.000Z</time>
      </trkpt>
      <trkpt lat="48.70287" lon="1.72145">
        <ele>184.19999694824</ele>
        <time>2013-08-15T09:59:34.000Z</time>
      </trkpt>
      <trkpt lat="48.70284" lon="1.72165">
        <ele>184.60000610352</ele>
        <time>2013-08-15T09:59:42.000Z</time>
      </trkpt>
      <trkpt lat="48.70283" lon="1.72168">
        <ele>184.80000305176</ele>
        <time>2013-08-15T09:59:43.000Z</time>
      </trkpt>
      <trkpt lat="48.70284" lon="1.72171">
        <ele>184.80000305176</ele>
        <time>2013-08-15T09:59:45.000Z</time>
      </trkpt>
      <trkpt lat="48.70287" lon="1.72184">
        <ele>184.80000305176</ele>
        <time>2013-08-15T09:59:52.000Z</time>
      </trkpt>
      <trkpt lat="48.70284" lon="1.72194">
        <ele>185</ele>
        <time>2013-08-15T09:59:57.000Z</time>
      </trkpt>
      <trkpt lat="48.70277" lon="1.72208">
        <ele>184.80000305176</ele>
        <time>2013-08-15T10:00:04.000Z</time>
      </trkpt>
      <trkpt lat="48.70276" lon="1.72209">
        <ele>184.80000305176</ele>
        <time>2013-08-15T10:00:05.000Z</time>
      </trkpt>
      <trkpt lat="48.70275" lon="1.72225">
        <ele>185</ele>
        <time>2013-08-15T10:00:12.000Z</time>
      </trkpt>
      <trkpt lat="48.70273" lon="1.72232">
        <ele>185</ele>
        <time>2013-08-15T10:00:15.000Z</time>
      </trkpt>
      <trkpt lat="48.70272" lon="1.72244">
        <ele>185.19999694824</ele>
        <time>2013-08-15T10:00:21.000Z</time>
      </trkpt>
      <trkpt lat="48.70271" lon="1.72247">
        <ele>185.19999694824</ele>
        <time>2013-08-15T10:00:23.000Z</time>
      </trkpt>
      <trkpt lat="48.7027" lon="1.72257">
        <ele>185</ele>
        <time>2013-08-15T10:00:28.000Z</time>
      </trkpt>
      <trkpt lat="48.7027" lon="1.72264">
        <ele>185</ele>
        <time>2013-08-15T10:00:33.000Z</time>
      </trkpt>
      <trkpt lat="48.70266" lon="1.72278">
        <ele>185</ele>
        <time>2013-08-15T10:00:41.000Z</time>
      </trkpt>
      <trkpt lat="48.70263" lon="1.72284">
        <ele>185</ele>
        <time>2013-08-15T10:00:44.000Z</time>
      </trkpt>
      <trkpt lat="48.70261" lon="1.72293">
        <ele>184.80000305176</ele>
        <time>2013-08-15T10:00:48.000Z</time>
      </trkpt>
      <trkpt lat="48.7026" lon="1.72303">
        <ele>184.80000305176</ele>
        <time>2013-08-15T10:00:52.000Z</time>
      </trkpt>
      <trkpt lat="48.70258" lon="1.72317">
        <ele>184.80000305176</ele>
        <time>2013-08-15T10:00:59.000Z</time>
      </trkpt>
      <trkpt lat="48.70256" lon="1.72326">
        <ele>184.80000305176</ele>
        <time>2013-08-15T10:01:03.000Z</time>
      </trkpt>
      <trkpt lat="48.70254" lon="1.72336">
        <ele>184.80000305176</ele>
        <time>2013-08-15T10:01:07.000Z</time>
      </trkpt>
      <trkpt lat="48.70251" lon="1.72351">
        <ele>184.19999694824</ele>
        <time>2013-08-15T10:01:14.000Z</time>
      </trkpt>
      <trkpt lat="48.70247" lon="1.72357">
        <ele>184</ele>
        <time>2013-08-15T10:01:19.000Z</time>
      </trkpt>
      <trkpt lat="48.70244" lon="1.72369">
        <ele>183.60000610352</ele>
        <time>2013-08-15T10:01:26.000Z</time>
      </trkpt>
      <trkpt lat="48.70244" lon="1.72383">
        <ele>183.19999694824</ele>
        <time>2013-08-15T10:01:32.000Z</time>
      </trkpt>
      <trkpt lat="48.70237" lon="1.72401">
        <ele>182.80000305176</ele>
        <time>2013-08-15T10:01:40.000Z</time>
      </trkpt>
      <trkpt lat="48.70234" lon="1.72412">
        <ele>182.80000305176</ele>
        <time>2013-08-15T10:01:48.000Z</time>
      </trkpt>
      <trkpt lat="48.70235" lon="1.72424">
        <ele>182.39999389648</ele>
        <time>2013-08-15T10:01:54.000Z</time>
      </trkpt>
      <trkpt lat="48.70233" lon="1.72436">
        <ele>182.39999389648</ele>
        <time>2013-08-15T10:02:01.000Z</time>
      </trkpt>
      <trkpt lat="48.70229" lon="1.72448">
        <ele>182.19999694824</ele>
        <time>2013-08-15T10:02:07.000Z</time>
      </trkpt>
      <trkpt lat="48.70227" lon="1.72453">
        <ele>182.19999694824</ele>
        <time>2013-08-15T10:02:10.000Z</time>
      </trkpt>
      <trkpt lat="48.70223" lon="1.7247">
        <ele>182.19999694824</ele>
        <time>2013-08-15T10:02:18.000Z</time>
      </trkpt>
      <trkpt lat="48.70223" lon="1.72485">
        <ele>181.80000305176</ele>
        <time>2013-08-15T10:02:25.000Z</time>
      </trkpt>
      <trkpt lat="48.70222" lon="1.72494">
        <ele>181.60000610352</ele>
        <time>2013-08-15T10:02:31.000Z</time>
      </trkpt>
      <trkpt lat="48.70216" lon="1.72506">
        <ele>181.80000305176</ele>
        <time>2013-08-15T10:02:36.000Z</time>
      </trkpt>
      <trkpt lat="48.70213" lon="1.72523">
        <ele>181.60000610352</ele>
        <time>2013-08-15T10:02:43.000Z</time>
      </trkpt>
      <trkpt lat="48.7021" lon="1.72541">
        <ele>181.39999389648</ele>
        <time>2013-08-15T10:02:51.000Z</time>
      </trkpt>
      <trkpt lat="48.70206" lon="1.72551">
        <ele>181.39999389648</ele>
        <time>2013-08-15T10:02:56.000Z</time>
      </trkpt>
      <trkpt lat="48.70206" lon="1.7256">
        <ele>181.19999694824</ele>
        <time>2013-08-15T10:03:00.000Z</time>
      </trkpt>
      <trkpt lat="48.70203" lon="1.72575">
        <ele>181</ele>
        <time>2013-08-15T10:03:07.000Z</time>
      </trkpt>
      <trkpt lat="48.70201" lon="1.7259">
        <ele>180.80000305176</ele>
        <time>2013-08-15T10:03:14.000Z</time>
      </trkpt>
      <trkpt lat="48.70199" lon="1.72596">
        <ele>180.80000305176</ele>
        <time>2013-08-15T10:03:18.000Z</time>
      </trkpt>
      <trkpt lat="48.70197" lon="1.72603">
        <ele>180.60000610352</ele>
        <time>2013-08-15T10:03:21.000Z</time>
      </trkpt>
      <trkpt lat="48.70192" lon="1.7262">
        <ele>180.39999389648</ele>
        <time>2013-08-15T10:03:28.000Z</time>
      </trkpt>
      <trkpt lat="48.70188" lon="1.72631">
        <ele>180.19999694824</ele>
        <time>2013-08-15T10:03:32.000Z</time>
      </trkpt>
      <trkpt lat="48.70188" lon="1.72636">
        <ele>180</ele>
        <time>2013-08-15T10:03:34.000Z</time>
      </trkpt>
      <trkpt lat="48.70185" lon="1.72649">
        <ele>179.80000305176</ele>
        <time>2013-08-15T10:03:40.000Z</time>
      </trkpt>
      <trkpt lat="48.70183" lon="1.72663">
        <ele>179.19999694824</ele>
        <time>2013-08-15T10:03:47.000Z</time>
      </trkpt>
      <trkpt lat="48.7018" lon="1.72672">
        <ele>179</ele>
        <time>2013-08-15T10:03:52.000Z</time>
      </trkpt>
      <trkpt lat="48.70177" lon="1.72689">
        <ele>178.60000610352</ele>
        <time>2013-08-15T10:04:00.000Z</time>
      </trkpt>
      <trkpt lat="48.70175" lon="1.72698">
        <ele>178.19999694824</ele>
        <time>2013-08-15T10:04:05.000Z</time>
      </trkpt>
      <trkpt lat="48.70175" lon="1.72702">
        <ele>178</ele>
        <time>2013-08-15T10:04:08.000Z</time>
      </trkpt>
      <trkpt lat="48.70172" lon="1.72711">
        <ele>177.80000305176</ele>
        <time>2013-08-15T10:04:13.000Z</time>
      </trkpt>
      <trkpt lat="48.70166" lon="1.72728">
        <ele>177</ele>
        <time>2013-08-15T10:04:22.000Z</time>
      </trkpt>
      <trkpt lat="48.70164" lon="1.72737">
        <ele>176.60000610352</ele>
        <time>2013-08-15T10:04:28.000Z</time>
      </trkpt>
      <trkpt lat="48.70158" lon="1.7275">
        <ele>176.39999389648</ele>
        <time>2013-08-15T10:04:34.000Z</time>
      </trkpt>
      <trkpt lat="48.70154" lon="1.72763">
        <ele>176.39999389648</ele>
        <time>2013-08-15T10:04:40.000Z</time>
      </trkpt>
      <trkpt lat="48.70149" lon="1.72776">
        <ele>176.39999389648</ele>
        <time>2013-08-15T10:04:47.000Z</time>
      </trkpt>
      <trkpt lat="48.70144" lon="1.72788">
        <ele>176.60000610352</ele>
        <time>2013-08-15T10:04:53.000Z</time>
      </trkpt>
      <trkpt lat="48.70141" lon="1.72798">
        <ele>176.60000610352</ele>
        <time>2013-08-15T10:04:59.000Z</time>
      </trkpt>
      <trkpt lat="48.70139" lon="1.72803">
        <ele>176.80000305176</ele>
        <time>2013-08-15T10:05:02.000Z</time>
      </trkpt>
      <trkpt lat="48.70136" lon="1.72815">
        <ele>176.80000305176</ele>
        <time>2013-08-15T10:05:08.000Z</time>
      </trkpt>
      <trkpt lat="48.70136" lon="1.72817">
        <ele>176.80000305176</ele>
        <time>2013-08-15T10:05:09.000Z</time>
      </trkpt>
      <trkpt lat="48.70135" lon="1.72825">
        <ele>176.80000305176</ele>
        <time>2013-08-15T10:05:14.000Z</time>
      </trkpt>
      <trkpt lat="48.70134" lon="1.72826">
        <ele>176.80000305176</ele>
        <time>2013-08-15T10:05:15.000Z</time>
      </trkpt>
      <trkpt lat="48.70132" lon="1.72833">
        <ele>176.80000305176</ele>
        <time>2013-08-15T10:05:19.000Z</time>
      </trkpt>
      <trkpt lat="48.70126" lon="1.72853">
        <ele>177</ele>
        <time>2013-08-15T10:05:29.000Z</time>
      </trkpt>
      <trkpt lat="48.70121" lon="1.72871">
        <ele>177</ele>
        <time>2013-08-15T10:05:38.000Z</time>
      </trkpt>
      <trkpt lat="48.70113" lon="1.72891">
        <ele>177.19999694824</ele>
        <time>2013-08-15T10:05:49.000Z</time>
      </trkpt>
      <trkpt lat="48.70108" lon="1.72905">
        <ele>177.39999389648</ele>
        <time>2013-08-15T10:05:57.000Z</time>
      </trkpt>
      <trkpt lat="48.70103" lon="1.7292">
        <ele>177.60000610352</ele>
        <time>2013-08-15T10:06:05.000Z</time>
      </trkpt>
      <trkpt lat="48.70103" lon="1.72922">
        <ele>177.60000610352</ele>
        <time>2013-08-15T10:06:06.000Z</time>
      </trkpt>
      <trkpt lat="48.701" lon="1.72933">
        <ele>178</ele>
        <time>2013-08-15T10:06:13.000Z</time>
      </trkpt>
      <trkpt lat="48.70098" lon="1.72939">
        <ele>178.19999694824</ele>
        <time>2013-08-15T10:06:16.000Z</time>
      </trkpt>
      <trkpt lat="48.70096" lon="1.7294">
        <ele>178.39999389648</ele>
        <time>2013-08-15T10:06:21.000Z</time>
      </trkpt>
      <trkpt lat="48.70095" lon="1.7294">
        <ele>178.39999389648</ele>
        <time>2013-08-15T10:06:34.000Z</time>
      </trkpt>
      <trkpt lat="48.70089" lon="1.72953">
        <ele>179</ele>
        <time>2013-08-15T10:06:40.000Z</time>
      </trkpt>
      <trkpt lat="48.70085" lon="1.72967">
        <ele>179.39999389648</ele>
        <time>2013-08-15T10:06:48.000Z</time>
      </trkpt>
      <trkpt lat="48.70079" lon="1.72983">
        <ele>180</ele>
        <time>2013-08-15T10:06:56.000Z</time>
      </trkpt>
      <trkpt lat="48.70077" lon="1.72988">
        <ele>180.39999389648</ele>
        <time>2013-08-15T10:06:58.000Z</time>
      </trkpt>
      <trkpt lat="48.70075" lon="1.73">
        <ele>180.80000305176</ele>
        <time>2013-08-15T10:07:05.000Z</time>
      </trkpt>
      <trkpt lat="48.70073" lon="1.73008">
        <ele>181</ele>
        <time>2013-08-15T10:07:09.000Z</time>
      </trkpt>
      <trkpt lat="48.7007" lon="1.73022">
        <ele>181.60000610352</ele>
        <time>2013-08-15T10:07:17.000Z</time>
      </trkpt>
      <trkpt lat="48.7007" lon="1.73028">
        <ele>181.60000610352</ele>
        <time>2013-08-15T10:07:21.000Z</time>
      </trkpt>
      <trkpt lat="48.70069" lon="1.73034">
        <ele>181.80000305176</ele>
        <time>2013-08-15T10:07:24.000Z</time>
      </trkpt>
      <trkpt lat="48.70067" lon="1.7304">
        <ele>182</ele>
        <time>2013-08-15T10:07:28.000Z</time>
      </trkpt>
      <trkpt lat="48.70062" lon="1.73048">
        <ele>182.60000610352</ele>
        <time>2013-08-15T10:07:34.000Z</time>
      </trkpt>
      <trkpt lat="48.70057" lon="1.73065">
        <ele>183</ele>
        <time>2013-08-15T10:07:44.000Z</time>
      </trkpt>
      <trkpt lat="48.70051" lon="1.73077">
        <ele>183.39999389648</ele>
        <time>2013-08-15T10:07:51.000Z</time>
      </trkpt>
      <trkpt lat="48.70048" lon="1.73081">
        <ele>183.60000610352</ele>
        <time>2013-08-15T10:07:53.000Z</time>
      </trkpt>
      <trkpt lat="48.70044" lon="1.73093">
        <ele>183.39999389648</ele>
        <time>2013-08-15T10:07:59.000Z</time>
      </trkpt>
      <trkpt lat="48.7004" lon="1.73107">
        <ele>183.19999694824</ele>
        <time>2013-08-15T10:08:07.000Z</time>
      </trkpt>
      <trkpt lat="48.70035" lon="1.73125">
        <ele>182.80000305176</ele>
        <time>2013-08-15T10:08:17.000Z</time>
      </trkpt>
      <trkpt lat="48.70035" lon="1.73127">
        <ele>182.80000305176</ele>
        <time>2013-08-15T10:08:18.000Z</time>
      </trkpt>
      <trkpt lat="48.70031" lon="1.7314">
        <ele>182.39999389648</ele>
        <time>2013-08-15T10:08:26.000Z</time>
      </trkpt>
      <trkpt lat="48.70026" lon="1.7315">
        <ele>182.19999694824</ele>
        <time>2013-08-15T10:08:33.000Z</time>
      </trkpt>
      <trkpt lat="48.70022" lon="1.7316">
        <ele>181.80000305176</ele>
        <time>2013-08-15T10:08:39.000Z</time>
      </trkpt>
      <trkpt lat="48.70015" lon="1.73178">
        <ele>181.19999694824</ele>
        <time>2013-08-15T10:08:49.000Z</time>
      </trkpt>
      <trkpt lat="48.70008" lon="1.73192">
        <ele>180.60000610352</ele>
        <time>2013-08-15T10:08:57.000Z</time>
      </trkpt>
      <trkpt lat="48.70006" lon="1.73199">
        <ele>180.39999389648</ele>
        <time>2013-08-15T10:09:04.000Z</time>
      </trkpt>
      <trkpt lat="48.70001" lon="1.73211">
        <ele>179.80000305176</ele>
        <time>2013-08-15T10:09:11.000Z</time>
      </trkpt>
      <trkpt lat="48.69997" lon="1.73217">
        <ele>179.39999389648</ele>
        <time>2013-08-15T10:09:16.000Z</time>
      </trkpt>
      <trkpt lat="48.69992" lon="1.73229">
        <ele>178.60000610352</ele>
        <time>2013-08-15T10:09:23.000Z</time>
      </trkpt>
      <trkpt lat="48.69985" lon="1.73237">
        <ele>178</ele>
        <time>2013-08-15T10:09:29.000Z</time>
      </trkpt>
      <trkpt lat="48.69977" lon="1.73251">
        <ele>177</ele>
        <time>2013-08-15T10:09:37.000Z</time>
      </trkpt>
      <trkpt lat="48.69971" lon="1.73262">
        <ele>177</ele>
        <time>2013-08-15T10:09:43.000Z</time>
      </trkpt>
      <trkpt lat="48.69968" lon="1.7327">
        <ele>177</ele>
        <time>2013-08-15T10:09:47.000Z</time>
      </trkpt>
      <trkpt lat="48.6996" lon="1.73286">
        <ele>177.19999694824</ele>
        <time>2013-08-15T10:09:56.000Z</time>
      </trkpt>
      <trkpt lat="48.69955" lon="1.73299">
        <ele>177.19999694824</ele>
        <time>2013-08-15T10:10:03.000Z</time>
      </trkpt>
      <trkpt lat="48.6995" lon="1.73308">
        <ele>177.19999694824</ele>
        <time>2013-08-15T10:10:08.000Z</time>
      </trkpt>
      <trkpt lat="48.69946" lon="1.73318">
        <ele>177.19999694824</ele>
        <time>2013-08-15T10:10:14.000Z</time>
      </trkpt>
      <trkpt lat="48.6994" lon="1.73331">
        <ele>177.39999389648</ele>
        <time>2013-08-15T10:10:21.000Z</time>
      </trkpt>
      <trkpt lat="48.69933" lon="1.73344">
        <ele>177.39999389648</ele>
        <time>2013-08-15T10:10:28.000Z</time>
      </trkpt>
      <trkpt lat="48.69927" lon="1.73354">
        <ele>177.60000610352</ele>
        <time>2013-08-15T10:10:34.000Z</time>
      </trkpt>
      <trkpt lat="48.69924" lon="1.73361">
        <ele>177.60000610352</ele>
        <time>2013-08-15T10:10:38.000Z</time>
      </trkpt>
      <trkpt lat="48.69917" lon="1.73372">
        <ele>177.80000305176</ele>
        <time>2013-08-15T10:10:45.000Z</time>
      </trkpt>
      <trkpt lat="48.69911" lon="1.73381">
        <ele>178</ele>
        <time>2013-08-15T10:10:51.000Z</time>
      </trkpt>
      <trkpt lat="48.69905" lon="1.73396">
        <ele>178.39999389648</ele>
        <time>2013-08-15T10:10:59.000Z</time>
      </trkpt>
      <trkpt lat="48.699" lon="1.73407">
        <ele>178.60000610352</ele>
        <time>2013-08-15T10:11:05.000Z</time>
      </trkpt>
      <trkpt lat="48.69894" lon="1.73417">
        <ele>178.80000305176</ele>
        <time>2013-08-15T10:11:11.000Z</time>
      </trkpt>
      <trkpt lat="48.69889" lon="1.73428">
        <ele>178.60000610352</ele>
        <time>2013-08-15T10:11:18.000Z</time>
      </trkpt>
      <trkpt lat="48.69881" lon="1.73438">
        <ele>178.39999389648</ele>
        <time>2013-08-15T10:11:24.000Z</time>
      </trkpt>
      <trkpt lat="48.69877" lon="1.73453">
        <ele>178.19999694824</ele>
        <time>2013-08-15T10:11:31.000Z</time>
      </trkpt>
      <trkpt lat="48.69874" lon="1.73464">
        <ele>178</ele>
        <time>2013-08-15T10:11:37.000Z</time>
      </trkpt>
      <trkpt lat="48.6987" lon="1.73475">
        <ele>178</ele>
        <time>2013-08-15T10:11:43.000Z</time>
      </trkpt>
      <trkpt lat="48.69865" lon="1.73482">
        <ele>178</ele>
        <time>2013-08-15T10:11:48.000Z</time>
      </trkpt>
      <trkpt lat="48.69859" lon="1.73494">
        <ele>178</ele>
        <time>2013-08-15T10:11:55.000Z</time>
      </trkpt>
      <trkpt lat="48.69853" lon="1.73503">
        <ele>178.19999694824</ele>
        <time>2013-08-15T10:12:01.000Z</time>
      </trkpt>
      <trkpt lat="48.6985" lon="1.73507">
        <ele>178.19999694824</ele>
        <time>2013-08-15T10:12:03.000Z</time>
      </trkpt>
      <trkpt lat="48.69842" lon="1.73525">
        <ele>178.60000610352</ele>
        <time>2013-08-15T10:12:11.000Z</time>
      </trkpt>
      <trkpt lat="48.69836" lon="1.73538">
        <ele>178.80000305176</ele>
        <time>2013-08-15T10:12:18.000Z</time>
      </trkpt>
      <trkpt lat="48.69834" lon="1.7354">
        <ele>178.80000305176</ele>
        <time>2013-08-15T10:12:20.000Z</time>
      </trkpt>
      <trkpt lat="48.69827" lon="1.7355">
        <ele>179</ele>
        <time>2013-08-15T10:12:27.000Z</time>
      </trkpt>
      <trkpt lat="48.69823" lon="1.73556">
        <ele>179</ele>
        <time>2013-08-15T10:12:31.000Z</time>
      </trkpt>
      <trkpt lat="48.69818" lon="1.73569">
        <ele>179</ele>
        <time>2013-08-15T10:12:38.000Z</time>
      </trkpt>
      <trkpt lat="48.69813" lon="1.73581">
        <ele>179</ele>
        <time>2013-08-15T10:12:45.000Z</time>
      </trkpt>
      <trkpt lat="48.69806" lon="1.73594">
        <ele>179</ele>
        <time>2013-08-15T10:12:51.000Z</time>
      </trkpt>
      <trkpt lat="48.69801" lon="1.73606">
        <ele>179</ele>
        <time>2013-08-15T10:12:59.000Z</time>
      </trkpt>
      <trkpt lat="48.69796" lon="1.73615">
        <ele>179</ele>
        <time>2013-08-15T10:13:06.000Z</time>
      </trkpt>
      <trkpt lat="48.6979" lon="1.73624">
        <ele>179.19999694824</ele>
        <time>2013-08-15T10:13:13.000Z</time>
      </trkpt>
      <trkpt lat="48.69788" lon="1.7363">
        <ele>179.19999694824</ele>
        <time>2013-08-15T10:13:17.000Z</time>
      </trkpt>
      <trkpt lat="48.69782" lon="1.73643">
        <ele>179.39999389648</ele>
        <time>2013-08-15T10:13:25.000Z</time>
      </trkpt>
      <trkpt lat="48.69776" lon="1.73656">
        <ele>179.60000610352</ele>
        <time>2013-08-15T10:13:33.000Z</time>
      </trkpt>
      <trkpt lat="48.69771" lon="1.73664">
        <ele>179.60000610352</ele>
        <time>2013-08-15T10:13:39.000Z</time>
      </trkpt>
      <trkpt lat="48.6977" lon="1.73666">
        <ele>179.60000610352</ele>
        <time>2013-08-15T10:13:40.000Z</time>
      </trkpt>
      <trkpt lat="48.69765" lon="1.73679">
        <ele>179.39999389648</ele>
        <time>2013-08-15T10:13:48.000Z</time>
      </trkpt>
      <trkpt lat="48.69761" lon="1.73691">
        <ele>179</ele>
        <time>2013-08-15T10:13:55.000Z</time>
      </trkpt>
      <trkpt lat="48.69755" lon="1.73702">
        <ele>178.60000610352</ele>
        <time>2013-08-15T10:14:02.000Z</time>
      </trkpt>
      <trkpt lat="48.6975" lon="1.73709">
        <ele>178.39999389648</ele>
        <time>2013-08-15T10:14:06.000Z</time>
      </trkpt>
      <trkpt lat="48.69748" lon="1.73715">
        <ele>178.19999694824</ele>
        <time>2013-08-15T10:14:09.000Z</time>
      </trkpt>
      <trkpt lat="48.69743" lon="1.73728">
        <ele>177.80000305176</ele>
        <time>2013-08-15T10:14:18.000Z</time>
      </trkpt>
      <trkpt lat="48.69742" lon="1.7373">
        <ele>177.80000305176</ele>
        <time>2013-08-15T10:14:19.000Z</time>
      </trkpt>
      <trkpt lat="48.69741" lon="1.73735">
        <ele>177.60000610352</ele>
        <time>2013-08-15T10:14:22.000Z</time>
      </trkpt>
      <trkpt lat="48.69734" lon="1.73749">
        <ele>177.39999389648</ele>
        <time>2013-08-15T10:14:31.000Z</time>
      </trkpt>
      <trkpt lat="48.69734" lon="1.7375">
        <ele>177.19999694824</ele>
        <time>2013-08-15T10:14:32.000Z</time>
      </trkpt>
      <trkpt lat="48.69727" lon="1.73762">
        <ele>177.19999694824</ele>
        <time>2013-08-15T10:14:41.000Z</time>
      </trkpt>
      <trkpt lat="48.69726" lon="1.73766">
        <ele>177.19999694824</ele>
        <time>2013-08-15T10:14:43.000Z</time>
      </trkpt>
      <trkpt lat="48.69719" lon="1.73778">
        <ele>177</ele>
        <time>2013-08-15T10:14:50.000Z</time>
      </trkpt>
      <trkpt lat="48.69715" lon="1.73787">
        <ele>177</ele>
        <time>2013-08-15T10:14:55.000Z</time>
      </trkpt>
      <trkpt lat="48.6971" lon="1.73796">
        <ele>177</ele>
        <time>2013-08-15T10:15:01.000Z</time>
      </trkpt>
      <trkpt lat="48.69709" lon="1.73799">
        <ele>177</ele>
        <time>2013-08-15T10:15:03.000Z</time>
      </trkpt>
      <trkpt lat="48.69703" lon="1.73806">
        <ele>177</ele>
        <time>2013-08-15T10:15:10.000Z</time>
      </trkpt>
      <trkpt lat="48.69699" lon="1.73812">
        <ele>177</ele>
        <time>2013-08-15T10:15:13.000Z</time>
      </trkpt>
      <trkpt lat="48.69696" lon="1.7382">
        <ele>177</ele>
        <time>2013-08-15T10:15:17.000Z</time>
      </trkpt>
      <trkpt lat="48.69691" lon="1.73831">
        <ele>177</ele>
        <time>2013-08-15T10:15:24.000Z</time>
      </trkpt>
      <trkpt lat="48.69689" lon="1.73834">
        <ele>177</ele>
        <time>2013-08-15T10:15:26.000Z</time>
      </trkpt>
      <trkpt lat="48.69684" lon="1.73844">
        <ele>177</ele>
        <time>2013-08-15T10:15:33.000Z</time>
      </trkpt>
      <trkpt lat="48.6968" lon="1.73856">
        <ele>177</ele>
        <time>2013-08-15T10:15:40.000Z</time>
      </trkpt>
      <trkpt lat="48.69676" lon="1.73865">
        <ele>176.80000305176</ele>
        <time>2013-08-15T10:15:46.000Z</time>
      </trkpt>
      <trkpt lat="48.69672" lon="1.73872">
        <ele>176.80000305176</ele>
        <time>2013-08-15T10:15:50.000Z</time>
      </trkpt>
      <trkpt lat="48.69663" lon="1.73888">
        <ele>176.80000305176</ele>
        <time>2013-08-15T10:15:59.000Z</time>
      </trkpt>
      <trkpt lat="48.69654" lon="1.73905">
        <ele>177</ele>
        <time>2013-08-15T10:16:09.000Z</time>
      </trkpt>
      <trkpt lat="48.69647" lon="1.73918">
        <ele>177.39999389648</ele>
        <time>2013-08-15T10:16:17.000Z</time>
      </trkpt>
      <trkpt lat="48.69638" lon="1.73933">
        <ele>177.60000610352</ele>
        <time>2013-08-15T10:16:25.000Z</time>
      </trkpt>
      <trkpt lat="48.69633" lon="1.73944">
        <ele>177.60000610352</ele>
        <time>2013-08-15T10:16:32.000Z</time>
      </trkpt>
      <trkpt lat="48.69629" lon="1.73957">
        <ele>177.60000610352</ele>
        <time>2013-08-15T10:16:39.000Z</time>
      </trkpt>
      <trkpt lat="48.69623" lon="1.73969">
        <ele>177.80000305176</ele>
        <time>2013-08-15T10:16:47.000Z</time>
      </trkpt>
      <trkpt lat="48.6962" lon="1.7398">
        <ele>177.80000305176</ele>
        <time>2013-08-15T10:16:53.000Z</time>
      </trkpt>
      <trkpt lat="48.69619" lon="1.73989">
        <ele>177.60000610352</ele>
        <time>2013-08-15T10:16:57.000Z</time>
      </trkpt>
      <trkpt lat="48.6962" lon="1.73996">
        <ele>177.39999389648</ele>
        <time>2013-08-15T10:17:00.000Z</time>
      </trkpt>
      <trkpt lat="48.69622" lon="1.74">
        <ele>177.19999694824</ele>
        <time>2013-08-15T10:17:02.000Z</time>
      </trkpt>
      <trkpt lat="48.69625" lon="1.74014">
        <ele>176.60000610352</ele>
        <time>2013-08-15T10:17:09.000Z</time>
      </trkpt>
      <trkpt lat="48.69625" lon="1.74018">
        <ele>176.39999389648</ele>
        <time>2013-08-15T10:17:11.000Z</time>
      </trkpt>
      <trkpt lat="48.69626" lon="1.74033">
        <ele>176</ele>
        <time>2013-08-15T10:17:19.000Z</time>
      </trkpt>
      <trkpt lat="48.69626" lon="1.74034">
        <ele>176</ele>
        <time>2013-08-15T10:17:20.000Z</time>
      </trkpt>
      <trkpt lat="48.6963" lon="1.74046">
        <ele>175.39999389648</ele>
        <time>2013-08-15T10:17:26.000Z</time>
      </trkpt>
      <trkpt lat="48.69633" lon="1.74062">
        <ele>174.80000305176</ele>
        <time>2013-08-15T10:17:34.000Z</time>
      </trkpt>
      <trkpt lat="48.69635" lon="1.74069">
        <ele>174.60000610352</ele>
        <time>2013-08-15T10:17:38.000Z</time>
      </trkpt>
      <trkpt lat="48.69639" lon="1.74077">
        <ele>174</ele>
        <time>2013-08-15T10:17:43.000Z</time>
      </trkpt>
      <trkpt lat="48.69643" lon="1.74086">
        <ele>173.60000610352</ele>
        <time>2013-08-15T10:17:49.000Z</time>
      </trkpt>
      <trkpt lat="48.69646" lon="1.74096">
        <ele>173.19999694824</ele>
        <time>2013-08-15T10:17:54.000Z</time>
      </trkpt>
      <trkpt lat="48.6965" lon="1.74116">
        <ele>172.60000610352</ele>
        <time>2013-08-15T10:18:04.000Z</time>
      </trkpt>
      <trkpt lat="48.69654" lon="1.74131">
        <ele>172.19999694824</ele>
        <time>2013-08-15T10:18:11.000Z</time>
      </trkpt>
      <trkpt lat="48.69655" lon="1.74134">
        <ele>172.19999694824</ele>
        <time>2013-08-15T10:18:15.000Z</time>
      </trkpt>
      <trkpt lat="48.69656" lon="1.74142">
        <ele>172</ele>
        <time>2013-08-15T10:18:25.000Z</time>
      </trkpt>
      <trkpt lat="48.69657" lon="1.74154">
        <ele>171.80000305176</ele>
        <time>2013-08-15T10:18:30.000Z</time>
      </trkpt>
      <trkpt lat="48.69659" lon="1.74169">
        <ele>171.39999389648</ele>
        <time>2013-08-15T10:18:37.000Z</time>
      </trkpt>
      <trkpt lat="48.69659" lon="1.74182">
        <ele>171.39999389648</ele>
        <time>2013-08-15T10:18:43.000Z</time>
      </trkpt>
      <trkpt lat="48.6966" lon="1.74188">
        <ele>171.39999389648</ele>
        <time>2013-08-15T10:18:45.000Z</time>
      </trkpt>
      <trkpt lat="48.69668" lon="1.74201">
        <ele>170.80000305176</ele>
        <time>2013-08-15T10:18:52.000Z</time>
      </trkpt>
      <trkpt lat="48.69671" lon="1.74213">
        <ele>170.80000305176</ele>
        <time>2013-08-15T10:18:58.000Z</time>
      </trkpt>
      <trkpt lat="48.69673" lon="1.74226">
        <ele>170.80000305176</ele>
        <time>2013-08-15T10:19:04.000Z</time>
      </trkpt>
      <trkpt lat="48.69675" lon="1.74238">
        <ele>170.60000610352</ele>
        <time>2013-08-15T10:19:10.000Z</time>
      </trkpt>
      <trkpt lat="48.69679" lon="1.74254">
        <ele>170.60000610352</ele>
        <time>2013-08-15T10:19:17.000Z</time>
      </trkpt>
      <trkpt lat="48.69683" lon="1.74269">
        <ele>170.19999694824</ele>
        <time>2013-08-15T10:19:24.000Z</time>
      </trkpt>
      <trkpt lat="48.69684" lon="1.74274">
        <ele>170.19999694824</ele>
        <time>2013-08-15T10:19:26.000Z</time>
      </trkpt>
      <trkpt lat="48.69684" lon="1.74279">
        <ele>170</ele>
        <time>2013-08-15T10:19:28.000Z</time>
      </trkpt>
      <trkpt lat="48.69689" lon="1.74288">
        <ele>169.80000305176</ele>
        <time>2013-08-15T10:19:33.000Z</time>
      </trkpt>
      <trkpt lat="48.69692" lon="1.74298">
        <ele>169.60000610352</ele>
        <time>2013-08-15T10:19:38.000Z</time>
      </trkpt>
      <trkpt lat="48.69696" lon="1.74318">
        <ele>169</ele>
        <time>2013-08-15T10:19:46.000Z</time>
      </trkpt>
      <trkpt lat="48.69698" lon="1.74331">
        <ele>168.80000305176</ele>
        <time>2013-08-15T10:19:52.000Z</time>
      </trkpt>
      <trkpt lat="48.69699" lon="1.74335">
        <ele>168.60000610352</ele>
        <time>2013-08-15T10:19:54.000Z</time>
      </trkpt>
      <trkpt lat="48.697" lon="1.74354">
        <ele>168.19999694824</ele>
        <time>2013-08-15T10:20:03.000Z</time>
      </trkpt>
      <trkpt lat="48.69705" lon="1.74371">
        <ele>167.60000610352</ele>
        <time>2013-08-15T10:20:11.000Z</time>
      </trkpt>
      <trkpt lat="48.69709" lon="1.74379">
        <ele>167.19999694824</ele>
        <time>2013-08-15T10:20:15.000Z</time>
      </trkpt>
      <trkpt lat="48.69712" lon="1.74386">
        <ele>167</ele>
        <time>2013-08-15T10:20:19.000Z</time>
      </trkpt>
      <trkpt lat="48.69714" lon="1.74391">
        <ele>166.80000305176</ele>
        <time>2013-08-15T10:20:22.000Z</time>
      </trkpt>
      <trkpt lat="48.69715" lon="1.74399">
        <ele>166.60000610352</ele>
        <time>2013-08-15T10:20:31.000Z</time>
      </trkpt>
      <trkpt lat="48.69716" lon="1.744">
        <ele>166.60000610352</ele>
        <time>2013-08-15T10:20:34.000Z</time>
      </trkpt>
      <trkpt lat="48.69718" lon="1.74419">
        <ele>166</ele>
        <time>2013-08-15T10:21:03.000Z</time>
      </trkpt>
      <trkpt lat="48.6972" lon="1.7443">
        <ele>165.60000610352</ele>
        <time>2013-08-15T10:21:07.000Z</time>
      </trkpt>
      <trkpt lat="48.6972" lon="1.74432">
        <ele>165.39999389648</ele>
        <time>2013-08-15T10:21:08.000Z</time>
      </trkpt>
      <trkpt lat="48.69726" lon="1.74449">
        <ele>164.80000305176</ele>
        <time>2013-08-15T10:21:16.000Z</time>
      </trkpt>
      <trkpt lat="48.69731" lon="1.7446">
        <ele>164.19999694824</ele>
        <time>2013-08-15T10:21:21.000Z</time>
      </trkpt>
      <trkpt lat="48.69733" lon="1.74472">
        <ele>164</ele>
        <time>2013-08-15T10:21:27.000Z</time>
      </trkpt>
      <trkpt lat="48.69735" lon="1.74481">
        <ele>163.60000610352</ele>
        <time>2013-08-15T10:21:31.000Z</time>
      </trkpt>
      <trkpt lat="48.69738" lon="1.74495">
        <ele>163.19999694824</ele>
        <time>2013-08-15T10:21:37.000Z</time>
      </trkpt>
      <trkpt lat="48.69739" lon="1.74497">
        <ele>163.19999694824</ele>
        <time>2013-08-15T10:21:38.000Z</time>
      </trkpt>
      <trkpt lat="48.69743" lon="1.7451">
        <ele>162.80000305176</ele>
        <time>2013-08-15T10:21:44.000Z</time>
      </trkpt>
      <trkpt lat="48.69745" lon="1.74518">
        <ele>162.60000610352</ele>
        <time>2013-08-15T10:21:48.000Z</time>
      </trkpt>
      <trkpt lat="48.69748" lon="1.74529">
        <ele>162.19999694824</ele>
        <time>2013-08-15T10:21:53.000Z</time>
      </trkpt>
      <trkpt lat="48.6975" lon="1.74535">
        <ele>162</ele>
        <time>2013-08-15T10:21:57.000Z</time>
      </trkpt>
      <trkpt lat="48.69751" lon="1.7455">
        <ele>161.80000305176</ele>
        <time>2013-08-15T10:22:04.000Z</time>
      </trkpt>
      <trkpt lat="48.69754" lon="1.74563">
        <ele>161.39999389648</ele>
        <time>2013-08-15T10:22:11.000Z</time>
      </trkpt>
      <trkpt lat="48.69755" lon="1.74574">
        <ele>161.19999694824</ele>
        <time>2013-08-15T10:22:16.000Z</time>
      </trkpt>
      <trkpt lat="48.69758" lon="1.74589">
        <ele>161.39999389648</ele>
        <time>2013-08-15T10:22:20.000Z</time>
      </trkpt>
      <trkpt lat="48.69759" lon="1.74594">
        <ele>161.60000610352</ele>
        <time>2013-08-15T10:22:21.000Z</time>
      </trkpt>
      <trkpt lat="48.69763" lon="1.74619">
        <ele>162.60000610352</ele>
        <time>2013-08-15T10:22:25.000Z</time>
      </trkpt>
      <trkpt lat="48.69768" lon="1.74642">
        <ele>163.80000305176</ele>
        <time>2013-08-15T10:22:29.000Z</time>
      </trkpt>
      <trkpt lat="48.6977" lon="1.74657">
        <ele>164.39999389648</ele>
        <time>2013-08-15T10:22:31.000Z</time>
      </trkpt>
      <trkpt lat="48.69776" lon="1.74705">
        <ele>166</ele>
        <time>2013-08-15T10:22:37.000Z</time>
      </trkpt>
      <trkpt lat="48.69779" lon="1.74721">
        <ele>166.60000610352</ele>
        <time>2013-08-15T10:22:39.000Z</time>
      </trkpt>
      <trkpt lat="48.69787" lon="1.74748">
        <ele>168.39999389648</ele>
        <time>2013-08-15T10:22:43.000Z</time>
      </trkpt>
      <trkpt lat="48.69797" lon="1.74791">
        <ele>168.80000305176</ele>
        <time>2013-08-15T10:22:48.000Z</time>
      </trkpt>
      <trkpt lat="48.69804" lon="1.74819">
        <ele>169</ele>
        <time>2013-08-15T10:22:51.000Z</time>
      </trkpt>
      <trkpt lat="48.69819" lon="1.74861">
        <ele>168.80000305176</ele>
        <time>2013-08-15T10:22:56.000Z</time>
      </trkpt>
      <trkpt lat="48.69831" lon="1.74872">
        <ele>169</ele>
        <time>2013-08-15T10:23:00.000Z</time>
      </trkpt>
      <trkpt lat="48.69835" lon="1.74871">
        <ele>169.19999694824</ele>
        <time>2013-08-15T10:23:01.000Z</time>
      </trkpt>
      <trkpt lat="48.6986" lon="1.7486">
        <ele>170</ele>
        <time>2013-08-15T10:23:08.000Z</time>
      </trkpt>
      <trkpt lat="48.69879" lon="1.7485">
        <ele>170.19999694824</ele>
        <time>2013-08-15T10:23:13.000Z</time>
      </trkpt>
      <trkpt lat="48.699" lon="1.74839">
        <ele>170.19999694824</ele>
        <time>2013-08-15T10:23:19.000Z</time>
      </trkpt>
      <trkpt lat="48.69921" lon="1.74826">
        <ele>170</ele>
        <time>2013-08-15T10:23:25.000Z</time>
      </trkpt>
      <trkpt lat="48.69932" lon="1.74823">
        <ele>170.19999694824</ele>
        <time>2013-08-15T10:23:30.000Z</time>
      </trkpt>
      <trkpt lat="48.69946" lon="1.74819">
        <ele>170.19999694824</ele>
        <time>2013-08-15T10:23:39.000Z</time>
      </trkpt>
      <trkpt lat="48.69951" lon="1.74818">
        <ele>170.39999389648</ele>
        <time>2013-08-15T10:23:43.000Z</time>
      </trkpt>
      <trkpt lat="48.69961" lon="1.74815">
        <ele>170.19999694824</ele>
        <time>2013-08-15T10:23:49.000Z</time>
      </trkpt>
      <trkpt lat="48.69975" lon="1.74808">
        <ele>170.19999694824</ele>
        <time>2013-08-15T10:23:58.000Z</time>
      </trkpt>
      <trkpt lat="48.69985" lon="1.74802">
        <ele>170</ele>
        <time>2013-08-15T10:24:05.000Z</time>
      </trkpt>
      <trkpt lat="48.69999" lon="1.74798">
        <ele>169.60000610352</ele>
        <time>2013-08-15T10:24:14.000Z</time>
      </trkpt>
      <trkpt lat="48.70011" lon="1.74792">
        <ele>170</ele>
        <time>2013-08-15T10:24:22.000Z</time>
      </trkpt>
      <trkpt lat="48.70022" lon="1.74784">
        <ele>170.39999389648</ele>
        <time>2013-08-15T10:24:30.000Z</time>
      </trkpt>
      <trkpt lat="48.70028" lon="1.74781">
        <ele>170.60000610352</ele>
        <time>2013-08-15T10:24:35.000Z</time>
      </trkpt>
      <trkpt lat="48.70036" lon="1.74773">
        <ele>171</ele>
        <time>2013-08-15T10:24:41.000Z</time>
      </trkpt>
      <trkpt lat="48.70044" lon="1.74773">
        <ele>171.39999389648</ele>
        <time>2013-08-15T10:24:46.000Z</time>
      </trkpt>
      <trkpt lat="48.70051" lon="1.74774">
        <ele>171.80000305176</ele>
        <time>2013-08-15T10:24:52.000Z</time>
      </trkpt>
      <trkpt lat="48.70057" lon="1.74767">
        <ele>172.19999694824</ele>
        <time>2013-08-15T10:24:58.000Z</time>
      </trkpt>
      <trkpt lat="48.70064" lon="1.74765">
        <ele>172.60000610352</ele>
        <time>2013-08-15T10:25:04.000Z</time>
      </trkpt>
      <trkpt lat="48.70072" lon="1.74765">
        <ele>173.19999694824</ele>
        <time>2013-08-15T10:25:10.000Z</time>
      </trkpt>
      <trkpt lat="48.7008" lon="1.74761">
        <ele>173.60000610352</ele>
        <time>2013-08-15T10:25:16.000Z</time>
      </trkpt>
      <trkpt lat="48.70083" lon="1.74759">
        <ele>173.80000305176</ele>
        <time>2013-08-15T10:25:18.000Z</time>
      </trkpt>
      <trkpt lat="48.70091" lon="1.74755">
        <ele>174.19999694824</ele>
        <time>2013-08-15T10:25:25.000Z</time>
      </trkpt>
      <trkpt lat="48.70094" lon="1.74753">
        <ele>174.19999694824</ele>
        <time>2013-08-15T10:25:27.000Z</time>
      </trkpt>
      <trkpt lat="48.70097" lon="1.74752">
        <ele>174.39999389648</ele>
        <time>2013-08-15T10:25:29.000Z</time>
      </trkpt>
      <trkpt lat="48.70106" lon="1.74748">
        <ele>174.60000610352</ele>
        <time>2013-08-15T10:25:36.000Z</time>
      </trkpt>
      <trkpt lat="48.70113" lon="1.74741">
        <ele>174.80000305176</ele>
        <time>2013-08-15T10:25:42.000Z</time>
      </trkpt>
      <trkpt lat="48.70122" lon="1.74732">
        <ele>174.80000305176</ele>
        <time>2013-08-15T10:25:50.000Z</time>
      </trkpt>
      <trkpt lat="48.70128" lon="1.74727">
        <ele>174.80000305176</ele>
        <time>2013-08-15T10:25:55.000Z</time>
      </trkpt>
      <trkpt lat="48.70129" lon="1.74726">
        <ele>174.80000305176</ele>
        <time>2013-08-15T10:25:56.000Z</time>
      </trkpt>
      <trkpt lat="48.70139" lon="1.74718">
        <ele>174.80000305176</ele>
        <time>2013-08-15T10:26:03.000Z</time>
      </trkpt>
      <trkpt lat="48.7014" lon="1.74717">
        <ele>174.80000305176</ele>
        <time>2013-08-15T10:26:04.000Z</time>
      </trkpt>
      <trkpt lat="48.70147" lon="1.74711">
        <ele>174.60000610352</ele>
        <time>2013-08-15T10:26:10.000Z</time>
      </trkpt>
      <trkpt lat="48.70156" lon="1.74707">
        <ele>174.60000610352</ele>
        <time>2013-08-15T10:26:16.000Z</time>
      </trkpt>
      <trkpt lat="48.7016" lon="1.74706">
        <ele>174.60000610352</ele>
        <time>2013-08-15T10:26:19.000Z</time>
      </trkpt>
      <trkpt lat="48.7017" lon="1.74705">
        <ele>174.60000610352</ele>
        <time>2013-08-15T10:26:26.000Z</time>
      </trkpt>
      <trkpt lat="48.70183" lon="1.74709">
        <ele>173.80000305176</ele>
        <time>2013-08-15T10:26:36.000Z</time>
      </trkpt>
      <trkpt lat="48.70192" lon="1.74706">
        <ele>173.19999694824</ele>
        <time>2013-08-15T10:26:43.000Z</time>
      </trkpt>
      <trkpt lat="48.70193" lon="1.74705">
        <ele>173</ele>
        <time>2013-08-15T10:26:44.000Z</time>
      </trkpt>
      <trkpt lat="48.70202" lon="1.74702">
        <ele>172.19999694824</ele>
        <time>2013-08-15T10:26:51.000Z</time>
      </trkpt>
      <trkpt lat="48.70213" lon="1.74696">
        <ele>171.39999389648</ele>
        <time>2013-08-15T10:26:58.000Z</time>
      </trkpt>
      <trkpt lat="48.70223" lon="1.74689">
        <ele>170.39999389648</ele>
        <time>2013-08-15T10:27:05.000Z</time>
      </trkpt>
      <trkpt lat="48.7023" lon="1.74684">
        <ele>169.80000305176</ele>
        <time>2013-08-15T10:27:10.000Z</time>
      </trkpt>
      <trkpt lat="48.70236" lon="1.7468">
        <ele>169.19999694824</ele>
        <time>2013-08-15T10:27:14.000Z</time>
      </trkpt>
      <trkpt lat="48.70246" lon="1.74675">
        <ele>168.39999389648</ele>
        <time>2013-08-15T10:27:21.000Z</time>
      </trkpt>
      <trkpt lat="48.70256" lon="1.74672">
        <ele>168.19999694824</ele>
        <time>2013-08-15T10:27:28.000Z</time>
      </trkpt>
      <trkpt lat="48.70257" lon="1.74672">
        <ele>168.19999694824</ele>
        <time>2013-08-15T10:27:29.000Z</time>
      </trkpt>
      <trkpt lat="48.70266" lon="1.7467">
        <ele>168.19999694824</ele>
        <time>2013-08-15T10:27:35.000Z</time>
      </trkpt>
      <trkpt lat="48.7027" lon="1.74669">
        <ele>168.19999694824</ele>
        <time>2013-08-15T10:27:37.000Z</time>
      </trkpt>
      <trkpt lat="48.70279" lon="1.74666">
        <ele>168.19999694824</ele>
        <time>2013-08-15T10:27:44.000Z</time>
      </trkpt>
      <trkpt lat="48.70288" lon="1.74662">
        <ele>168.39999389648</ele>
        <time>2013-08-15T10:27:50.000Z</time>
      </trkpt>
      <trkpt lat="48.70297" lon="1.74658">
        <ele>168.80000305176</ele>
        <time>2013-08-15T10:27:57.000Z</time>
      </trkpt>
      <trkpt lat="48.70307" lon="1.74655">
        <ele>169</ele>
        <time>2013-08-15T10:28:05.000Z</time>
      </trkpt>
      <trkpt lat="48.70316" lon="1.7465">
        <ele>169.39999389648</ele>
        <time>2013-08-15T10:28:11.000Z</time>
      </trkpt>
      <trkpt lat="48.70324" lon="1.74647">
        <ele>169.60000610352</ele>
        <time>2013-08-15T10:28:17.000Z</time>
      </trkpt>
      <trkpt lat="48.7033" lon="1.74642">
        <ele>170</ele>
        <time>2013-08-15T10:28:22.000Z</time>
      </trkpt>
      <trkpt lat="48.70341" lon="1.74637">
        <ele>171</ele>
        <time>2013-08-15T10:28:30.000Z</time>
      </trkpt>
      <trkpt lat="48.70349" lon="1.74634">
        <ele>171.80000305176</ele>
        <time>2013-08-15T10:28:37.000Z</time>
      </trkpt>
      <trkpt lat="48.70363" lon="1.74628">
        <ele>173.19999694824</ele>
        <time>2013-08-15T10:28:47.000Z</time>
      </trkpt>
      <trkpt lat="48.70371" lon="1.74623">
        <ele>173.80000305176</ele>
        <time>2013-08-15T10:28:53.000Z</time>
      </trkpt>
      <trkpt lat="48.70373" lon="1.74622">
        <ele>174.19999694824</ele>
        <time>2013-08-15T10:28:55.000Z</time>
      </trkpt>
      <trkpt lat="48.7038" lon="1.74619">
        <ele>174.60000610352</ele>
        <time>2013-08-15T10:29:01.000Z</time>
      </trkpt>
      <trkpt lat="48.70385" lon="1.74616">
        <ele>175.19999694824</ele>
        <time>2013-08-15T10:29:05.000Z</time>
      </trkpt>
      <trkpt lat="48.70394" lon="1.74609">
        <ele>176</ele>
        <time>2013-08-15T10:29:13.000Z</time>
      </trkpt>
      <trkpt lat="48.70399" lon="1.74606">
        <ele>176.39999389648</ele>
        <time>2013-08-15T10:29:17.000Z</time>
      </trkpt>
      <trkpt lat="48.70406" lon="1.74601">
        <ele>177</ele>
        <time>2013-08-15T10:29:23.000Z</time>
      </trkpt>
      <trkpt lat="48.70411" lon="1.74599">
        <ele>177.39999389648</ele>
        <time>2013-08-15T10:29:27.000Z</time>
      </trkpt>
      <trkpt lat="48.70419" lon="1.74595">
        <ele>177.80000305176</ele>
        <time>2013-08-15T10:29:33.000Z</time>
      </trkpt>
      <trkpt lat="48.70422" lon="1.74596">
        <ele>178</ele>
        <time>2013-08-15T10:29:36.000Z</time>
      </trkpt>
      <trkpt lat="48.70433" lon="1.74592">
        <ele>178.60000610352</ele>
        <time>2013-08-15T10:29:44.000Z</time>
      </trkpt>
      <trkpt lat="48.70439" lon="1.74587">
        <ele>179</ele>
        <time>2013-08-15T10:29:49.000Z</time>
      </trkpt>
      <trkpt lat="48.70446" lon="1.74584">
        <ele>179.39999389648</ele>
        <time>2013-08-15T10:29:55.000Z</time>
      </trkpt>
      <trkpt lat="48.70453" lon="1.7458">
        <ele>179.60000610352</ele>
        <time>2013-08-15T10:30:01.000Z</time>
      </trkpt>
      <trkpt lat="48.70459" lon="1.74573">
        <ele>180</ele>
        <time>2013-08-15T10:30:06.000Z</time>
      </trkpt>
      <trkpt lat="48.70463" lon="1.7457">
        <ele>180.19999694824</ele>
        <time>2013-08-15T10:30:10.000Z</time>
      </trkpt>
      <trkpt lat="48.7047" lon="1.7457">
        <ele>180.39999389648</ele>
        <time>2013-08-15T10:30:15.000Z</time>
      </trkpt>
      <trkpt lat="48.70479" lon="1.74566">
        <ele>180.80000305176</ele>
        <time>2013-08-15T10:30:22.000Z</time>
      </trkpt>
      <trkpt lat="48.70486" lon="1.74564">
        <ele>181.19999694824</ele>
        <time>2013-08-15T10:30:27.000Z</time>
      </trkpt>
      <trkpt lat="48.70488" lon="1.74565">
        <ele>181.39999389648</ele>
        <time>2013-08-15T10:30:30.000Z</time>
      </trkpt>
      <trkpt lat="48.70489" lon="1.74566">
        <ele>181.39999389648</ele>
        <time>2013-08-15T10:30:34.000Z</time>
      </trkpt>
      <trkpt lat="48.70506" lon="1.74554">
        <ele>182</ele>
        <time>2013-08-15T10:30:58.000Z</time>
      </trkpt>
      <trkpt lat="48.70513" lon="1.74553">
        <ele>182.19999694824</ele>
        <time>2013-08-15T10:31:02.000Z</time>
      </trkpt>
      <trkpt lat="48.70521" lon="1.74551">
        <ele>182.60000610352</ele>
        <time>2013-08-15T10:31:08.000Z</time>
      </trkpt>
      <trkpt lat="48.70529" lon="1.74549">
        <ele>182.80000305176</ele>
        <time>2013-08-15T10:31:14.000Z</time>
      </trkpt>
      <trkpt lat="48.70537" lon="1.74546">
        <ele>183</ele>
        <time>2013-08-15T10:31:21.000Z</time>
      </trkpt>
      <trkpt lat="48.70546" lon="1.74541">
        <ele>183.19999694824</ele>
        <time>2013-08-15T10:31:27.000Z</time>
      </trkpt>
      <trkpt lat="48.7055" lon="1.74539">
        <ele>183.39999389648</ele>
        <time>2013-08-15T10:31:31.000Z</time>
      </trkpt>
      <trkpt lat="48.70556" lon="1.74537">
        <ele>183.60000610352</ele>
        <time>2013-08-15T10:31:37.000Z</time>
      </trkpt>
      <trkpt lat="48.70564" lon="1.74531">
        <ele>184</ele>
        <time>2013-08-15T10:31:43.000Z</time>
      </trkpt>
      <trkpt lat="48.70568" lon="1.74527">
        <ele>184</ele>
        <time>2013-08-15T10:31:45.000Z</time>
      </trkpt>
      <trkpt lat="48.70578" lon="1.74524">
        <ele>184.39999389648</ele>
        <time>2013-08-15T10:31:52.000Z</time>
      </trkpt>
      <trkpt lat="48.70586" lon="1.74521">
        <ele>184.60000610352</ele>
        <time>2013-08-15T10:31:58.000Z</time>
      </trkpt>
      <trkpt lat="48.70591" lon="1.74516">
        <ele>184.19999694824</ele>
        <time>2013-08-15T10:32:03.000Z</time>
      </trkpt>
      <trkpt lat="48.70599" lon="1.74513">
        <ele>183.80000305176</ele>
        <time>2013-08-15T10:32:10.000Z</time>
      </trkpt>
      <trkpt lat="48.70605" lon="1.74508">
        <ele>183.60000610352</ele>
        <time>2013-08-15T10:32:15.000Z</time>
      </trkpt>
      <trkpt lat="48.70608" lon="1.74508">
        <ele>183.39999389648</ele>
        <time>2013-08-15T10:32:17.000Z</time>
      </trkpt>
      <trkpt lat="48.7062" lon="1.74502">
        <ele>182.60000610352</ele>
        <time>2013-08-15T10:32:26.000Z</time>
      </trkpt>
      <trkpt lat="48.70627" lon="1.745">
        <ele>182.19999694824</ele>
        <time>2013-08-15T10:32:31.000Z</time>
      </trkpt>
      <trkpt lat="48.70635" lon="1.74492">
        <ele>181.80000305176</ele>
        <time>2013-08-15T10:32:38.000Z</time>
      </trkpt>
      <trkpt lat="48.70644" lon="1.7449">
        <ele>181.39999389648</ele>
        <time>2013-08-15T10:32:44.000Z</time>
      </trkpt>
      <trkpt lat="48.70652" lon="1.74488">
        <ele>180.80000305176</ele>
        <time>2013-08-15T10:32:51.000Z</time>
      </trkpt>
      <trkpt lat="48.70661" lon="1.74484">
        <ele>180.39999389648</ele>
        <time>2013-08-15T10:32:58.000Z</time>
      </trkpt>
      <trkpt lat="48.70671" lon="1.74481">
        <ele>180</ele>
        <time>2013-08-15T10:33:04.000Z</time>
      </trkpt>
      <trkpt lat="48.70681" lon="1.74476">
        <ele>179.60000610352</ele>
        <time>2013-08-15T10:33:12.000Z</time>
      </trkpt>
      <trkpt lat="48.70694" lon="1.7447">
        <ele>179.19999694824</ele>
        <time>2013-08-15T10:33:22.000Z</time>
      </trkpt>
      <trkpt lat="48.70706" lon="1.74466">
        <ele>179</ele>
        <time>2013-08-15T10:33:30.000Z</time>
      </trkpt>
      <trkpt lat="48.70715" lon="1.74465">
        <ele>178.60000610352</ele>
        <time>2013-08-15T10:33:36.000Z</time>
      </trkpt>
      <trkpt lat="48.70725" lon="1.74471">
        <ele>178.19999694824</ele>
        <time>2013-08-15T10:33:43.000Z</time>
      </trkpt>
      <trkpt lat="48.70726" lon="1.74471">
        <ele>178</ele>
        <time>2013-08-15T10:33:46.000Z</time>
      </trkpt>
      <trkpt lat="48.70751" lon="1.74489">
        <ele>177</ele>
        <time>2013-08-15T10:35:15.000Z</time>
      </trkpt>
      <trkpt lat="48.70759" lon="1.74499">
        <ele>176.80000305176</ele>
        <time>2013-08-15T10:35:21.000Z</time>
      </trkpt>
      <trkpt lat="48.70766" lon="1.74509">
        <ele>176.80000305176</ele>
        <time>2013-08-15T10:35:27.000Z</time>
      </trkpt>
      <trkpt lat="48.70776" lon="1.74524">
        <ele>176.60000610352</ele>
        <time>2013-08-15T10:35:33.000Z</time>
      </trkpt>
      <trkpt lat="48.70783" lon="1.74533">
        <ele>176.60000610352</ele>
        <time>2013-08-15T10:35:38.000Z</time>
      </trkpt>
      <trkpt lat="48.70789" lon="1.74546">
        <ele>176.39999389648</ele>
        <time>2013-08-15T10:35:45.000Z</time>
      </trkpt>
      <trkpt lat="48.70799" lon="1.74558">
        <ele>176.39999389648</ele>
        <time>2013-08-15T10:35:53.000Z</time>
      </trkpt>
      <trkpt lat="48.70809" lon="1.74573">
        <ele>176.19999694824</ele>
        <time>2013-08-15T10:35:59.000Z</time>
      </trkpt>
      <trkpt lat="48.70818" lon="1.74584">
        <ele>176</ele>
        <time>2013-08-15T10:36:02.000Z</time>
      </trkpt>
      <trkpt lat="48.70847" lon="1.74623">
        <ele>175.80000305176</ele>
        <time>2013-08-15T10:36:10.000Z</time>
      </trkpt>
      <trkpt lat="48.7087" lon="1.74654">
        <ele>175.80000305176</ele>
        <time>2013-08-15T10:36:16.000Z</time>
      </trkpt>
      <trkpt lat="48.70892" lon="1.74685">
        <ele>176.39999389648</ele>
        <time>2013-08-15T10:36:22.000Z</time>
      </trkpt>
      <trkpt lat="48.70917" lon="1.74717">
        <ele>177.19999694824</ele>
        <time>2013-08-15T10:36:29.000Z</time>
      </trkpt>
      <trkpt lat="48.70942" lon="1.74751">
        <ele>178</ele>
        <time>2013-08-15T10:36:37.000Z</time>
      </trkpt>
      <trkpt lat="48.70949" lon="1.74759">
        <ele>178</ele>
        <time>2013-08-15T10:36:39.000Z</time>
      </trkpt>
      <trkpt lat="48.70962" lon="1.74772">
        <ele>178</ele>
        <time>2013-08-15T10:36:43.000Z</time>
      </trkpt>
      <trkpt lat="48.70992" lon="1.74811">
        <ele>178.60000610352</ele>
        <time>2013-08-15T10:36:54.000Z</time>
      </trkpt>
      <trkpt lat="48.71003" lon="1.74828">
        <ele>178.60000610352</ele>
        <time>2013-08-15T10:36:59.000Z</time>
      </trkpt>
      <trkpt lat="48.7101" lon="1.74837">
        <ele>178.39999389648</ele>
        <time>2013-08-15T10:37:03.000Z</time>
      </trkpt>
      <trkpt lat="48.71009" lon="1.74851">
        <ele>178.39999389648</ele>
        <time>2013-08-15T10:37:09.000Z</time>
      </trkpt>
      <trkpt lat="48.71005" lon="1.74861">
        <ele>178.60000610352</ele>
        <time>2013-08-15T10:37:15.000Z</time>
      </trkpt>
      <trkpt lat="48.70996" lon="1.74871">
        <ele>178.80000305176</ele>
        <time>2013-08-15T10:37:23.000Z</time>
      </trkpt>
      <trkpt lat="48.70989" lon="1.74881">
        <ele>178.60000610352</ele>
        <time>2013-08-15T10:37:29.000Z</time>
      </trkpt>
      <trkpt lat="48.70984" lon="1.74887">
        <ele>178.39999389648</ele>
        <time>2013-08-15T10:37:32.000Z</time>
      </trkpt>
      <trkpt lat="48.70975" lon="1.74896">
        <ele>178</ele>
        <time>2013-08-15T10:37:39.000Z</time>
      </trkpt>
      <trkpt lat="48.70964" lon="1.7491">
        <ele>177.19999694824</ele>
        <time>2013-08-15T10:37:48.000Z</time>
      </trkpt>
      <trkpt lat="48.70954" lon="1.74923">
        <ele>176.60000610352</ele>
        <time>2013-08-15T10:37:54.000Z</time>
      </trkpt>
      <trkpt lat="48.70946" lon="1.74934">
        <ele>176.19999694824</ele>
        <time>2013-08-15T10:38:01.000Z</time>
      </trkpt>
      <trkpt lat="48.70938" lon="1.74947">
        <ele>175.80000305176</ele>
        <time>2013-08-15T10:38:09.000Z</time>
      </trkpt>
      <trkpt lat="48.7093" lon="1.74963">
        <ele>175.39999389648</ele>
        <time>2013-08-15T10:38:18.000Z</time>
      </trkpt>
      <trkpt lat="48.7092" lon="1.74979">
        <ele>175</ele>
        <time>2013-08-15T10:38:27.000Z</time>
      </trkpt>
      <trkpt lat="48.70918" lon="1.74983">
        <ele>175</ele>
        <time>2013-08-15T10:38:32.000Z</time>
      </trkpt>
      <trkpt lat="48.70915" lon="1.74991">
        <ele>174.80000305176</ele>
        <time>2013-08-15T10:39:00.000Z</time>
      </trkpt>
      <trkpt lat="48.70913" lon="1.74995">
        <ele>174.80000305176</ele>
        <time>2013-08-15T10:39:04.000Z</time>
      </trkpt>
      <trkpt lat="48.70913" lon="1.74995">
        <ele>174.80000305176</ele>
        <time>2013-08-15T10:39:05.000Z</time>
      </trkpt>
      <trkpt lat="48.70905" lon="1.75016">
        <ele>174.80000305176</ele>
        <time>2013-08-15T10:39:36.000Z</time>
      </trkpt>
      <trkpt lat="48.70898" lon="1.75032">
        <ele>174.60000610352</ele>
        <time>2013-08-15T10:39:44.000Z</time>
      </trkpt>
      <trkpt lat="48.70897" lon="1.75034">
        <ele>174.39999389648</ele>
        <time>2013-08-15T10:39:45.000Z</time>
      </trkpt>
      <trkpt lat="48.70893" lon="1.75046">
        <ele>174.39999389648</ele>
        <time>2013-08-15T10:39:51.000Z</time>
      </trkpt>
      <trkpt lat="48.70889" lon="1.75052">
        <ele>174.19999694824</ele>
        <time>2013-08-15T10:39:55.000Z</time>
      </trkpt>
      <trkpt lat="48.70886" lon="1.7506">
        <ele>174.19999694824</ele>
        <time>2013-08-15T10:40:00.000Z</time>
      </trkpt>
      <trkpt lat="48.70886" lon="1.75062">
        <ele>174.19999694824</ele>
        <time>2013-08-15T10:40:01.000Z</time>
      </trkpt>
      <trkpt lat="48.7088" lon="1.75075">
        <ele>174</ele>
        <time>2013-08-15T10:40:09.000Z</time>
      </trkpt>
      <trkpt lat="48.70877" lon="1.75082">
        <ele>174</ele>
        <time>2013-08-15T10:40:13.000Z</time>
      </trkpt>
      <trkpt lat="48.70871" lon="1.75095">
        <ele>174</ele>
        <time>2013-08-15T10:40:21.000Z</time>
      </trkpt>
      <trkpt lat="48.70864" lon="1.75106">
        <ele>174</ele>
        <time>2013-08-15T10:40:28.000Z</time>
      </trkpt>
      <trkpt lat="48.70859" lon="1.75116">
        <ele>174</ele>
        <time>2013-08-15T10:40:34.000Z</time>
      </trkpt>
      <trkpt lat="48.70857" lon="1.75121">
        <ele>174</ele>
        <time>2013-08-15T10:40:37.000Z</time>
      </trkpt>
      <trkpt lat="48.70852" lon="1.75133">
        <ele>174</ele>
        <time>2013-08-15T10:40:44.000Z</time>
      </trkpt>
      <trkpt lat="48.70848" lon="1.75141">
        <ele>174</ele>
        <time>2013-08-15T10:40:49.000Z</time>
      </trkpt>
      <trkpt lat="48.70844" lon="1.7515">
        <ele>174</ele>
        <time>2013-08-15T10:40:55.000Z</time>
      </trkpt>
      <trkpt lat="48.70841" lon="1.75155">
        <ele>174</ele>
        <time>2013-08-15T10:40:59.000Z</time>
      </trkpt>
      <trkpt lat="48.70839" lon="1.7516">
        <ele>174</ele>
        <time>2013-08-15T10:41:02.000Z</time>
      </trkpt>
      <trkpt lat="48.70836" lon="1.75166">
        <ele>174</ele>
        <time>2013-08-15T10:41:06.000Z</time>
      </trkpt>
      <trkpt lat="48.70831" lon="1.75179">
        <ele>173.80000305176</ele>
        <time>2013-08-15T10:41:14.000Z</time>
      </trkpt>
      <trkpt lat="48.70828" lon="1.75186">
        <ele>173.80000305176</ele>
        <time>2013-08-15T10:41:18.000Z</time>
      </trkpt>
      <trkpt lat="48.70824" lon="1.75192">
        <ele>173.80000305176</ele>
        <time>2013-08-15T10:41:23.000Z</time>
      </trkpt>
      <trkpt lat="48.70824" lon="1.75193">
        <ele>173.80000305176</ele>
        <time>2013-08-15T10:41:24.000Z</time>
      </trkpt>
      <trkpt lat="48.70823" lon="1.75194">
        <ele>173.80000305176</ele>
        <time>2013-08-15T10:41:27.000Z</time>
      </trkpt>
      <trkpt lat="48.70821" lon="1.75199">
        <ele>173.80000305176</ele>
        <time>2013-08-15T10:41:37.000Z</time>
      </trkpt>
      <trkpt lat="48.7082" lon="1.752">
        <ele>173.80000305176</ele>
        <time>2013-08-15T10:41:38.000Z</time>
      </trkpt>
      <trkpt lat="48.70815" lon="1.75214">
        <ele>173.60000610352</ele>
        <time>2013-08-15T10:41:44.000Z</time>
      </trkpt>
      <trkpt lat="48.70812" lon="1.75224">
        <ele>173.60000610352</ele>
        <time>2013-08-15T10:41:49.000Z</time>
      </trkpt>
      <trkpt lat="48.70808" lon="1.75236">
        <ele>173.60000610352</ele>
        <time>2013-08-15T10:41:55.000Z</time>
      </trkpt>
      <trkpt lat="48.70803" lon="1.75247">
        <ele>173.60000610352</ele>
        <time>2013-08-15T10:42:02.000Z</time>
      </trkpt>
      <trkpt lat="48.70799" lon="1.75262">
        <ele>173.39999389648</ele>
        <time>2013-08-15T10:42:10.000Z</time>
      </trkpt>
      <trkpt lat="48.70795" lon="1.75274">
        <ele>173.39999389648</ele>
        <time>2013-08-15T10:42:17.000Z</time>
      </trkpt>
      <trkpt lat="48.70794" lon="1.75275">
        <ele>173.39999389648</ele>
        <time>2013-08-15T10:42:18.000Z</time>
      </trkpt>
      <trkpt lat="48.70788" lon="1.75285">
        <ele>173.39999389648</ele>
        <time>2013-08-15T10:42:25.000Z</time>
      </trkpt>
      <trkpt lat="48.70783" lon="1.75296">
        <ele>173.39999389648</ele>
        <time>2013-08-15T10:42:32.000Z</time>
      </trkpt>
      <trkpt lat="48.70778" lon="1.75308">
        <ele>173.19999694824</ele>
        <time>2013-08-15T10:42:39.000Z</time>
      </trkpt>
      <trkpt lat="48.70777" lon="1.7531">
        <ele>173.19999694824</ele>
        <time>2013-08-15T10:42:40.000Z</time>
      </trkpt>
      <trkpt lat="48.70774" lon="1.75321">
        <ele>173.19999694824</ele>
        <time>2013-08-15T10:42:46.000Z</time>
      </trkpt>
      <trkpt lat="48.70768" lon="1.75336">
        <ele>173</ele>
        <time>2013-08-15T10:42:55.000Z</time>
      </trkpt>
      <trkpt lat="48.70766" lon="1.7534">
        <ele>173</ele>
        <time>2013-08-15T10:42:57.000Z</time>
      </trkpt>
      <trkpt lat="48.70759" lon="1.75361">
        <ele>172.80000305176</ele>
        <time>2013-08-15T10:43:08.000Z</time>
      </trkpt>
      <trkpt lat="48.70754" lon="1.75373">
        <ele>172.39999389648</ele>
        <time>2013-08-15T10:43:15.000Z</time>
      </trkpt>
      <trkpt lat="48.70751" lon="1.75379">
        <ele>172.39999389648</ele>
        <time>2013-08-15T10:43:19.000Z</time>
      </trkpt>
      <trkpt lat="48.70746" lon="1.7539">
        <ele>172.19999694824</ele>
        <time>2013-08-15T10:43:26.000Z</time>
      </trkpt>
      <trkpt lat="48.7074" lon="1.75402">
        <ele>172</ele>
        <time>2013-08-15T10:43:33.000Z</time>
      </trkpt>
      <trkpt lat="48.70735" lon="1.75413">
        <ele>171.80000305176</ele>
        <time>2013-08-15T10:43:40.000Z</time>
      </trkpt>
      <trkpt lat="48.70732" lon="1.75419">
        <ele>171.60000610352</ele>
        <time>2013-08-15T10:43:44.000Z</time>
      </trkpt>
      <trkpt lat="48.70727" lon="1.7543">
        <ele>171.60000610352</ele>
        <time>2013-08-15T10:43:51.000Z</time>
      </trkpt>
      <trkpt lat="48.70725" lon="1.75434">
        <ele>171.60000610352</ele>
        <time>2013-08-15T10:43:54.000Z</time>
      </trkpt>
      <trkpt lat="48.70721" lon="1.75445">
        <ele>171.60000610352</ele>
        <time>2013-08-15T10:44:01.000Z</time>
      </trkpt>
      <trkpt lat="48.7072" lon="1.75449">
        <ele>171.60000610352</ele>
        <time>2013-08-15T10:44:03.000Z</time>
      </trkpt>
      <trkpt lat="48.70718" lon="1.75454">
        <ele>171.60000610352</ele>
        <time>2013-08-15T10:44:06.000Z</time>
      </trkpt>
      <trkpt lat="48.70713" lon="1.75463">
        <ele>171.60000610352</ele>
        <time>2013-08-15T10:44:11.000Z</time>
      </trkpt>
      <trkpt lat="48.70712" lon="1.75466">
        <ele>171.60000610352</ele>
        <time>2013-08-15T10:44:13.000Z</time>
      </trkpt>
    </trkseg>
  </trk>
</gpx>